<?xml version="1.0" encoding="UTF-8" standalone="no" ?>
<gpx xmlns="http://www.topografix.com/GPX/1/1" xmlns:xsi="http://www.w3.org/2001/XMLSchema-instance" xsi:schemaLocation="http://www.topografix.com/GPX/1/1 http://www.topografix.com/GPX/1/1/gpx.xsd" version="1.1" creator="VisuGPX - https://www.visugpx.com">
  <metadata>
    <name>Hautafulhe </name>
    <desc><![CDATA[Randonnée et ascension de Hautafulhe 2647m, depuis le barrage du Tech. Plus d'infos et de photos en cliquant sur ce lien: <https://www.o2rando.com/hautafulhe-2647m>  


]]></desc>
  </metadata>
  <trk>
    <name><![CDATA[Hautafulhe]]></name>
    <extensions>
      <line xmlns="http://www.topografix.com/GPX/gpx_style/0/2">
        <width>4</width>
      </line>
    </extensions>
    <trkseg>
      <trkpt lat="42.91349" lon="-0.25908">
        <ele>1217.7</ele>
        <time>2026-07-04T06:22:18.000Z</time>
      </trkpt>
      <trkpt lat="42.91349" lon="-0.25908">
        <ele>1217.6</ele>
        <time>2026-07-04T06:22:19.000Z</time>
      </trkpt>
      <trkpt lat="42.91348" lon="-0.25907">
        <ele>1217.5</ele>
        <time>2026-07-04T06:22:27.000Z</time>
      </trkpt>
      <trkpt lat="42.91348" lon="-0.25907">
        <ele>1217.2</ele>
        <time>2026-07-04T06:22:39.000Z</time>
      </trkpt>
      <trkpt lat="42.91348" lon="-0.25907">
        <ele>1217.2</ele>
        <time>2026-07-04T06:22:41.000Z</time>
      </trkpt>
      <trkpt lat="42.91348" lon="-0.25905">
        <ele>1217.5</ele>
        <time>2026-07-04T06:23:07.000Z</time>
      </trkpt>
      <trkpt lat="42.91348" lon="-0.25905">
        <ele>1217.5</ele>
        <time>2026-07-04T06:23:07.000Z</time>
      </trkpt>
      <trkpt lat="42.91348" lon="-0.25905">
        <ele>1217.4</ele>
        <time>2026-07-04T06:23:17.000Z</time>
      </trkpt>
      <trkpt lat="42.91348" lon="-0.25905">
        <ele>1217.4</ele>
        <time>2026-07-04T06:23:20.000Z</time>
      </trkpt>
      <trkpt lat="42.91348" lon="-0.25907">
        <ele>1217.1</ele>
        <time>2026-07-04T06:24:41.000Z</time>
      </trkpt>
      <trkpt lat="42.91349" lon="-0.25908">
        <ele>1217.6</ele>
        <time>2026-07-04T06:24:52.000Z</time>
      </trkpt>
      <trkpt lat="42.91349" lon="-0.25909">
        <ele>1217.4</ele>
        <time>2026-07-04T06:25:11.000Z</time>
      </trkpt>
      <trkpt lat="42.91349" lon="-0.25909">
        <ele>1217.4</ele>
        <time>2026-07-04T06:25:22.000Z</time>
      </trkpt>
      <trkpt lat="42.91349" lon="-0.25909">
        <ele>1217.3</ele>
        <time>2026-07-04T06:25:42.000Z</time>
      </trkpt>
      <trkpt lat="42.91349" lon="-0.2591">
        <ele>1217.2</ele>
        <time>2026-07-04T06:26:15.000Z</time>
      </trkpt>
      <trkpt lat="42.91346" lon="-0.25905">
        <ele>1219.1</ele>
        <time>2026-07-04T06:27:01.000Z</time>
      </trkpt>
      <trkpt lat="42.91336" lon="-0.25906">
        <ele>1219.1</ele>
        <time>2026-07-04T06:27:09.000Z</time>
      </trkpt>
      <trkpt lat="42.91326" lon="-0.25908">
        <ele>1219</ele>
        <time>2026-07-04T06:27:17.000Z</time>
      </trkpt>
      <trkpt lat="42.91317" lon="-0.25909">
        <ele>1218.6</ele>
        <time>2026-07-04T06:27:25.000Z</time>
      </trkpt>
      <trkpt lat="42.91314" lon="-0.2591">
        <ele>1217.9</ele>
        <time>2026-07-04T06:27:42.000Z</time>
      </trkpt>
      <trkpt lat="42.91313" lon="-0.25911">
        <ele>1220.2</ele>
        <time>2026-07-04T06:29:14.000Z</time>
      </trkpt>
      <trkpt lat="42.91314" lon="-0.25911">
        <ele>1219.7</ele>
        <time>2026-07-04T06:29:25.000Z</time>
      </trkpt>
      <trkpt lat="42.91314" lon="-0.25911">
        <ele>1218.9</ele>
        <time>2026-07-04T06:29:56.000Z</time>
      </trkpt>
      <trkpt lat="42.91313" lon="-0.25911">
        <ele>1218.9</ele>
        <time>2026-07-04T06:30:07.000Z</time>
      </trkpt>
      <trkpt lat="42.91308" lon="-0.25912">
        <ele>1218.9</ele>
        <time>2026-07-04T06:30:20.000Z</time>
      </trkpt>
      <trkpt lat="42.91308" lon="-0.25912">
        <ele>1219</ele>
        <time>2026-07-04T06:30:54.000Z</time>
      </trkpt>
      <trkpt lat="42.91299" lon="-0.25907">
        <ele>1218.9</ele>
        <time>2026-07-04T06:33:11.000Z</time>
      </trkpt>
      <trkpt lat="42.9129" lon="-0.25907">
        <ele>1218.7</ele>
        <time>2026-07-04T06:33:21.000Z</time>
      </trkpt>
      <trkpt lat="42.91281" lon="-0.2591">
        <ele>1218.6</ele>
        <time>2026-07-04T06:33:28.000Z</time>
      </trkpt>
      <trkpt lat="42.91272" lon="-0.25914">
        <ele>1218.7</ele>
        <time>2026-07-04T06:33:37.000Z</time>
      </trkpt>
      <trkpt lat="42.9127" lon="-0.25927">
        <ele>1218.9</ele>
        <time>2026-07-04T06:33:51.000Z</time>
      </trkpt>
      <trkpt lat="42.91269" lon="-0.2594">
        <ele>1222.5</ele>
        <time>2026-07-04T06:34:02.000Z</time>
      </trkpt>
      <trkpt lat="42.91268" lon="-0.25954">
        <ele>1224.2</ele>
        <time>2026-07-04T06:34:11.000Z</time>
      </trkpt>
      <trkpt lat="42.91264" lon="-0.25965">
        <ele>1224.4</ele>
        <time>2026-07-04T06:34:20.000Z</time>
      </trkpt>
      <trkpt lat="42.91265" lon="-0.25978">
        <ele>1224.6</ele>
        <time>2026-07-04T06:34:29.000Z</time>
      </trkpt>
      <trkpt lat="42.91267" lon="-0.25991">
        <ele>1225.2</ele>
        <time>2026-07-04T06:34:37.000Z</time>
      </trkpt>
      <trkpt lat="42.91263" lon="-0.26004">
        <ele>1228.2</ele>
        <time>2026-07-04T06:34:49.000Z</time>
      </trkpt>
      <trkpt lat="42.91256" lon="-0.26012">
        <ele>1232.1</ele>
        <time>2026-07-04T06:34:58.000Z</time>
      </trkpt>
      <trkpt lat="42.91248" lon="-0.26019">
        <ele>1233.5</ele>
        <time>2026-07-04T06:35:08.000Z</time>
      </trkpt>
      <trkpt lat="42.91243" lon="-0.26029">
        <ele>1233.8</ele>
        <time>2026-07-04T06:35:17.000Z</time>
      </trkpt>
      <trkpt lat="42.91236" lon="-0.26039">
        <ele>1240.1</ele>
        <time>2026-07-04T06:35:30.000Z</time>
      </trkpt>
      <trkpt lat="42.91227" lon="-0.26044">
        <ele>1242.6</ele>
        <time>2026-07-04T06:35:41.000Z</time>
      </trkpt>
      <trkpt lat="42.91221" lon="-0.26054">
        <ele>1244.4</ele>
        <time>2026-07-04T06:35:49.000Z</time>
      </trkpt>
      <trkpt lat="42.91215" lon="-0.26064">
        <ele>1245.1</ele>
        <time>2026-07-04T06:35:58.000Z</time>
      </trkpt>
      <trkpt lat="42.9121" lon="-0.26075">
        <ele>1250.3</ele>
        <time>2026-07-04T06:36:11.000Z</time>
      </trkpt>
      <trkpt lat="42.91203" lon="-0.26084">
        <ele>1254.9</ele>
        <time>2026-07-04T06:36:20.000Z</time>
      </trkpt>
      <trkpt lat="42.91194" lon="-0.26088">
        <ele>1255.6</ele>
        <time>2026-07-04T06:36:33.000Z</time>
      </trkpt>
      <trkpt lat="42.91184" lon="-0.26094">
        <ele>1256.7</ele>
        <time>2026-07-04T06:36:41.000Z</time>
      </trkpt>
      <trkpt lat="42.91177" lon="-0.26101">
        <ele>1259.7</ele>
        <time>2026-07-04T06:36:50.000Z</time>
      </trkpt>
      <trkpt lat="42.91171" lon="-0.26113">
        <ele>1260.5</ele>
        <time>2026-07-04T06:36:58.000Z</time>
      </trkpt>
      <trkpt lat="42.91169" lon="-0.26125">
        <ele>1264.3</ele>
        <time>2026-07-04T06:37:08.000Z</time>
      </trkpt>
      <trkpt lat="42.91176" lon="-0.26132">
        <ele>1268.7</ele>
        <time>2026-07-04T06:37:18.000Z</time>
      </trkpt>
      <trkpt lat="42.91185" lon="-0.26133">
        <ele>1267.4</ele>
        <time>2026-07-04T06:37:31.000Z</time>
      </trkpt>
      <trkpt lat="42.91193" lon="-0.26139">
        <ele>1267.8</ele>
        <time>2026-07-04T06:37:38.000Z</time>
      </trkpt>
      <trkpt lat="42.91203" lon="-0.2614">
        <ele>1263.5</ele>
        <time>2026-07-04T06:37:47.000Z</time>
      </trkpt>
      <trkpt lat="42.91212" lon="-0.26138">
        <ele>1263</ele>
        <time>2026-07-04T06:37:58.000Z</time>
      </trkpt>
      <trkpt lat="42.91221" lon="-0.26134">
        <ele>1264</ele>
        <time>2026-07-04T06:38:09.000Z</time>
      </trkpt>
      <trkpt lat="42.9123" lon="-0.26133">
        <ele>1269.5</ele>
        <time>2026-07-04T06:38:18.000Z</time>
      </trkpt>
      <trkpt lat="42.91239" lon="-0.26131">
        <ele>1272</ele>
        <time>2026-07-04T06:38:27.000Z</time>
      </trkpt>
      <trkpt lat="42.91249" lon="-0.26131">
        <ele>1275.3</ele>
        <time>2026-07-04T06:38:40.000Z</time>
      </trkpt>
      <trkpt lat="42.91258" lon="-0.26132">
        <ele>1276.8</ele>
        <time>2026-07-04T06:38:50.000Z</time>
      </trkpt>
      <trkpt lat="42.9126" lon="-0.26145">
        <ele>1278.8</ele>
        <time>2026-07-04T06:39:00.000Z</time>
      </trkpt>
      <trkpt lat="42.91259" lon="-0.26157">
        <ele>1280.8</ele>
        <time>2026-07-04T06:39:08.000Z</time>
      </trkpt>
      <trkpt lat="42.91259" lon="-0.2617">
        <ele>1282</ele>
        <time>2026-07-04T06:39:17.000Z</time>
      </trkpt>
      <trkpt lat="42.91262" lon="-0.26183">
        <ele>1286.7</ele>
        <time>2026-07-04T06:39:27.000Z</time>
      </trkpt>
      <trkpt lat="42.91262" lon="-0.26195">
        <ele>1296.6</ele>
        <time>2026-07-04T06:39:39.000Z</time>
      </trkpt>
      <trkpt lat="42.9126" lon="-0.26208">
        <ele>1301.5</ele>
        <time>2026-07-04T06:39:49.000Z</time>
      </trkpt>
      <trkpt lat="42.91259" lon="-0.26221">
        <ele>1303.1</ele>
        <time>2026-07-04T06:39:57.000Z</time>
      </trkpt>
      <trkpt lat="42.91257" lon="-0.26233">
        <ele>1303.1</ele>
        <time>2026-07-04T06:40:08.000Z</time>
      </trkpt>
      <trkpt lat="42.91254" lon="-0.26245">
        <ele>1305.1</ele>
        <time>2026-07-04T06:40:21.000Z</time>
      </trkpt>
      <trkpt lat="42.91246" lon="-0.26252">
        <ele>1309.2</ele>
        <time>2026-07-04T06:40:32.000Z</time>
      </trkpt>
      <trkpt lat="42.91241" lon="-0.26262">
        <ele>1313.9</ele>
        <time>2026-07-04T06:40:44.000Z</time>
      </trkpt>
      <trkpt lat="42.91239" lon="-0.26275">
        <ele>1310.4</ele>
        <time>2026-07-04T06:40:56.000Z</time>
      </trkpt>
      <trkpt lat="42.91233" lon="-0.26285">
        <ele>1311.6</ele>
        <time>2026-07-04T06:41:04.000Z</time>
      </trkpt>
      <trkpt lat="42.91227" lon="-0.26295">
        <ele>1313.2</ele>
        <time>2026-07-04T06:41:14.000Z</time>
      </trkpt>
      <trkpt lat="42.91224" lon="-0.26307">
        <ele>1313.3</ele>
        <time>2026-07-04T06:41:22.000Z</time>
      </trkpt>
      <trkpt lat="42.91219" lon="-0.26317">
        <ele>1312.7</ele>
        <time>2026-07-04T06:41:35.000Z</time>
      </trkpt>
      <trkpt lat="42.91216" lon="-0.2633">
        <ele>1313.2</ele>
        <time>2026-07-04T06:41:47.000Z</time>
      </trkpt>
      <trkpt lat="42.91211" lon="-0.2634">
        <ele>1314.4</ele>
        <time>2026-07-04T06:42:01.000Z</time>
      </trkpt>
      <trkpt lat="42.91209" lon="-0.26353">
        <ele>1319.4</ele>
        <time>2026-07-04T06:42:12.000Z</time>
      </trkpt>
      <trkpt lat="42.91203" lon="-0.26362">
        <ele>1321</ele>
        <time>2026-07-04T06:42:27.000Z</time>
      </trkpt>
      <trkpt lat="42.91193" lon="-0.26365">
        <ele>1323.1</ele>
        <time>2026-07-04T06:42:38.000Z</time>
      </trkpt>
      <trkpt lat="42.91184" lon="-0.26369">
        <ele>1325.2</ele>
        <time>2026-07-04T06:42:47.000Z</time>
      </trkpt>
      <trkpt lat="42.91175" lon="-0.26373">
        <ele>1325.1</ele>
        <time>2026-07-04T06:42:56.000Z</time>
      </trkpt>
      <trkpt lat="42.91167" lon="-0.2638">
        <ele>1324.3</ele>
        <time>2026-07-04T06:43:05.000Z</time>
      </trkpt>
      <trkpt lat="42.91161" lon="-0.2639">
        <ele>1323.8</ele>
        <time>2026-07-04T06:43:14.000Z</time>
      </trkpt>
      <trkpt lat="42.91155" lon="-0.26399">
        <ele>1319.6</ele>
        <time>2026-07-04T06:43:25.000Z</time>
      </trkpt>
      <trkpt lat="42.91146" lon="-0.26405">
        <ele>1315.1</ele>
        <time>2026-07-04T06:43:34.000Z</time>
      </trkpt>
      <trkpt lat="42.91138" lon="-0.26412">
        <ele>1315.4</ele>
        <time>2026-07-04T06:43:45.000Z</time>
      </trkpt>
      <trkpt lat="42.9113" lon="-0.26421">
        <ele>1323.9</ele>
        <time>2026-07-04T06:43:55.000Z</time>
      </trkpt>
      <trkpt lat="42.91122" lon="-0.26427">
        <ele>1325.4</ele>
        <time>2026-07-04T06:44:04.000Z</time>
      </trkpt>
      <trkpt lat="42.91114" lon="-0.26434">
        <ele>1330</ele>
        <time>2026-07-04T06:44:17.000Z</time>
      </trkpt>
      <trkpt lat="42.91109" lon="-0.26445">
        <ele>1329.7</ele>
        <time>2026-07-04T06:44:29.000Z</time>
      </trkpt>
      <trkpt lat="42.91104" lon="-0.26456">
        <ele>1330.8</ele>
        <time>2026-07-04T06:44:39.000Z</time>
      </trkpt>
      <trkpt lat="42.91102" lon="-0.26468">
        <ele>1339</ele>
        <time>2026-07-04T06:44:50.000Z</time>
      </trkpt>
      <trkpt lat="42.91106" lon="-0.26479">
        <ele>1346.8</ele>
        <time>2026-07-04T06:45:03.000Z</time>
      </trkpt>
      <trkpt lat="42.9111" lon="-0.26491">
        <ele>1347</ele>
        <time>2026-07-04T06:45:12.000Z</time>
      </trkpt>
      <trkpt lat="42.91115" lon="-0.26501">
        <ele>1350.4</ele>
        <time>2026-07-04T06:45:23.000Z</time>
      </trkpt>
      <trkpt lat="42.91121" lon="-0.26513">
        <ele>1356.7</ele>
        <time>2026-07-04T06:45:34.000Z</time>
      </trkpt>
      <trkpt lat="42.91129" lon="-0.26521">
        <ele>1354.3</ele>
        <time>2026-07-04T06:45:44.000Z</time>
      </trkpt>
      <trkpt lat="42.91135" lon="-0.26529">
        <ele>1354.2</ele>
        <time>2026-07-04T06:45:53.000Z</time>
      </trkpt>
      <trkpt lat="42.91144" lon="-0.26535">
        <ele>1359.3</ele>
        <time>2026-07-04T06:46:05.000Z</time>
      </trkpt>
      <trkpt lat="42.91153" lon="-0.26537">
        <ele>1368.1</ele>
        <time>2026-07-04T06:46:17.000Z</time>
      </trkpt>
      <trkpt lat="42.91162" lon="-0.26539">
        <ele>1370.6</ele>
        <time>2026-07-04T06:46:29.000Z</time>
      </trkpt>
      <trkpt lat="42.91171" lon="-0.26543">
        <ele>1373.2</ele>
        <time>2026-07-04T06:46:39.000Z</time>
      </trkpt>
      <trkpt lat="42.9118" lon="-0.26549">
        <ele>1375.7</ele>
        <time>2026-07-04T06:46:50.000Z</time>
      </trkpt>
      <trkpt lat="42.91189" lon="-0.26554">
        <ele>1374.7</ele>
        <time>2026-07-04T06:47:01.000Z</time>
      </trkpt>
      <trkpt lat="42.91183" lon="-0.26564">
        <ele>1375.4</ele>
        <time>2026-07-04T06:47:20.000Z</time>
      </trkpt>
      <trkpt lat="42.91174" lon="-0.26563">
        <ele>1373.2</ele>
        <time>2026-07-04T06:47:33.000Z</time>
      </trkpt>
      <trkpt lat="42.91164" lon="-0.26558">
        <ele>1373.1</ele>
        <time>2026-07-04T06:47:43.000Z</time>
      </trkpt>
      <trkpt lat="42.91154" lon="-0.26558">
        <ele>1372.9</ele>
        <time>2026-07-04T06:47:51.000Z</time>
      </trkpt>
      <trkpt lat="42.91145" lon="-0.26559">
        <ele>1373</ele>
        <time>2026-07-04T06:48:00.000Z</time>
      </trkpt>
      <trkpt lat="42.91135" lon="-0.2656">
        <ele>1376.8</ele>
        <time>2026-07-04T06:48:09.000Z</time>
      </trkpt>
      <trkpt lat="42.91127" lon="-0.26565">
        <ele>1377</ele>
        <time>2026-07-04T06:48:18.000Z</time>
      </trkpt>
      <trkpt lat="42.91118" lon="-0.26567">
        <ele>1375.2</ele>
        <time>2026-07-04T06:48:25.000Z</time>
      </trkpt>
      <trkpt lat="42.91108" lon="-0.26565">
        <ele>1375.7</ele>
        <time>2026-07-04T06:48:33.000Z</time>
      </trkpt>
      <trkpt lat="42.91099" lon="-0.26567">
        <ele>1376.6</ele>
        <time>2026-07-04T06:48:43.000Z</time>
      </trkpt>
      <trkpt lat="42.9109" lon="-0.26563">
        <ele>1381.2</ele>
        <time>2026-07-04T06:48:56.000Z</time>
      </trkpt>
      <trkpt lat="42.9108" lon="-0.26564">
        <ele>1383</ele>
        <time>2026-07-04T06:49:07.000Z</time>
      </trkpt>
      <trkpt lat="42.91071" lon="-0.2656">
        <ele>1385</ele>
        <time>2026-07-04T06:49:16.000Z</time>
      </trkpt>
      <trkpt lat="42.91062" lon="-0.26559">
        <ele>1391.3</ele>
        <time>2026-07-04T06:49:28.000Z</time>
      </trkpt>
      <trkpt lat="42.91052" lon="-0.26563">
        <ele>1392.7</ele>
        <time>2026-07-04T06:49:40.000Z</time>
      </trkpt>
      <trkpt lat="42.91043" lon="-0.26566">
        <ele>1393.2</ele>
        <time>2026-07-04T06:49:51.000Z</time>
      </trkpt>
      <trkpt lat="42.91035" lon="-0.26571">
        <ele>1393.1</ele>
        <time>2026-07-04T06:49:59.000Z</time>
      </trkpt>
      <trkpt lat="42.91026" lon="-0.26574">
        <ele>1396.1</ele>
        <time>2026-07-04T06:50:12.000Z</time>
      </trkpt>
      <trkpt lat="42.91017" lon="-0.26577">
        <ele>1400.9</ele>
        <time>2026-07-04T06:50:24.000Z</time>
      </trkpt>
      <trkpt lat="42.91008" lon="-0.26582">
        <ele>1400.8</ele>
        <time>2026-07-04T06:50:34.000Z</time>
      </trkpt>
      <trkpt lat="42.90999" lon="-0.26584">
        <ele>1400.4</ele>
        <time>2026-07-04T06:50:47.000Z</time>
      </trkpt>
      <trkpt lat="42.90991" lon="-0.26591">
        <ele>1401.8</ele>
        <time>2026-07-04T06:51:00.000Z</time>
      </trkpt>
      <trkpt lat="42.90982" lon="-0.26596">
        <ele>1404</ele>
        <time>2026-07-04T06:51:10.000Z</time>
      </trkpt>
      <trkpt lat="42.90975" lon="-0.26604">
        <ele>1414.3</ele>
        <time>2026-07-04T06:51:25.000Z</time>
      </trkpt>
      <trkpt lat="42.90968" lon="-0.26612">
        <ele>1417.9</ele>
        <time>2026-07-04T06:51:39.000Z</time>
      </trkpt>
      <trkpt lat="42.90963" lon="-0.26623">
        <ele>1422.7</ele>
        <time>2026-07-04T06:51:56.000Z</time>
      </trkpt>
      <trkpt lat="42.9096" lon="-0.26636">
        <ele>1421.3</ele>
        <time>2026-07-04T06:52:14.000Z</time>
      </trkpt>
      <trkpt lat="42.90958" lon="-0.26649">
        <ele>1422.4</ele>
        <time>2026-07-04T06:52:26.000Z</time>
      </trkpt>
      <trkpt lat="42.90952" lon="-0.26657">
        <ele>1428</ele>
        <time>2026-07-04T06:52:41.000Z</time>
      </trkpt>
      <trkpt lat="42.90944" lon="-0.26664">
        <ele>1431</ele>
        <time>2026-07-04T06:52:53.000Z</time>
      </trkpt>
      <trkpt lat="42.90939" lon="-0.26675">
        <ele>1430.5</ele>
        <time>2026-07-04T06:53:06.000Z</time>
      </trkpt>
      <trkpt lat="42.90933" lon="-0.26684">
        <ele>1431.5</ele>
        <time>2026-07-04T06:53:24.000Z</time>
      </trkpt>
      <trkpt lat="42.90927" lon="-0.26693">
        <ele>1435.2</ele>
        <time>2026-07-04T06:53:39.000Z</time>
      </trkpt>
      <trkpt lat="42.90918" lon="-0.26697">
        <ele>1436.5</ele>
        <time>2026-07-04T06:53:54.000Z</time>
      </trkpt>
      <trkpt lat="42.90914" lon="-0.26708">
        <ele>1438.6</ele>
        <time>2026-07-04T06:54:15.000Z</time>
      </trkpt>
      <trkpt lat="42.90906" lon="-0.26716">
        <ele>1445.1</ele>
        <time>2026-07-04T06:54:34.000Z</time>
      </trkpt>
      <trkpt lat="42.90899" lon="-0.26724">
        <ele>1447.5</ele>
        <time>2026-07-04T06:54:51.000Z</time>
      </trkpt>
      <trkpt lat="42.90893" lon="-0.26733">
        <ele>1448.8</ele>
        <time>2026-07-04T06:55:06.000Z</time>
      </trkpt>
      <trkpt lat="42.90889" lon="-0.26745">
        <ele>1448.4</ele>
        <time>2026-07-04T06:55:19.000Z</time>
      </trkpt>
      <trkpt lat="42.90884" lon="-0.26756">
        <ele>1448.8</ele>
        <time>2026-07-04T06:55:32.000Z</time>
      </trkpt>
      <trkpt lat="42.90875" lon="-0.26759">
        <ele>1457.1</ele>
        <time>2026-07-04T06:55:49.000Z</time>
      </trkpt>
      <trkpt lat="42.90866" lon="-0.26763">
        <ele>1460.2</ele>
        <time>2026-07-04T06:56:01.000Z</time>
      </trkpt>
      <trkpt lat="42.90858" lon="-0.26768">
        <ele>1462.6</ele>
        <time>2026-07-04T06:56:12.000Z</time>
      </trkpt>
      <trkpt lat="42.90849" lon="-0.26775">
        <ele>1461.4</ele>
        <time>2026-07-04T06:56:23.000Z</time>
      </trkpt>
      <trkpt lat="42.90842" lon="-0.26784">
        <ele>1463.2</ele>
        <time>2026-07-04T06:56:34.000Z</time>
      </trkpt>
      <trkpt lat="42.90834" lon="-0.26791">
        <ele>1465.7</ele>
        <time>2026-07-04T06:56:47.000Z</time>
      </trkpt>
      <trkpt lat="42.90826" lon="-0.26799">
        <ele>1471</ele>
        <time>2026-07-04T06:56:59.000Z</time>
      </trkpt>
      <trkpt lat="42.90818" lon="-0.26804">
        <ele>1469.6</ele>
        <time>2026-07-04T06:57:05.000Z</time>
      </trkpt>
      <trkpt lat="42.90809" lon="-0.26808">
        <ele>1469.4</ele>
        <time>2026-07-04T06:57:13.000Z</time>
      </trkpt>
      <trkpt lat="42.90802" lon="-0.26817">
        <ele>1472.9</ele>
        <time>2026-07-04T06:57:21.000Z</time>
      </trkpt>
      <trkpt lat="42.90795" lon="-0.26825">
        <ele>1474</ele>
        <time>2026-07-04T06:57:31.000Z</time>
      </trkpt>
      <trkpt lat="42.90789" lon="-0.26835">
        <ele>1482.9</ele>
        <time>2026-07-04T06:57:47.000Z</time>
      </trkpt>
      <trkpt lat="42.9078" lon="-0.26841">
        <ele>1482.9</ele>
        <time>2026-07-04T06:58:02.000Z</time>
      </trkpt>
      <trkpt lat="42.90772" lon="-0.26849">
        <ele>1480.9</ele>
        <time>2026-07-04T06:58:12.000Z</time>
      </trkpt>
      <trkpt lat="42.90768" lon="-0.2686">
        <ele>1481.1</ele>
        <time>2026-07-04T06:58:21.000Z</time>
      </trkpt>
      <trkpt lat="42.90764" lon="-0.26871">
        <ele>1483.2</ele>
        <time>2026-07-04T06:58:33.000Z</time>
      </trkpt>
      <trkpt lat="42.90759" lon="-0.26883">
        <ele>1484.7</ele>
        <time>2026-07-04T06:58:45.000Z</time>
      </trkpt>
      <trkpt lat="42.90758" lon="-0.26895">
        <ele>1489.2</ele>
        <time>2026-07-04T06:58:56.000Z</time>
      </trkpt>
      <trkpt lat="42.90754" lon="-0.26906">
        <ele>1490.4</ele>
        <time>2026-07-04T06:59:09.000Z</time>
      </trkpt>
      <trkpt lat="42.90747" lon="-0.26915">
        <ele>1492</ele>
        <time>2026-07-04T06:59:22.000Z</time>
      </trkpt>
      <trkpt lat="42.9074" lon="-0.26924">
        <ele>1493</ele>
        <time>2026-07-04T06:59:36.000Z</time>
      </trkpt>
      <trkpt lat="42.90733" lon="-0.26933">
        <ele>1492.5</ele>
        <time>2026-07-04T06:59:49.000Z</time>
      </trkpt>
      <trkpt lat="42.90723" lon="-0.26936">
        <ele>1503.6</ele>
        <time>2026-07-04T07:00:01.000Z</time>
      </trkpt>
      <trkpt lat="42.90716" lon="-0.26943">
        <ele>1507.7</ele>
        <time>2026-07-04T07:00:11.000Z</time>
      </trkpt>
      <trkpt lat="42.9071" lon="-0.26953">
        <ele>1510.1</ele>
        <time>2026-07-04T07:00:22.000Z</time>
      </trkpt>
      <trkpt lat="42.90704" lon="-0.26963">
        <ele>1512.5</ele>
        <time>2026-07-04T07:00:34.000Z</time>
      </trkpt>
      <trkpt lat="42.90701" lon="-0.26975">
        <ele>1517.7</ele>
        <time>2026-07-04T07:00:44.000Z</time>
      </trkpt>
      <trkpt lat="42.90696" lon="-0.26985">
        <ele>1523.3</ele>
        <time>2026-07-04T07:00:55.000Z</time>
      </trkpt>
      <trkpt lat="42.90691" lon="-0.26996">
        <ele>1522.5</ele>
        <time>2026-07-04T07:01:05.000Z</time>
      </trkpt>
      <trkpt lat="42.90683" lon="-0.27004">
        <ele>1529.6</ele>
        <time>2026-07-04T07:01:15.000Z</time>
      </trkpt>
      <trkpt lat="42.90679" lon="-0.27015">
        <ele>1533</ele>
        <time>2026-07-04T07:01:27.000Z</time>
      </trkpt>
      <trkpt lat="42.90679" lon="-0.27028">
        <ele>1525</ele>
        <time>2026-07-04T07:01:40.000Z</time>
      </trkpt>
      <trkpt lat="42.90672" lon="-0.27035">
        <ele>1525.1</ele>
        <time>2026-07-04T07:01:51.000Z</time>
      </trkpt>
      <trkpt lat="42.90664" lon="-0.27044">
        <ele>1526.4</ele>
        <time>2026-07-04T07:02:02.000Z</time>
      </trkpt>
      <trkpt lat="42.90662" lon="-0.27057">
        <ele>1527.1</ele>
        <time>2026-07-04T07:02:12.000Z</time>
      </trkpt>
      <trkpt lat="42.90658" lon="-0.27068">
        <ele>1540.2</ele>
        <time>2026-07-04T07:02:26.000Z</time>
      </trkpt>
      <trkpt lat="42.90662" lon="-0.2708">
        <ele>1551</ele>
        <time>2026-07-04T07:02:35.000Z</time>
      </trkpt>
      <trkpt lat="42.90663" lon="-0.27093">
        <ele>1549.7</ele>
        <time>2026-07-04T07:02:52.000Z</time>
      </trkpt>
      <trkpt lat="42.90664" lon="-0.27105">
        <ele>1544.5</ele>
        <time>2026-07-04T07:03:03.000Z</time>
      </trkpt>
      <trkpt lat="42.90665" lon="-0.27118">
        <ele>1536.1</ele>
        <time>2026-07-04T07:03:13.000Z</time>
      </trkpt>
      <trkpt lat="42.90666" lon="-0.27131">
        <ele>1536.6</ele>
        <time>2026-07-04T07:03:21.000Z</time>
      </trkpt>
      <trkpt lat="42.90665" lon="-0.27143">
        <ele>1540</ele>
        <time>2026-07-04T07:03:33.000Z</time>
      </trkpt>
      <trkpt lat="42.90664" lon="-0.27155">
        <ele>1540.1</ele>
        <time>2026-07-04T07:03:44.000Z</time>
      </trkpt>
      <trkpt lat="42.90662" lon="-0.27169">
        <ele>1539.8</ele>
        <time>2026-07-04T07:03:55.000Z</time>
      </trkpt>
      <trkpt lat="42.90664" lon="-0.27182">
        <ele>1537.5</ele>
        <time>2026-07-04T07:04:04.000Z</time>
      </trkpt>
      <trkpt lat="42.90668" lon="-0.27188">
        <ele>1544.2</ele>
        <time>2026-07-04T07:04:23.000Z</time>
      </trkpt>
      <trkpt lat="42.90668" lon="-0.27195">
        <ele>1544.9</ele>
        <time>2026-07-04T07:05:07.000Z</time>
      </trkpt>
      <trkpt lat="42.90672" lon="-0.27206">
        <ele>1544.7</ele>
        <time>2026-07-04T07:05:19.000Z</time>
      </trkpt>
      <trkpt lat="42.90674" lon="-0.27218">
        <ele>1545.3</ele>
        <time>2026-07-04T07:05:29.000Z</time>
      </trkpt>
      <trkpt lat="42.90678" lon="-0.2723">
        <ele>1546.7</ele>
        <time>2026-07-04T07:05:40.000Z</time>
      </trkpt>
      <trkpt lat="42.90678" lon="-0.27243">
        <ele>1548</ele>
        <time>2026-07-04T07:05:51.000Z</time>
      </trkpt>
      <trkpt lat="42.90677" lon="-0.27256">
        <ele>1553.2</ele>
        <time>2026-07-04T07:06:02.000Z</time>
      </trkpt>
      <trkpt lat="42.90676" lon="-0.27268">
        <ele>1554.7</ele>
        <time>2026-07-04T07:06:13.000Z</time>
      </trkpt>
      <trkpt lat="42.90677" lon="-0.27281">
        <ele>1553.9</ele>
        <time>2026-07-04T07:06:25.000Z</time>
      </trkpt>
      <trkpt lat="42.90675" lon="-0.27293">
        <ele>1555.2</ele>
        <time>2026-07-04T07:06:36.000Z</time>
      </trkpt>
      <trkpt lat="42.90678" lon="-0.27306">
        <ele>1560.2</ele>
        <time>2026-07-04T07:06:51.000Z</time>
      </trkpt>
      <trkpt lat="42.90682" lon="-0.27318">
        <ele>1561</ele>
        <time>2026-07-04T07:07:02.000Z</time>
      </trkpt>
      <trkpt lat="42.90684" lon="-0.2733">
        <ele>1560.1</ele>
        <time>2026-07-04T07:07:12.000Z</time>
      </trkpt>
      <trkpt lat="42.90683" lon="-0.27343">
        <ele>1559.3</ele>
        <time>2026-07-04T07:07:23.000Z</time>
      </trkpt>
      <trkpt lat="42.90684" lon="-0.27356">
        <ele>1561.2</ele>
        <time>2026-07-04T07:07:36.000Z</time>
      </trkpt>
      <trkpt lat="42.90688" lon="-0.27368">
        <ele>1562.4</ele>
        <time>2026-07-04T07:07:50.000Z</time>
      </trkpt>
      <trkpt lat="42.90691" lon="-0.2738">
        <ele>1564</ele>
        <time>2026-07-04T07:08:05.000Z</time>
      </trkpt>
      <trkpt lat="42.90691" lon="-0.27393">
        <ele>1567.5</ele>
        <time>2026-07-04T07:08:17.000Z</time>
      </trkpt>
      <trkpt lat="42.90686" lon="-0.27403">
        <ele>1572.2</ele>
        <time>2026-07-04T07:08:32.000Z</time>
      </trkpt>
      <trkpt lat="42.90683" lon="-0.27415">
        <ele>1578.1</ele>
        <time>2026-07-04T07:08:45.000Z</time>
      </trkpt>
      <trkpt lat="42.90681" lon="-0.27429">
        <ele>1582.6</ele>
        <time>2026-07-04T07:09:01.000Z</time>
      </trkpt>
      <trkpt lat="42.90677" lon="-0.2744">
        <ele>1582.3</ele>
        <time>2026-07-04T07:09:15.000Z</time>
      </trkpt>
      <trkpt lat="42.90675" lon="-0.27453">
        <ele>1582.7</ele>
        <time>2026-07-04T07:09:27.000Z</time>
      </trkpt>
      <trkpt lat="42.90677" lon="-0.27465">
        <ele>1580.1</ele>
        <time>2026-07-04T07:09:40.000Z</time>
      </trkpt>
      <trkpt lat="42.90673" lon="-0.27477">
        <ele>1581.3</ele>
        <time>2026-07-04T07:09:55.000Z</time>
      </trkpt>
      <trkpt lat="42.90672" lon="-0.27489">
        <ele>1586.3</ele>
        <time>2026-07-04T07:10:09.000Z</time>
      </trkpt>
      <trkpt lat="42.90666" lon="-0.27498">
        <ele>1595.7</ele>
        <time>2026-07-04T07:10:22.000Z</time>
      </trkpt>
      <trkpt lat="42.9066" lon="-0.27507">
        <ele>1600.8</ele>
        <time>2026-07-04T07:10:34.000Z</time>
      </trkpt>
      <trkpt lat="42.90658" lon="-0.2752">
        <ele>1607.7</ele>
        <time>2026-07-04T07:10:47.000Z</time>
      </trkpt>
      <trkpt lat="42.90659" lon="-0.27532">
        <ele>1606.8</ele>
        <time>2026-07-04T07:11:00.000Z</time>
      </trkpt>
      <trkpt lat="42.90656" lon="-0.27544">
        <ele>1616.1</ele>
        <time>2026-07-04T07:11:13.000Z</time>
      </trkpt>
      <trkpt lat="42.90649" lon="-0.27554">
        <ele>1610.7</ele>
        <time>2026-07-04T07:11:26.000Z</time>
      </trkpt>
      <trkpt lat="42.90646" lon="-0.27566">
        <ele>1605.6</ele>
        <time>2026-07-04T07:11:39.000Z</time>
      </trkpt>
      <trkpt lat="42.90647" lon="-0.27579">
        <ele>1604.8</ele>
        <time>2026-07-04T07:11:47.000Z</time>
      </trkpt>
      <trkpt lat="42.90647" lon="-0.27593">
        <ele>1600</ele>
        <time>2026-07-04T07:11:58.000Z</time>
      </trkpt>
      <trkpt lat="42.90648" lon="-0.27605">
        <ele>1600.8</ele>
        <time>2026-07-04T07:12:08.000Z</time>
      </trkpt>
      <trkpt lat="42.90643" lon="-0.27616">
        <ele>1600.7</ele>
        <time>2026-07-04T07:12:22.000Z</time>
      </trkpt>
      <trkpt lat="42.90638" lon="-0.27626">
        <ele>1601.8</ele>
        <time>2026-07-04T07:12:33.000Z</time>
      </trkpt>
      <trkpt lat="42.90635" lon="-0.27639">
        <ele>1605.8</ele>
        <time>2026-07-04T07:12:47.000Z</time>
      </trkpt>
      <trkpt lat="42.90636" lon="-0.27652">
        <ele>1609.5</ele>
        <time>2026-07-04T07:12:57.000Z</time>
      </trkpt>
      <trkpt lat="42.90635" lon="-0.27665">
        <ele>1609.6</ele>
        <time>2026-07-04T07:13:12.000Z</time>
      </trkpt>
      <trkpt lat="42.90636" lon="-0.27678">
        <ele>1611</ele>
        <time>2026-07-04T07:13:22.000Z</time>
      </trkpt>
      <trkpt lat="42.90637" lon="-0.27691">
        <ele>1611.1</ele>
        <time>2026-07-04T07:13:36.000Z</time>
      </trkpt>
      <trkpt lat="42.90635" lon="-0.27703">
        <ele>1615.8</ele>
        <time>2026-07-04T07:13:51.000Z</time>
      </trkpt>
      <trkpt lat="42.90635" lon="-0.27716">
        <ele>1617.4</ele>
        <time>2026-07-04T07:14:05.000Z</time>
      </trkpt>
      <trkpt lat="42.90631" lon="-0.27728">
        <ele>1619.9</ele>
        <time>2026-07-04T07:14:20.000Z</time>
      </trkpt>
      <trkpt lat="42.90631" lon="-0.27741">
        <ele>1620.1</ele>
        <time>2026-07-04T07:14:31.000Z</time>
      </trkpt>
      <trkpt lat="42.90638" lon="-0.27749">
        <ele>1620.4</ele>
        <time>2026-07-04T07:14:42.000Z</time>
      </trkpt>
      <trkpt lat="42.90641" lon="-0.27761">
        <ele>1621.2</ele>
        <time>2026-07-04T07:14:56.000Z</time>
      </trkpt>
      <trkpt lat="42.90641" lon="-0.27774">
        <ele>1625.7</ele>
        <time>2026-07-04T07:15:12.000Z</time>
      </trkpt>
      <trkpt lat="42.90641" lon="-0.27786">
        <ele>1627.4</ele>
        <time>2026-07-04T07:15:26.000Z</time>
      </trkpt>
      <trkpt lat="42.90642" lon="-0.27799">
        <ele>1625.9</ele>
        <time>2026-07-04T07:15:55.000Z</time>
      </trkpt>
      <trkpt lat="42.90644" lon="-0.27812">
        <ele>1629.4</ele>
        <time>2026-07-04T07:16:08.000Z</time>
      </trkpt>
      <trkpt lat="42.90647" lon="-0.27824">
        <ele>1633.8</ele>
        <time>2026-07-04T07:16:19.000Z</time>
      </trkpt>
      <trkpt lat="42.90647" lon="-0.27836">
        <ele>1637.8</ele>
        <time>2026-07-04T07:16:34.000Z</time>
      </trkpt>
      <trkpt lat="42.90647" lon="-0.2785">
        <ele>1638.2</ele>
        <time>2026-07-04T07:16:48.000Z</time>
      </trkpt>
      <trkpt lat="42.90651" lon="-0.27861">
        <ele>1640.7</ele>
        <time>2026-07-04T07:17:02.000Z</time>
      </trkpt>
      <trkpt lat="42.90653" lon="-0.27874">
        <ele>1645</ele>
        <time>2026-07-04T07:17:17.000Z</time>
      </trkpt>
      <trkpt lat="42.90653" lon="-0.27886">
        <ele>1645.6</ele>
        <time>2026-07-04T07:17:30.000Z</time>
      </trkpt>
      <trkpt lat="42.90655" lon="-0.27899">
        <ele>1646.6</ele>
        <time>2026-07-04T07:17:45.000Z</time>
      </trkpt>
      <trkpt lat="42.90652" lon="-0.27911">
        <ele>1648.3</ele>
        <time>2026-07-04T07:18:00.000Z</time>
      </trkpt>
      <trkpt lat="42.90657" lon="-0.27921">
        <ele>1650.5</ele>
        <time>2026-07-04T07:18:17.000Z</time>
      </trkpt>
      <trkpt lat="42.90658" lon="-0.27934">
        <ele>1653.9</ele>
        <time>2026-07-04T07:18:32.000Z</time>
      </trkpt>
      <trkpt lat="42.90662" lon="-0.27946">
        <ele>1659.8</ele>
        <time>2026-07-04T07:18:48.000Z</time>
      </trkpt>
      <trkpt lat="42.90665" lon="-0.27959">
        <ele>1660.4</ele>
        <time>2026-07-04T07:19:06.000Z</time>
      </trkpt>
      <trkpt lat="42.90666" lon="-0.27972">
        <ele>1660</ele>
        <time>2026-07-04T07:19:22.000Z</time>
      </trkpt>
      <trkpt lat="42.90666" lon="-0.27984">
        <ele>1663.4</ele>
        <time>2026-07-04T07:19:42.000Z</time>
      </trkpt>
      <trkpt lat="42.90664" lon="-0.27997">
        <ele>1664.4</ele>
        <time>2026-07-04T07:19:59.000Z</time>
      </trkpt>
      <trkpt lat="42.90663" lon="-0.28009">
        <ele>1669.6</ele>
        <time>2026-07-04T07:20:19.000Z</time>
      </trkpt>
      <trkpt lat="42.90668" lon="-0.28019">
        <ele>1673.8</ele>
        <time>2026-07-04T07:20:33.000Z</time>
      </trkpt>
      <trkpt lat="42.90671" lon="-0.28032">
        <ele>1674.6</ele>
        <time>2026-07-04T07:20:54.000Z</time>
      </trkpt>
      <trkpt lat="42.90671" lon="-0.28045">
        <ele>1677.6</ele>
        <time>2026-07-04T07:21:15.000Z</time>
      </trkpt>
      <trkpt lat="42.90677" lon="-0.28054">
        <ele>1680.9</ele>
        <time>2026-07-04T07:21:32.000Z</time>
      </trkpt>
      <trkpt lat="42.90673" lon="-0.28065">
        <ele>1683.9</ele>
        <time>2026-07-04T07:21:52.000Z</time>
      </trkpt>
      <trkpt lat="42.9067" lon="-0.28077">
        <ele>1686.9</ele>
        <time>2026-07-04T07:22:11.000Z</time>
      </trkpt>
      <trkpt lat="42.90669" lon="-0.2809">
        <ele>1688.4</ele>
        <time>2026-07-04T07:22:28.000Z</time>
      </trkpt>
      <trkpt lat="42.90666" lon="-0.28102">
        <ele>1689.7</ele>
        <time>2026-07-04T07:22:51.000Z</time>
      </trkpt>
      <trkpt lat="42.90665" lon="-0.28115">
        <ele>1692.3</ele>
        <time>2026-07-04T07:23:07.000Z</time>
      </trkpt>
      <trkpt lat="42.90664" lon="-0.28127">
        <ele>1703.2</ele>
        <time>2026-07-04T07:23:50.000Z</time>
      </trkpt>
      <trkpt lat="42.90667" lon="-0.28139">
        <ele>1708.3</ele>
        <time>2026-07-04T07:24:11.000Z</time>
      </trkpt>
      <trkpt lat="42.90667" lon="-0.28151">
        <ele>1710</ele>
        <time>2026-07-04T07:24:38.000Z</time>
      </trkpt>
      <trkpt lat="42.90675" lon="-0.28157">
        <ele>1712.6</ele>
        <time>2026-07-04T07:25:00.000Z</time>
      </trkpt>
      <trkpt lat="42.90684" lon="-0.28159">
        <ele>1724.8</ele>
        <time>2026-07-04T07:25:37.000Z</time>
      </trkpt>
      <trkpt lat="42.90682" lon="-0.28171">
        <ele>1725</ele>
        <time>2026-07-04T07:26:06.000Z</time>
      </trkpt>
      <trkpt lat="42.90688" lon="-0.2818">
        <ele>1731.1</ele>
        <time>2026-07-04T07:26:37.000Z</time>
      </trkpt>
      <trkpt lat="42.90685" lon="-0.28191">
        <ele>1735.3</ele>
        <time>2026-07-04T07:27:04.000Z</time>
      </trkpt>
      <trkpt lat="42.90685" lon="-0.28204">
        <ele>1737</ele>
        <time>2026-07-04T07:27:21.000Z</time>
      </trkpt>
      <trkpt lat="42.90682" lon="-0.28217">
        <ele>1742.9</ele>
        <time>2026-07-04T07:27:43.000Z</time>
      </trkpt>
      <trkpt lat="42.9068" lon="-0.28229">
        <ele>1742.2</ele>
        <time>2026-07-04T07:28:01.000Z</time>
      </trkpt>
      <trkpt lat="42.90671" lon="-0.2823">
        <ele>1742.7</ele>
        <time>2026-07-04T07:28:21.000Z</time>
      </trkpt>
      <trkpt lat="42.90665" lon="-0.28239">
        <ele>1743.8</ele>
        <time>2026-07-04T07:28:36.000Z</time>
      </trkpt>
      <trkpt lat="42.90661" lon="-0.2825">
        <ele>1745.6</ele>
        <time>2026-07-04T07:28:51.000Z</time>
      </trkpt>
      <trkpt lat="42.90661" lon="-0.28263">
        <ele>1748.6</ele>
        <time>2026-07-04T07:29:07.000Z</time>
      </trkpt>
      <trkpt lat="42.90656" lon="-0.28273">
        <ele>1748.7</ele>
        <time>2026-07-04T07:29:24.000Z</time>
      </trkpt>
      <trkpt lat="42.90651" lon="-0.28284">
        <ele>1751.4</ele>
        <time>2026-07-04T07:29:42.000Z</time>
      </trkpt>
      <trkpt lat="42.90652" lon="-0.28296">
        <ele>1755.9</ele>
        <time>2026-07-04T07:30:09.000Z</time>
      </trkpt>
      <trkpt lat="42.90648" lon="-0.28307">
        <ele>1761.6</ele>
        <time>2026-07-04T07:30:40.000Z</time>
      </trkpt>
      <trkpt lat="42.90642" lon="-0.28316">
        <ele>1766.8</ele>
        <time>2026-07-04T07:31:16.000Z</time>
      </trkpt>
      <trkpt lat="42.90635" lon="-0.28324">
        <ele>1767.1</ele>
        <time>2026-07-04T07:31:30.000Z</time>
      </trkpt>
      <trkpt lat="42.90632" lon="-0.28336">
        <ele>1769.8</ele>
        <time>2026-07-04T07:31:53.000Z</time>
      </trkpt>
      <trkpt lat="42.90629" lon="-0.28348">
        <ele>1773.9</ele>
        <time>2026-07-04T07:32:11.000Z</time>
      </trkpt>
      <trkpt lat="42.90624" lon="-0.28358">
        <ele>1777.2</ele>
        <time>2026-07-04T07:32:27.000Z</time>
      </trkpt>
      <trkpt lat="42.90617" lon="-0.28366">
        <ele>1783.5</ele>
        <time>2026-07-04T07:32:53.000Z</time>
      </trkpt>
      <trkpt lat="42.90614" lon="-0.28378">
        <ele>1788.9</ele>
        <time>2026-07-04T07:33:22.000Z</time>
      </trkpt>
      <trkpt lat="42.9061" lon="-0.2839">
        <ele>1792.8</ele>
        <time>2026-07-04T07:33:50.000Z</time>
      </trkpt>
      <trkpt lat="42.90618" lon="-0.28395">
        <ele>1800.7</ele>
        <time>2026-07-04T07:34:20.000Z</time>
      </trkpt>
      <trkpt lat="42.90618" lon="-0.28407">
        <ele>1804.5</ele>
        <time>2026-07-04T07:34:57.000Z</time>
      </trkpt>
      <trkpt lat="42.90616" lon="-0.28409">
        <ele>1804.8</ele>
        <time>2026-07-04T07:35:19.000Z</time>
      </trkpt>
      <trkpt lat="42.90617" lon="-0.28418">
        <ele>1800.7</ele>
        <time>2026-07-04T07:35:57.000Z</time>
      </trkpt>
      <trkpt lat="42.90611" lon="-0.28428">
        <ele>1802.7</ele>
        <time>2026-07-04T07:36:18.000Z</time>
      </trkpt>
      <trkpt lat="42.90603" lon="-0.28435">
        <ele>1807.5</ele>
        <time>2026-07-04T07:36:36.000Z</time>
      </trkpt>
      <trkpt lat="42.90594" lon="-0.28437">
        <ele>1809.4</ele>
        <time>2026-07-04T07:36:47.000Z</time>
      </trkpt>
      <trkpt lat="42.90585" lon="-0.2844">
        <ele>1812.9</ele>
        <time>2026-07-04T07:37:01.000Z</time>
      </trkpt>
      <trkpt lat="42.90587" lon="-0.2844">
        <ele>1815.9</ele>
        <time>2026-07-04T07:37:15.000Z</time>
      </trkpt>
      <trkpt lat="42.90584" lon="-0.28443">
        <ele>1814.5</ele>
        <time>2026-07-04T07:37:26.000Z</time>
      </trkpt>
      <trkpt lat="42.90575" lon="-0.28447">
        <ele>1814.8</ele>
        <time>2026-07-04T07:37:37.000Z</time>
      </trkpt>
      <trkpt lat="42.90567" lon="-0.28454">
        <ele>1817.5</ele>
        <time>2026-07-04T07:37:49.000Z</time>
      </trkpt>
      <trkpt lat="42.90561" lon="-0.28463">
        <ele>1818.6</ele>
        <time>2026-07-04T07:38:03.000Z</time>
      </trkpt>
      <trkpt lat="42.90557" lon="-0.28463">
        <ele>1821.3</ele>
        <time>2026-07-04T07:38:22.000Z</time>
      </trkpt>
      <trkpt lat="42.90556" lon="-0.28465">
        <ele>1821.2</ele>
        <time>2026-07-04T07:38:25.000Z</time>
      </trkpt>
      <trkpt lat="42.90551" lon="-0.28476">
        <ele>1819.6</ele>
        <time>2026-07-04T07:38:39.000Z</time>
      </trkpt>
      <trkpt lat="42.90544" lon="-0.28485">
        <ele>1821.9</ele>
        <time>2026-07-04T07:38:57.000Z</time>
      </trkpt>
      <trkpt lat="42.90541" lon="-0.28497">
        <ele>1823.5</ele>
        <time>2026-07-04T07:39:09.000Z</time>
      </trkpt>
      <trkpt lat="42.90534" lon="-0.28501">
        <ele>1824.6</ele>
        <time>2026-07-04T07:39:51.000Z</time>
      </trkpt>
      <trkpt lat="42.90535" lon="-0.28501">
        <ele>1826.1</ele>
        <time>2026-07-04T07:40:34.000Z</time>
      </trkpt>
      <trkpt lat="42.90526" lon="-0.28501">
        <ele>1826.6</ele>
        <time>2026-07-04T07:40:55.000Z</time>
      </trkpt>
      <trkpt lat="42.90518" lon="-0.28508">
        <ele>1829.9</ele>
        <time>2026-07-04T07:41:15.000Z</time>
      </trkpt>
      <trkpt lat="42.90509" lon="-0.28512">
        <ele>1836</ele>
        <time>2026-07-04T07:41:32.000Z</time>
      </trkpt>
      <trkpt lat="42.90501" lon="-0.28504">
        <ele>1837.7</ele>
        <time>2026-07-04T07:41:49.000Z</time>
      </trkpt>
      <trkpt lat="42.90492" lon="-0.28507">
        <ele>1838.4</ele>
        <time>2026-07-04T07:42:08.000Z</time>
      </trkpt>
      <trkpt lat="42.90484" lon="-0.28514">
        <ele>1840.6</ele>
        <time>2026-07-04T07:42:24.000Z</time>
      </trkpt>
      <trkpt lat="42.90479" lon="-0.28525">
        <ele>1843.5</ele>
        <time>2026-07-04T07:42:41.000Z</time>
      </trkpt>
      <trkpt lat="42.90477" lon="-0.28537">
        <ele>1843.8</ele>
        <time>2026-07-04T07:42:53.000Z</time>
      </trkpt>
      <trkpt lat="42.9047" lon="-0.28546">
        <ele>1846.9</ele>
        <time>2026-07-04T07:43:07.000Z</time>
      </trkpt>
      <trkpt lat="42.90467" lon="-0.28558">
        <ele>1849.5</ele>
        <time>2026-07-04T07:43:19.000Z</time>
      </trkpt>
      <trkpt lat="42.90461" lon="-0.28567">
        <ele>1852.1</ele>
        <time>2026-07-04T07:43:32.000Z</time>
      </trkpt>
      <trkpt lat="42.90461" lon="-0.28567">
        <ele>1852</ele>
        <time>2026-07-04T07:43:47.000Z</time>
      </trkpt>
      <trkpt lat="42.90458" lon="-0.28572">
        <ele>1851.5</ele>
        <time>2026-07-04T07:44:00.000Z</time>
      </trkpt>
      <trkpt lat="42.90452" lon="-0.2858">
        <ele>1852.9</ele>
        <time>2026-07-04T07:44:12.000Z</time>
      </trkpt>
      <trkpt lat="42.90445" lon="-0.2859">
        <ele>1854.4</ele>
        <time>2026-07-04T07:44:26.000Z</time>
      </trkpt>
      <trkpt lat="42.90443" lon="-0.28602">
        <ele>1855.9</ele>
        <time>2026-07-04T07:44:47.000Z</time>
      </trkpt>
      <trkpt lat="42.90444" lon="-0.28615">
        <ele>1855.4</ele>
        <time>2026-07-04T07:45:01.000Z</time>
      </trkpt>
      <trkpt lat="42.90451" lon="-0.28623">
        <ele>1854.4</ele>
        <time>2026-07-04T07:45:10.000Z</time>
      </trkpt>
      <trkpt lat="42.90447" lon="-0.28635">
        <ele>1856.9</ele>
        <time>2026-07-04T07:45:24.000Z</time>
      </trkpt>
      <trkpt lat="42.90443" lon="-0.28647">
        <ele>1860.1</ele>
        <time>2026-07-04T07:45:40.000Z</time>
      </trkpt>
      <trkpt lat="42.90441" lon="-0.28659">
        <ele>1863.1</ele>
        <time>2026-07-04T07:45:59.000Z</time>
      </trkpt>
      <trkpt lat="42.90444" lon="-0.2867">
        <ele>1870.6</ele>
        <time>2026-07-04T07:46:23.000Z</time>
      </trkpt>
      <trkpt lat="42.9044" lon="-0.28683">
        <ele>1872.1</ele>
        <time>2026-07-04T07:46:41.000Z</time>
      </trkpt>
      <trkpt lat="42.90434" lon="-0.28692">
        <ele>1872.9</ele>
        <time>2026-07-04T07:46:59.000Z</time>
      </trkpt>
      <trkpt lat="42.90434" lon="-0.28692">
        <ele>1873.8</ele>
        <time>2026-07-04T07:47:16.000Z</time>
      </trkpt>
      <trkpt lat="42.90438" lon="-0.28697">
        <ele>1873.6</ele>
        <time>2026-07-04T07:47:31.000Z</time>
      </trkpt>
      <trkpt lat="42.90446" lon="-0.28701">
        <ele>1877.4</ele>
        <time>2026-07-04T07:47:46.000Z</time>
      </trkpt>
      <trkpt lat="42.90445" lon="-0.28713">
        <ele>1881.8</ele>
        <time>2026-07-04T07:48:11.000Z</time>
      </trkpt>
      <trkpt lat="42.90454" lon="-0.28716">
        <ele>1884.4</ele>
        <time>2026-07-04T07:48:26.000Z</time>
      </trkpt>
      <trkpt lat="42.90453" lon="-0.28728">
        <ele>1889.7</ele>
        <time>2026-07-04T07:48:53.000Z</time>
      </trkpt>
      <trkpt lat="42.90455" lon="-0.2874">
        <ele>1893.8</ele>
        <time>2026-07-04T07:49:25.000Z</time>
      </trkpt>
      <trkpt lat="42.90464" lon="-0.28746">
        <ele>1896.9</ele>
        <time>2026-07-04T07:49:44.000Z</time>
      </trkpt>
      <trkpt lat="42.90473" lon="-0.28749">
        <ele>1903.5</ele>
        <time>2026-07-04T07:50:02.000Z</time>
      </trkpt>
      <trkpt lat="42.90482" lon="-0.28749">
        <ele>1905.4</ele>
        <time>2026-07-04T07:50:15.000Z</time>
      </trkpt>
      <trkpt lat="42.90482" lon="-0.28762">
        <ele>1911.8</ele>
        <time>2026-07-04T07:50:51.000Z</time>
      </trkpt>
      <trkpt lat="42.90478" lon="-0.28773">
        <ele>1915.6</ele>
        <time>2026-07-04T07:51:09.000Z</time>
      </trkpt>
      <trkpt lat="42.90476" lon="-0.28785">
        <ele>1915.8</ele>
        <time>2026-07-04T07:51:28.000Z</time>
      </trkpt>
      <trkpt lat="42.90486" lon="-0.28784">
        <ele>1917.8</ele>
        <time>2026-07-04T07:51:45.000Z</time>
      </trkpt>
      <trkpt lat="42.90495" lon="-0.28781">
        <ele>1923.1</ele>
        <time>2026-07-04T07:52:01.000Z</time>
      </trkpt>
      <trkpt lat="42.90494" lon="-0.28794">
        <ele>1928.5</ele>
        <time>2026-07-04T07:52:33.000Z</time>
      </trkpt>
      <trkpt lat="42.90489" lon="-0.28804">
        <ele>1930.6</ele>
        <time>2026-07-04T07:52:50.000Z</time>
      </trkpt>
      <trkpt lat="42.90496" lon="-0.28814">
        <ele>1936.9</ele>
        <time>2026-07-04T07:53:21.000Z</time>
      </trkpt>
      <trkpt lat="42.90505" lon="-0.2881">
        <ele>1939.9</ele>
        <time>2026-07-04T07:53:36.000Z</time>
      </trkpt>
      <trkpt lat="42.90504" lon="-0.28822">
        <ele>1946.8</ele>
        <time>2026-07-04T07:54:15.000Z</time>
      </trkpt>
      <trkpt lat="42.905" lon="-0.28834">
        <ele>1948.8</ele>
        <time>2026-07-04T07:54:32.000Z</time>
      </trkpt>
      <trkpt lat="42.9051" lon="-0.28834">
        <ele>1951.1</ele>
        <time>2026-07-04T07:54:47.000Z</time>
      </trkpt>
      <trkpt lat="42.90511" lon="-0.28846">
        <ele>1957.7</ele>
        <time>2026-07-04T07:55:27.000Z</time>
      </trkpt>
      <trkpt lat="42.90518" lon="-0.28852">
        <ele>1965.7</ele>
        <time>2026-07-04T07:55:57.000Z</time>
      </trkpt>
      <trkpt lat="42.90521" lon="-0.28865">
        <ele>1972.2</ele>
        <time>2026-07-04T07:56:49.000Z</time>
      </trkpt>
      <trkpt lat="42.90516" lon="-0.28876">
        <ele>1973.9</ele>
        <time>2026-07-04T07:57:12.000Z</time>
      </trkpt>
      <trkpt lat="42.90509" lon="-0.28884">
        <ele>1979.7</ele>
        <time>2026-07-04T07:57:34.000Z</time>
      </trkpt>
      <trkpt lat="42.90504" lon="-0.28895">
        <ele>1980.2</ele>
        <time>2026-07-04T07:57:54.000Z</time>
      </trkpt>
      <trkpt lat="42.905" lon="-0.28906">
        <ele>1984.8</ele>
        <time>2026-07-04T07:58:09.000Z</time>
      </trkpt>
      <trkpt lat="42.90494" lon="-0.28916">
        <ele>1989.3</ele>
        <time>2026-07-04T07:58:23.000Z</time>
      </trkpt>
      <trkpt lat="42.905" lon="-0.28926">
        <ele>1995.7</ele>
        <time>2026-07-04T07:58:56.000Z</time>
      </trkpt>
      <trkpt lat="42.90497" lon="-0.28937">
        <ele>1997.3</ele>
        <time>2026-07-04T07:59:23.000Z</time>
      </trkpt>
      <trkpt lat="42.90501" lon="-0.28948">
        <ele>2004.1</ele>
        <time>2026-07-04T07:59:59.000Z</time>
      </trkpt>
      <trkpt lat="42.90503" lon="-0.2896">
        <ele>2011.8</ele>
        <time>2026-07-04T08:00:45.000Z</time>
      </trkpt>
      <trkpt lat="42.90502" lon="-0.28973">
        <ele>2020.7</ele>
        <time>2026-07-04T08:01:20.000Z</time>
      </trkpt>
      <trkpt lat="42.90499" lon="-0.28984">
        <ele>2023.4</ele>
        <time>2026-07-04T08:01:49.000Z</time>
      </trkpt>
      <trkpt lat="42.90502" lon="-0.28997">
        <ele>2026.7</ele>
        <time>2026-07-04T08:02:26.000Z</time>
      </trkpt>
      <trkpt lat="42.90505" lon="-0.29008">
        <ele>2036.4</ele>
        <time>2026-07-04T08:03:10.000Z</time>
      </trkpt>
      <trkpt lat="42.90506" lon="-0.2902">
        <ele>2042.5</ele>
        <time>2026-07-04T08:03:48.000Z</time>
      </trkpt>
      <trkpt lat="42.90505" lon="-0.29033">
        <ele>2048.4</ele>
        <time>2026-07-04T08:04:27.000Z</time>
      </trkpt>
      <trkpt lat="42.90497" lon="-0.29042">
        <ele>2052.9</ele>
        <time>2026-07-04T08:04:59.000Z</time>
      </trkpt>
      <trkpt lat="42.90489" lon="-0.29045">
        <ele>2053.6</ele>
        <time>2026-07-04T08:05:22.000Z</time>
      </trkpt>
      <trkpt lat="42.90484" lon="-0.29056">
        <ele>2060.1</ele>
        <time>2026-07-04T08:05:48.000Z</time>
      </trkpt>
      <trkpt lat="42.90475" lon="-0.29058">
        <ele>2065.1</ele>
        <time>2026-07-04T08:06:20.000Z</time>
      </trkpt>
      <trkpt lat="42.90467" lon="-0.29063">
        <ele>2068.6</ele>
        <time>2026-07-04T08:06:53.000Z</time>
      </trkpt>
      <trkpt lat="42.90464" lon="-0.29075">
        <ele>2074.2</ele>
        <time>2026-07-04T08:07:24.000Z</time>
      </trkpt>
      <trkpt lat="42.90456" lon="-0.29082">
        <ele>2077.5</ele>
        <time>2026-07-04T08:07:44.000Z</time>
      </trkpt>
      <trkpt lat="42.90449" lon="-0.29089">
        <ele>2081</ele>
        <time>2026-07-04T08:08:05.000Z</time>
      </trkpt>
      <trkpt lat="42.90447" lon="-0.29101">
        <ele>2087.5</ele>
        <time>2026-07-04T08:08:38.000Z</time>
      </trkpt>
      <trkpt lat="42.90437" lon="-0.29104">
        <ele>2090.1</ele>
        <time>2026-07-04T08:08:54.000Z</time>
      </trkpt>
      <trkpt lat="42.9043" lon="-0.29111">
        <ele>2092</ele>
        <time>2026-07-04T08:09:12.000Z</time>
      </trkpt>
      <trkpt lat="42.90421" lon="-0.29116">
        <ele>2095.4</ele>
        <time>2026-07-04T08:09:39.000Z</time>
      </trkpt>
      <trkpt lat="42.90422" lon="-0.29129">
        <ele>2096.3</ele>
        <time>2026-07-04T08:09:52.000Z</time>
      </trkpt>
      <trkpt lat="42.90423" lon="-0.29141">
        <ele>2100.5</ele>
        <time>2026-07-04T08:10:09.000Z</time>
      </trkpt>
      <trkpt lat="42.90423" lon="-0.29154">
        <ele>2104.2</ele>
        <time>2026-07-04T08:10:44.000Z</time>
      </trkpt>
      <trkpt lat="42.9042" lon="-0.29166">
        <ele>2110.4</ele>
        <time>2026-07-04T08:11:12.000Z</time>
      </trkpt>
      <trkpt lat="42.90411" lon="-0.29163">
        <ele>2115.1</ele>
        <time>2026-07-04T08:11:46.000Z</time>
      </trkpt>
      <trkpt lat="42.90402" lon="-0.29165">
        <ele>2118.5</ele>
        <time>2026-07-04T08:12:05.000Z</time>
      </trkpt>
      <trkpt lat="42.90396" lon="-0.29174">
        <ele>2121</ele>
        <time>2026-07-04T08:12:19.000Z</time>
      </trkpt>
      <trkpt lat="42.90387" lon="-0.29179">
        <ele>2123.1</ele>
        <time>2026-07-04T08:12:36.000Z</time>
      </trkpt>
      <trkpt lat="42.90381" lon="-0.2919">
        <ele>2124.1</ele>
        <time>2026-07-04T08:12:50.000Z</time>
      </trkpt>
      <trkpt lat="42.90379" lon="-0.29202">
        <ele>2126.6</ele>
        <time>2026-07-04T08:13:06.000Z</time>
      </trkpt>
      <trkpt lat="42.90387" lon="-0.29209">
        <ele>2128.5</ele>
        <time>2026-07-04T08:13:29.000Z</time>
      </trkpt>
      <trkpt lat="42.90396" lon="-0.29209">
        <ele>2131.7</ele>
        <time>2026-07-04T08:13:45.000Z</time>
      </trkpt>
      <trkpt lat="42.90396" lon="-0.29221">
        <ele>2134.9</ele>
        <time>2026-07-04T08:14:07.000Z</time>
      </trkpt>
      <trkpt lat="42.9039" lon="-0.29232">
        <ele>2135.9</ele>
        <time>2026-07-04T08:14:20.000Z</time>
      </trkpt>
      <trkpt lat="42.90386" lon="-0.29243">
        <ele>2138.1</ele>
        <time>2026-07-04T08:14:34.000Z</time>
      </trkpt>
      <trkpt lat="42.90383" lon="-0.29255">
        <ele>2140.5</ele>
        <time>2026-07-04T08:14:47.000Z</time>
      </trkpt>
      <trkpt lat="42.90378" lon="-0.29266">
        <ele>2142.2</ele>
        <time>2026-07-04T08:15:02.000Z</time>
      </trkpt>
      <trkpt lat="42.90374" lon="-0.29278">
        <ele>2144.5</ele>
        <time>2026-07-04T08:15:18.000Z</time>
      </trkpt>
      <trkpt lat="42.90369" lon="-0.29289">
        <ele>2148.6</ele>
        <time>2026-07-04T08:15:36.000Z</time>
      </trkpt>
      <trkpt lat="42.90363" lon="-0.29298">
        <ele>2150.2</ele>
        <time>2026-07-04T08:15:54.000Z</time>
      </trkpt>
      <trkpt lat="42.90358" lon="-0.2931">
        <ele>2153.5</ele>
        <time>2026-07-04T08:16:14.000Z</time>
      </trkpt>
      <trkpt lat="42.90365" lon="-0.29318">
        <ele>2157.1</ele>
        <time>2026-07-04T08:16:40.000Z</time>
      </trkpt>
      <trkpt lat="42.90374" lon="-0.29322">
        <ele>2158.8</ele>
        <time>2026-07-04T08:16:52.000Z</time>
      </trkpt>
      <trkpt lat="42.90381" lon="-0.29328">
        <ele>2160.1</ele>
        <time>2026-07-04T08:17:07.000Z</time>
      </trkpt>
      <trkpt lat="42.9039" lon="-0.2933">
        <ele>2162</ele>
        <time>2026-07-04T08:17:20.000Z</time>
      </trkpt>
      <trkpt lat="42.904" lon="-0.29329">
        <ele>2164.6</ele>
        <time>2026-07-04T08:17:37.000Z</time>
      </trkpt>
      <trkpt lat="42.90409" lon="-0.29325">
        <ele>2165.4</ele>
        <time>2026-07-04T08:17:49.000Z</time>
      </trkpt>
      <trkpt lat="42.90418" lon="-0.29323">
        <ele>2167.2</ele>
        <time>2026-07-04T08:18:03.000Z</time>
      </trkpt>
      <trkpt lat="42.90427" lon="-0.29322">
        <ele>2169.7</ele>
        <time>2026-07-04T08:18:18.000Z</time>
      </trkpt>
      <trkpt lat="42.90429" lon="-0.29335">
        <ele>2174.5</ele>
        <time>2026-07-04T08:18:46.000Z</time>
      </trkpt>
      <trkpt lat="42.90428" lon="-0.29348">
        <ele>2179.4</ele>
        <time>2026-07-04T08:19:05.000Z</time>
      </trkpt>
      <trkpt lat="42.90423" lon="-0.29359">
        <ele>2181.8</ele>
        <time>2026-07-04T08:19:27.000Z</time>
      </trkpt>
      <trkpt lat="42.90416" lon="-0.2936">
        <ele>2180.8</ele>
        <time>2026-07-04T08:19:59.000Z</time>
      </trkpt>
      <trkpt lat="42.90412" lon="-0.29366">
        <ele>2180.5</ele>
        <time>2026-07-04T08:20:12.000Z</time>
      </trkpt>
      <trkpt lat="42.90406" lon="-0.29377">
        <ele>2184.6</ele>
        <time>2026-07-04T08:20:29.000Z</time>
      </trkpt>
      <trkpt lat="42.904" lon="-0.29387">
        <ele>2187.4</ele>
        <time>2026-07-04T08:20:51.000Z</time>
      </trkpt>
      <trkpt lat="42.90394" lon="-0.29397">
        <ele>2190.2</ele>
        <time>2026-07-04T08:21:11.000Z</time>
      </trkpt>
      <trkpt lat="42.90393" lon="-0.29409">
        <ele>2194.1</ele>
        <time>2026-07-04T08:21:32.000Z</time>
      </trkpt>
      <trkpt lat="42.90388" lon="-0.2942">
        <ele>2197.5</ele>
        <time>2026-07-04T08:21:50.000Z</time>
      </trkpt>
      <trkpt lat="42.90381" lon="-0.29428">
        <ele>2200.9</ele>
        <time>2026-07-04T08:22:09.000Z</time>
      </trkpt>
      <trkpt lat="42.90373" lon="-0.29433">
        <ele>2201.6</ele>
        <time>2026-07-04T08:22:27.000Z</time>
      </trkpt>
      <trkpt lat="42.90376" lon="-0.29445">
        <ele>2205.5</ele>
        <time>2026-07-04T08:22:51.000Z</time>
      </trkpt>
      <trkpt lat="42.90369" lon="-0.29453">
        <ele>2208.7</ele>
        <time>2026-07-04T08:23:35.000Z</time>
      </trkpt>
      <trkpt lat="42.90372" lon="-0.29465">
        <ele>2211.9</ele>
        <time>2026-07-04T08:23:56.000Z</time>
      </trkpt>
      <trkpt lat="42.90377" lon="-0.29475">
        <ele>2213.1</ele>
        <time>2026-07-04T08:24:17.000Z</time>
      </trkpt>
      <trkpt lat="42.90368" lon="-0.29475">
        <ele>2218.5</ele>
        <time>2026-07-04T08:24:40.000Z</time>
      </trkpt>
      <trkpt lat="42.90359" lon="-0.29474">
        <ele>2219.4</ele>
        <time>2026-07-04T08:24:57.000Z</time>
      </trkpt>
      <trkpt lat="42.90353" lon="-0.29465">
        <ele>2222.9</ele>
        <time>2026-07-04T08:25:09.000Z</time>
      </trkpt>
      <trkpt lat="42.90346" lon="-0.29457">
        <ele>2225.8</ele>
        <time>2026-07-04T08:25:28.000Z</time>
      </trkpt>
      <trkpt lat="42.90344" lon="-0.29469">
        <ele>2228.5</ele>
        <time>2026-07-04T08:25:44.000Z</time>
      </trkpt>
      <trkpt lat="42.90344" lon="-0.29482">
        <ele>2233.2</ele>
        <time>2026-07-04T08:26:04.000Z</time>
      </trkpt>
      <trkpt lat="42.90335" lon="-0.29484">
        <ele>2236.4</ele>
        <time>2026-07-04T08:26:37.000Z</time>
      </trkpt>
      <trkpt lat="42.90326" lon="-0.29485">
        <ele>2237.9</ele>
        <time>2026-07-04T08:26:54.000Z</time>
      </trkpt>
      <trkpt lat="42.90329" lon="-0.29497">
        <ele>2242</ele>
        <time>2026-07-04T08:27:15.000Z</time>
      </trkpt>
      <trkpt lat="42.90327" lon="-0.2951">
        <ele>2245.7</ele>
        <time>2026-07-04T08:27:48.000Z</time>
      </trkpt>
      <trkpt lat="42.9032" lon="-0.29516">
        <ele>2248.6</ele>
        <time>2026-07-04T08:28:10.000Z</time>
      </trkpt>
      <trkpt lat="42.90311" lon="-0.29519">
        <ele>2250.8</ele>
        <time>2026-07-04T08:28:25.000Z</time>
      </trkpt>
      <trkpt lat="42.90302" lon="-0.29517">
        <ele>2253.4</ele>
        <time>2026-07-04T08:28:41.000Z</time>
      </trkpt>
      <trkpt lat="42.90294" lon="-0.29525">
        <ele>2255.9</ele>
        <time>2026-07-04T08:28:58.000Z</time>
      </trkpt>
      <trkpt lat="42.90288" lon="-0.29534">
        <ele>2258.3</ele>
        <time>2026-07-04T08:29:13.000Z</time>
      </trkpt>
      <trkpt lat="42.9028" lon="-0.29539">
        <ele>2259.8</ele>
        <time>2026-07-04T08:29:31.000Z</time>
      </trkpt>
      <trkpt lat="42.90271" lon="-0.29544">
        <ele>2262.6</ele>
        <time>2026-07-04T08:29:49.000Z</time>
      </trkpt>
      <trkpt lat="42.90262" lon="-0.29546">
        <ele>2265.5</ele>
        <time>2026-07-04T08:30:09.000Z</time>
      </trkpt>
      <trkpt lat="42.90254" lon="-0.29551">
        <ele>2268.5</ele>
        <time>2026-07-04T08:30:27.000Z</time>
      </trkpt>
      <trkpt lat="42.90244" lon="-0.29554">
        <ele>2272.8</ele>
        <time>2026-07-04T08:30:55.000Z</time>
      </trkpt>
      <trkpt lat="42.90235" lon="-0.29559">
        <ele>2273.2</ele>
        <time>2026-07-04T08:31:15.000Z</time>
      </trkpt>
      <trkpt lat="42.90229" lon="-0.2957">
        <ele>2273.1</ele>
        <time>2026-07-04T08:31:28.000Z</time>
      </trkpt>
      <trkpt lat="42.90221" lon="-0.29576">
        <ele>2275.8</ele>
        <time>2026-07-04T08:31:44.000Z</time>
      </trkpt>
      <trkpt lat="42.90214" lon="-0.29583">
        <ele>2278.3</ele>
        <time>2026-07-04T08:31:58.000Z</time>
      </trkpt>
      <trkpt lat="42.90205" lon="-0.29586">
        <ele>2281</ele>
        <time>2026-07-04T08:32:13.000Z</time>
      </trkpt>
      <trkpt lat="42.90197" lon="-0.29591">
        <ele>2282.5</ele>
        <time>2026-07-04T08:32:32.000Z</time>
      </trkpt>
      <trkpt lat="42.90187" lon="-0.29595">
        <ele>2285.2</ele>
        <time>2026-07-04T08:32:51.000Z</time>
      </trkpt>
      <trkpt lat="42.90178" lon="-0.29593">
        <ele>2287.5</ele>
        <time>2026-07-04T08:33:11.000Z</time>
      </trkpt>
      <trkpt lat="42.9017" lon="-0.29588">
        <ele>2293</ele>
        <time>2026-07-04T08:33:48.000Z</time>
      </trkpt>
      <trkpt lat="42.90165" lon="-0.29597">
        <ele>2294.3</ele>
        <time>2026-07-04T08:34:19.000Z</time>
      </trkpt>
      <trkpt lat="42.90165" lon="-0.29595">
        <ele>2293.3</ele>
        <time>2026-07-04T08:34:26.000Z</time>
      </trkpt>
      <trkpt lat="42.90155" lon="-0.29596">
        <ele>2300.8</ele>
        <time>2026-07-04T08:35:00.000Z</time>
      </trkpt>
      <trkpt lat="42.9015" lon="-0.29607">
        <ele>2304.3</ele>
        <time>2026-07-04T08:35:17.000Z</time>
      </trkpt>
      <trkpt lat="42.90147" lon="-0.2962">
        <ele>2305.9</ele>
        <time>2026-07-04T08:35:29.000Z</time>
      </trkpt>
      <trkpt lat="42.90146" lon="-0.29632">
        <ele>2306.9</ele>
        <time>2026-07-04T08:35:41.000Z</time>
      </trkpt>
      <trkpt lat="42.90145" lon="-0.29644">
        <ele>2307.6</ele>
        <time>2026-07-04T08:35:53.000Z</time>
      </trkpt>
      <trkpt lat="42.90148" lon="-0.29656">
        <ele>2308.9</ele>
        <time>2026-07-04T08:36:08.000Z</time>
      </trkpt>
      <trkpt lat="42.90148" lon="-0.29668">
        <ele>2312.9</ele>
        <time>2026-07-04T08:36:38.000Z</time>
      </trkpt>
      <trkpt lat="42.90143" lon="-0.2968">
        <ele>2316.6</ele>
        <time>2026-07-04T08:36:51.000Z</time>
      </trkpt>
      <trkpt lat="42.90137" lon="-0.2969">
        <ele>2316.9</ele>
        <time>2026-07-04T08:37:02.000Z</time>
      </trkpt>
      <trkpt lat="42.90132" lon="-0.297">
        <ele>2316.7</ele>
        <time>2026-07-04T08:37:13.000Z</time>
      </trkpt>
      <trkpt lat="42.90126" lon="-0.2971">
        <ele>2317.4</ele>
        <time>2026-07-04T08:37:28.000Z</time>
      </trkpt>
      <trkpt lat="42.90122" lon="-0.29721">
        <ele>2320.2</ele>
        <time>2026-07-04T08:37:41.000Z</time>
      </trkpt>
      <trkpt lat="42.90115" lon="-0.2973">
        <ele>2320</ele>
        <time>2026-07-04T08:37:54.000Z</time>
      </trkpt>
      <trkpt lat="42.9011" lon="-0.29741">
        <ele>2320.2</ele>
        <time>2026-07-04T08:38:08.000Z</time>
      </trkpt>
      <trkpt lat="42.90104" lon="-0.29751">
        <ele>2321</ele>
        <time>2026-07-04T08:38:26.000Z</time>
      </trkpt>
      <trkpt lat="42.901" lon="-0.29763">
        <ele>2324.2</ele>
        <time>2026-07-04T08:38:49.000Z</time>
      </trkpt>
      <trkpt lat="42.90091" lon="-0.29767">
        <ele>2329.2</ele>
        <time>2026-07-04T08:39:05.000Z</time>
      </trkpt>
      <trkpt lat="42.90083" lon="-0.29774">
        <ele>2329</ele>
        <time>2026-07-04T08:39:18.000Z</time>
      </trkpt>
      <trkpt lat="42.90077" lon="-0.29784">
        <ele>2328.7</ele>
        <time>2026-07-04T08:39:30.000Z</time>
      </trkpt>
      <trkpt lat="42.90071" lon="-0.29794">
        <ele>2328.4</ele>
        <time>2026-07-04T08:39:43.000Z</time>
      </trkpt>
      <trkpt lat="42.90064" lon="-0.29803">
        <ele>2328.6</ele>
        <time>2026-07-04T08:39:54.000Z</time>
      </trkpt>
      <trkpt lat="42.90059" lon="-0.29814">
        <ele>2329.3</ele>
        <time>2026-07-04T08:40:07.000Z</time>
      </trkpt>
      <trkpt lat="42.90054" lon="-0.29825">
        <ele>2330.7</ele>
        <time>2026-07-04T08:40:21.000Z</time>
      </trkpt>
      <trkpt lat="42.90047" lon="-0.29834">
        <ele>2333.2</ele>
        <time>2026-07-04T08:40:33.000Z</time>
      </trkpt>
      <trkpt lat="42.9004" lon="-0.29842">
        <ele>2334.4</ele>
        <time>2026-07-04T08:40:45.000Z</time>
      </trkpt>
      <trkpt lat="42.90034" lon="-0.29852">
        <ele>2334.9</ele>
        <time>2026-07-04T08:40:57.000Z</time>
      </trkpt>
      <trkpt lat="42.90027" lon="-0.2986">
        <ele>2335.3</ele>
        <time>2026-07-04T08:41:09.000Z</time>
      </trkpt>
      <trkpt lat="42.90022" lon="-0.29871">
        <ele>2335.3</ele>
        <time>2026-07-04T08:41:20.000Z</time>
      </trkpt>
      <trkpt lat="42.90016" lon="-0.2988">
        <ele>2335.2</ele>
        <time>2026-07-04T08:41:31.000Z</time>
      </trkpt>
      <trkpt lat="42.90012" lon="-0.29891">
        <ele>2335.1</ele>
        <time>2026-07-04T08:41:42.000Z</time>
      </trkpt>
      <trkpt lat="42.90008" lon="-0.29903">
        <ele>2335.4</ele>
        <time>2026-07-04T08:41:55.000Z</time>
      </trkpt>
      <trkpt lat="42.90003" lon="-0.29913">
        <ele>2339.6</ele>
        <time>2026-07-04T08:42:10.000Z</time>
      </trkpt>
      <trkpt lat="42.89997" lon="-0.29923">
        <ele>2340.1</ele>
        <time>2026-07-04T08:42:22.000Z</time>
      </trkpt>
      <trkpt lat="42.89992" lon="-0.29933">
        <ele>2339.9</ele>
        <time>2026-07-04T08:42:32.000Z</time>
      </trkpt>
      <trkpt lat="42.89986" lon="-0.29944">
        <ele>2338.7</ele>
        <time>2026-07-04T08:42:42.000Z</time>
      </trkpt>
      <trkpt lat="42.89978" lon="-0.29948">
        <ele>2336</ele>
        <time>2026-07-04T08:42:59.000Z</time>
      </trkpt>
      <trkpt lat="42.89969" lon="-0.29953">
        <ele>2335.2</ele>
        <time>2026-07-04T08:43:12.000Z</time>
      </trkpt>
      <trkpt lat="42.89962" lon="-0.29962">
        <ele>2335.6</ele>
        <time>2026-07-04T08:43:26.000Z</time>
      </trkpt>
      <trkpt lat="42.89955" lon="-0.29969">
        <ele>2336.2</ele>
        <time>2026-07-04T08:43:37.000Z</time>
      </trkpt>
      <trkpt lat="42.89952" lon="-0.29972">
        <ele>2337.6</ele>
        <time>2026-07-04T08:43:54.000Z</time>
      </trkpt>
      <trkpt lat="42.8995" lon="-0.29973">
        <ele>2338</ele>
        <time>2026-07-04T08:43:57.000Z</time>
      </trkpt>
      <trkpt lat="42.89947" lon="-0.29985">
        <ele>2337.3</ele>
        <time>2026-07-04T08:44:15.000Z</time>
      </trkpt>
      <trkpt lat="42.89951" lon="-0.29996">
        <ele>2336.7</ele>
        <time>2026-07-04T08:44:24.000Z</time>
      </trkpt>
      <trkpt lat="42.89958" lon="-0.30006">
        <ele>2337.3</ele>
        <time>2026-07-04T08:44:35.000Z</time>
      </trkpt>
      <trkpt lat="42.89959" lon="-0.30018">
        <ele>2339.8</ele>
        <time>2026-07-04T08:44:47.000Z</time>
      </trkpt>
      <trkpt lat="42.89966" lon="-0.30027">
        <ele>2344</ele>
        <time>2026-07-04T08:45:11.000Z</time>
      </trkpt>
      <trkpt lat="42.8997" lon="-0.30038">
        <ele>2345.2</ele>
        <time>2026-07-04T08:45:30.000Z</time>
      </trkpt>
      <trkpt lat="42.89974" lon="-0.3005">
        <ele>2346.7</ele>
        <time>2026-07-04T08:45:54.000Z</time>
      </trkpt>
      <trkpt lat="42.89973" lon="-0.30062">
        <ele>2347.1</ele>
        <time>2026-07-04T08:46:12.000Z</time>
      </trkpt>
      <trkpt lat="42.89974" lon="-0.30075">
        <ele>2350.1</ele>
        <time>2026-07-04T08:46:26.000Z</time>
      </trkpt>
      <trkpt lat="42.89978" lon="-0.30087">
        <ele>2351.1</ele>
        <time>2026-07-04T08:46:40.000Z</time>
      </trkpt>
      <trkpt lat="42.8998" lon="-0.30099">
        <ele>2351.2</ele>
        <time>2026-07-04T08:46:53.000Z</time>
      </trkpt>
      <trkpt lat="42.8998" lon="-0.30103">
        <ele>2351.7</ele>
        <time>2026-07-04T08:47:09.000Z</time>
      </trkpt>
      <trkpt lat="42.8998" lon="-0.30104">
        <ele>2351.7</ele>
        <time>2026-07-04T08:47:11.000Z</time>
      </trkpt>
      <trkpt lat="42.8998" lon="-0.30103">
        <ele>2351.3</ele>
        <time>2026-07-04T08:47:23.000Z</time>
      </trkpt>
      <trkpt lat="42.89981" lon="-0.30109">
        <ele>2351.5</ele>
        <time>2026-07-04T08:48:01.000Z</time>
      </trkpt>
      <trkpt lat="42.89985" lon="-0.30121">
        <ele>2352</ele>
        <time>2026-07-04T08:48:12.000Z</time>
      </trkpt>
      <trkpt lat="42.89986" lon="-0.30134">
        <ele>2352.2</ele>
        <time>2026-07-04T08:48:24.000Z</time>
      </trkpt>
      <trkpt lat="42.89987" lon="-0.30147">
        <ele>2354.1</ele>
        <time>2026-07-04T08:48:42.000Z</time>
      </trkpt>
      <trkpt lat="42.89989" lon="-0.3016">
        <ele>2354.6</ele>
        <time>2026-07-04T08:48:52.000Z</time>
      </trkpt>
      <trkpt lat="42.89991" lon="-0.30173">
        <ele>2354.7</ele>
        <time>2026-07-04T08:49:03.000Z</time>
      </trkpt>
      <trkpt lat="42.89992" lon="-0.30186">
        <ele>2357.8</ele>
        <time>2026-07-04T08:49:29.000Z</time>
      </trkpt>
      <trkpt lat="42.89994" lon="-0.30198">
        <ele>2359.8</ele>
        <time>2026-07-04T08:49:39.000Z</time>
      </trkpt>
      <trkpt lat="42.89995" lon="-0.30211">
        <ele>2360.5</ele>
        <time>2026-07-04T08:49:53.000Z</time>
      </trkpt>
      <trkpt lat="42.89996" lon="-0.30224">
        <ele>2362.1</ele>
        <time>2026-07-04T08:50:10.000Z</time>
      </trkpt>
      <trkpt lat="42.89998" lon="-0.3023">
        <ele>2359.1</ele>
        <time>2026-07-04T08:50:52.000Z</time>
      </trkpt>
      <trkpt lat="42.89998" lon="-0.30225">
        <ele>2358.8</ele>
        <time>2026-07-04T08:51:16.000Z</time>
      </trkpt>
      <trkpt lat="42.89999" lon="-0.30213">
        <ele>2357.5</ele>
        <time>2026-07-04T08:51:25.000Z</time>
      </trkpt>
      <trkpt lat="42.9" lon="-0.302">
        <ele>2354.7</ele>
        <time>2026-07-04T08:51:38.000Z</time>
      </trkpt>
      <trkpt lat="42.89997" lon="-0.30191">
        <ele>2355.1</ele>
        <time>2026-07-04T08:52:09.000Z</time>
      </trkpt>
      <trkpt lat="42.89995" lon="-0.30191">
        <ele>2361.2</ele>
        <time>2026-07-04T08:52:48.000Z</time>
      </trkpt>
      <trkpt lat="42.89996" lon="-0.30191">
        <ele>2361.6</ele>
        <time>2026-07-04T08:52:59.000Z</time>
      </trkpt>
      <trkpt lat="42.89998" lon="-0.3019">
        <ele>2362.7</ele>
        <time>2026-07-04T08:53:13.000Z</time>
      </trkpt>
      <trkpt lat="42.90006" lon="-0.30186">
        <ele>2368.9</ele>
        <time>2026-07-04T08:53:43.000Z</time>
      </trkpt>
      <trkpt lat="42.90007" lon="-0.30173">
        <ele>2369</ele>
        <time>2026-07-04T08:53:58.000Z</time>
      </trkpt>
      <trkpt lat="42.90009" lon="-0.30164">
        <ele>2370.1</ele>
        <time>2026-07-04T08:54:24.000Z</time>
      </trkpt>
      <trkpt lat="42.9001" lon="-0.30162">
        <ele>2373.9</ele>
        <time>2026-07-04T08:54:48.000Z</time>
      </trkpt>
      <trkpt lat="42.90016" lon="-0.30171">
        <ele>2377.4</ele>
        <time>2026-07-04T08:55:11.000Z</time>
      </trkpt>
      <trkpt lat="42.9002" lon="-0.30183">
        <ele>2377.9</ele>
        <time>2026-07-04T08:55:35.000Z</time>
      </trkpt>
      <trkpt lat="42.90025" lon="-0.30194">
        <ele>2384</ele>
        <time>2026-07-04T08:56:05.000Z</time>
      </trkpt>
      <trkpt lat="42.90026" lon="-0.30192">
        <ele>2383.3</ele>
        <time>2026-07-04T08:56:22.000Z</time>
      </trkpt>
      <trkpt lat="42.90028" lon="-0.3019">
        <ele>2383.5</ele>
        <time>2026-07-04T08:56:49.000Z</time>
      </trkpt>
      <trkpt lat="42.90036" lon="-0.30185">
        <ele>2386.2</ele>
        <time>2026-07-04T08:57:07.000Z</time>
      </trkpt>
      <trkpt lat="42.90045" lon="-0.30189">
        <ele>2387.2</ele>
        <time>2026-07-04T08:57:19.000Z</time>
      </trkpt>
      <trkpt lat="42.90054" lon="-0.30193">
        <ele>2386.8</ele>
        <time>2026-07-04T08:57:33.000Z</time>
      </trkpt>
      <trkpt lat="42.90062" lon="-0.30188">
        <ele>2391.7</ele>
        <time>2026-07-04T08:57:50.000Z</time>
      </trkpt>
      <trkpt lat="42.90068" lon="-0.30179">
        <ele>2394.8</ele>
        <time>2026-07-04T08:58:07.000Z</time>
      </trkpt>
      <trkpt lat="42.90076" lon="-0.30172">
        <ele>2396.3</ele>
        <time>2026-07-04T08:58:21.000Z</time>
      </trkpt>
      <trkpt lat="42.90083" lon="-0.30165">
        <ele>2400.2</ele>
        <time>2026-07-04T08:58:37.000Z</time>
      </trkpt>
      <trkpt lat="42.9009" lon="-0.30156">
        <ele>2402.1</ele>
        <time>2026-07-04T08:58:49.000Z</time>
      </trkpt>
      <trkpt lat="42.90094" lon="-0.30144">
        <ele>2402</ele>
        <time>2026-07-04T08:59:01.000Z</time>
      </trkpt>
      <trkpt lat="42.90102" lon="-0.30138">
        <ele>2403.4</ele>
        <time>2026-07-04T08:59:14.000Z</time>
      </trkpt>
      <trkpt lat="42.90111" lon="-0.30134">
        <ele>2403.6</ele>
        <time>2026-07-04T08:59:29.000Z</time>
      </trkpt>
      <trkpt lat="42.90111" lon="-0.30135">
        <ele>2405.1</ele>
        <time>2026-07-04T08:59:47.000Z</time>
      </trkpt>
      <trkpt lat="42.90112" lon="-0.30139">
        <ele>2404.5</ele>
        <time>2026-07-04T09:00:15.000Z</time>
      </trkpt>
      <trkpt lat="42.90119" lon="-0.30146">
        <ele>2406.3</ele>
        <time>2026-07-04T09:00:28.000Z</time>
      </trkpt>
      <trkpt lat="42.90123" lon="-0.30158">
        <ele>2412.7</ele>
        <time>2026-07-04T09:00:48.000Z</time>
      </trkpt>
      <trkpt lat="42.90131" lon="-0.30163">
        <ele>2413.7</ele>
        <time>2026-07-04T09:01:17.000Z</time>
      </trkpt>
      <trkpt lat="42.90137" lon="-0.30166">
        <ele>2414.7</ele>
        <time>2026-07-04T09:01:46.000Z</time>
      </trkpt>
      <trkpt lat="42.9014" lon="-0.30168">
        <ele>2413.7</ele>
        <time>2026-07-04T09:01:51.000Z</time>
      </trkpt>
      <trkpt lat="42.90148" lon="-0.30171">
        <ele>2418.9</ele>
        <time>2026-07-04T09:02:34.000Z</time>
      </trkpt>
      <trkpt lat="42.90152" lon="-0.30175">
        <ele>2418.9</ele>
        <time>2026-07-04T09:02:45.000Z</time>
      </trkpt>
      <trkpt lat="42.90158" lon="-0.30184">
        <ele>2422.9</ele>
        <time>2026-07-04T09:03:02.000Z</time>
      </trkpt>
      <trkpt lat="42.90165" lon="-0.30193">
        <ele>2426.3</ele>
        <time>2026-07-04T09:03:23.000Z</time>
      </trkpt>
      <trkpt lat="42.90171" lon="-0.30201">
        <ele>2429</ele>
        <time>2026-07-04T09:03:56.000Z</time>
      </trkpt>
      <trkpt lat="42.90171" lon="-0.30201">
        <ele>2429</ele>
        <time>2026-07-04T09:03:57.000Z</time>
      </trkpt>
      <trkpt lat="42.90166" lon="-0.30211">
        <ele>2431.5</ele>
        <time>2026-07-04T09:04:39.000Z</time>
      </trkpt>
      <trkpt lat="42.90166" lon="-0.3021">
        <ele>2434.4</ele>
        <time>2026-07-04T09:04:56.000Z</time>
      </trkpt>
      <trkpt lat="42.90165" lon="-0.30211">
        <ele>2435.3</ele>
        <time>2026-07-04T09:05:33.000Z</time>
      </trkpt>
      <trkpt lat="42.90162" lon="-0.30222">
        <ele>2440.4</ele>
        <time>2026-07-04T09:06:03.000Z</time>
      </trkpt>
      <trkpt lat="42.90156" lon="-0.30232">
        <ele>2443.7</ele>
        <time>2026-07-04T09:06:27.000Z</time>
      </trkpt>
      <trkpt lat="42.90151" lon="-0.30242">
        <ele>2447.8</ele>
        <time>2026-07-04T09:07:01.000Z</time>
      </trkpt>
      <trkpt lat="42.90149" lon="-0.30244">
        <ele>2451</ele>
        <time>2026-07-04T09:07:19.000Z</time>
      </trkpt>
      <trkpt lat="42.90149" lon="-0.30251">
        <ele>2451.6</ele>
        <time>2026-07-04T09:08:53.000Z</time>
      </trkpt>
      <trkpt lat="42.90152" lon="-0.30263">
        <ele>2456.6</ele>
        <time>2026-07-04T09:09:13.000Z</time>
      </trkpt>
      <trkpt lat="42.9015" lon="-0.30275">
        <ele>2460.7</ele>
        <time>2026-07-04T09:09:37.000Z</time>
      </trkpt>
      <trkpt lat="42.9015" lon="-0.30288">
        <ele>2466.4</ele>
        <time>2026-07-04T09:10:12.000Z</time>
      </trkpt>
      <trkpt lat="42.9015" lon="-0.30289">
        <ele>2466.7</ele>
        <time>2026-07-04T09:10:21.000Z</time>
      </trkpt>
      <trkpt lat="42.9015" lon="-0.30291">
        <ele>2470.7</ele>
        <time>2026-07-04T09:11:08.000Z</time>
      </trkpt>
      <trkpt lat="42.90154" lon="-0.30303">
        <ele>2471.2</ele>
        <time>2026-07-04T09:11:29.000Z</time>
      </trkpt>
      <trkpt lat="42.90154" lon="-0.30315">
        <ele>2476.8</ele>
        <time>2026-07-04T09:12:05.000Z</time>
      </trkpt>
      <trkpt lat="42.90154" lon="-0.30328">
        <ele>2480.4</ele>
        <time>2026-07-04T09:12:29.000Z</time>
      </trkpt>
      <trkpt lat="42.90153" lon="-0.3034">
        <ele>2486.9</ele>
        <time>2026-07-04T09:13:07.000Z</time>
      </trkpt>
      <trkpt lat="42.9015" lon="-0.30352">
        <ele>2489.3</ele>
        <time>2026-07-04T09:13:35.000Z</time>
      </trkpt>
      <trkpt lat="42.9015" lon="-0.30364">
        <ele>2489.8</ele>
        <time>2026-07-04T09:13:59.000Z</time>
      </trkpt>
      <trkpt lat="42.90147" lon="-0.30376">
        <ele>2494.4</ele>
        <time>2026-07-04T09:14:25.000Z</time>
      </trkpt>
      <trkpt lat="42.90148" lon="-0.30378">
        <ele>2495.7</ele>
        <time>2026-07-04T09:14:40.000Z</time>
      </trkpt>
      <trkpt lat="42.90147" lon="-0.30379">
        <ele>2495.3</ele>
        <time>2026-07-04T09:15:02.000Z</time>
      </trkpt>
      <trkpt lat="42.90144" lon="-0.30391">
        <ele>2498.8</ele>
        <time>2026-07-04T09:15:35.000Z</time>
      </trkpt>
      <trkpt lat="42.90139" lon="-0.30401">
        <ele>2506.1</ele>
        <time>2026-07-04T09:16:07.000Z</time>
      </trkpt>
      <trkpt lat="42.90132" lon="-0.30409">
        <ele>2509.7</ele>
        <time>2026-07-04T09:16:37.000Z</time>
      </trkpt>
      <trkpt lat="42.90128" lon="-0.3042">
        <ele>2513.2</ele>
        <time>2026-07-04T09:17:08.000Z</time>
      </trkpt>
      <trkpt lat="42.90125" lon="-0.30424">
        <ele>2518.6</ele>
        <time>2026-07-04T09:17:36.000Z</time>
      </trkpt>
      <trkpt lat="42.90123" lon="-0.30426">
        <ele>2519.1</ele>
        <time>2026-07-04T09:17:55.000Z</time>
      </trkpt>
      <trkpt lat="42.90122" lon="-0.30439">
        <ele>2521.5</ele>
        <time>2026-07-04T09:18:23.000Z</time>
      </trkpt>
      <trkpt lat="42.90122" lon="-0.30449">
        <ele>2528.2</ele>
        <time>2026-07-04T09:19:06.000Z</time>
      </trkpt>
      <trkpt lat="42.90122" lon="-0.3045">
        <ele>2527.7</ele>
        <time>2026-07-04T09:19:22.000Z</time>
      </trkpt>
      <trkpt lat="42.90123" lon="-0.30451">
        <ele>2527.2</ele>
        <time>2026-07-04T09:19:34.000Z</time>
      </trkpt>
      <trkpt lat="42.90121" lon="-0.30455">
        <ele>2525.8</ele>
        <time>2026-07-04T09:20:02.000Z</time>
      </trkpt>
      <trkpt lat="42.9012" lon="-0.30468">
        <ele>2529.7</ele>
        <time>2026-07-04T09:20:25.000Z</time>
      </trkpt>
      <trkpt lat="42.90119" lon="-0.30475">
        <ele>2532.3</ele>
        <time>2026-07-04T09:20:51.000Z</time>
      </trkpt>
      <trkpt lat="42.90121" lon="-0.30475">
        <ele>2532.5</ele>
        <time>2026-07-04T09:20:57.000Z</time>
      </trkpt>
      <trkpt lat="42.90126" lon="-0.30486">
        <ele>2538.3</ele>
        <time>2026-07-04T09:21:35.000Z</time>
      </trkpt>
      <trkpt lat="42.90124" lon="-0.3049">
        <ele>2544.5</ele>
        <time>2026-07-04T09:22:27.000Z</time>
      </trkpt>
      <trkpt lat="42.90124" lon="-0.30492">
        <ele>2544.6</ele>
        <time>2026-07-04T09:22:34.000Z</time>
      </trkpt>
      <trkpt lat="42.90124" lon="-0.30505">
        <ele>2549.8</ele>
        <time>2026-07-04T09:23:19.000Z</time>
      </trkpt>
      <trkpt lat="42.90124" lon="-0.30505">
        <ele>2550.4</ele>
        <time>2026-07-04T09:23:26.000Z</time>
      </trkpt>
      <trkpt lat="42.90126" lon="-0.30508">
        <ele>2552.4</ele>
        <time>2026-07-04T09:24:09.000Z</time>
      </trkpt>
      <trkpt lat="42.90135" lon="-0.30507">
        <ele>2554.3</ele>
        <time>2026-07-04T09:24:40.000Z</time>
      </trkpt>
      <trkpt lat="42.90139" lon="-0.30509">
        <ele>2559.3</ele>
        <time>2026-07-04T09:25:21.000Z</time>
      </trkpt>
      <trkpt lat="42.90138" lon="-0.30511">
        <ele>2559</ele>
        <time>2026-07-04T09:25:28.000Z</time>
      </trkpt>
      <trkpt lat="42.90142" lon="-0.3052">
        <ele>2565.5</ele>
        <time>2026-07-04T09:26:35.000Z</time>
      </trkpt>
      <trkpt lat="42.90143" lon="-0.30521">
        <ele>2565.8</ele>
        <time>2026-07-04T09:26:56.000Z</time>
      </trkpt>
      <trkpt lat="42.90149" lon="-0.30531">
        <ele>2573.8</ele>
        <time>2026-07-04T09:27:47.000Z</time>
      </trkpt>
      <trkpt lat="42.9015" lon="-0.30532">
        <ele>2574.1</ele>
        <time>2026-07-04T09:28:09.000Z</time>
      </trkpt>
      <trkpt lat="42.90152" lon="-0.30531">
        <ele>2574.4</ele>
        <time>2026-07-04T09:28:33.000Z</time>
      </trkpt>
      <trkpt lat="42.90159" lon="-0.30539">
        <ele>2582.7</ele>
        <time>2026-07-04T09:29:07.000Z</time>
      </trkpt>
      <trkpt lat="42.90161" lon="-0.30545">
        <ele>2586.4</ele>
        <time>2026-07-04T09:29:52.000Z</time>
      </trkpt>
      <trkpt lat="42.90157" lon="-0.30547">
        <ele>2585.9</ele>
        <time>2026-07-04T09:30:13.000Z</time>
      </trkpt>
      <trkpt lat="42.90152" lon="-0.30558">
        <ele>2588.5</ele>
        <time>2026-07-04T09:30:37.000Z</time>
      </trkpt>
      <trkpt lat="42.90156" lon="-0.3057">
        <ele>2595.3</ele>
        <time>2026-07-04T09:31:14.000Z</time>
      </trkpt>
      <trkpt lat="42.90159" lon="-0.3057">
        <ele>2596.2</ele>
        <time>2026-07-04T09:31:41.000Z</time>
      </trkpt>
      <trkpt lat="42.9016" lon="-0.30571">
        <ele>2595.6</ele>
        <time>2026-07-04T09:32:04.000Z</time>
      </trkpt>
      <trkpt lat="42.90165" lon="-0.30581">
        <ele>2610.5</ele>
        <time>2026-07-04T09:33:33.000Z</time>
      </trkpt>
      <trkpt lat="42.90174" lon="-0.30578">
        <ele>2618.6</ele>
        <time>2026-07-04T09:34:30.000Z</time>
      </trkpt>
      <trkpt lat="42.90182" lon="-0.30579">
        <ele>2627.5</ele>
        <time>2026-07-04T09:36:07.000Z</time>
      </trkpt>
      <trkpt lat="42.90183" lon="-0.30578">
        <ele>2627.5</ele>
        <time>2026-07-04T09:36:29.000Z</time>
      </trkpt>
      <trkpt lat="42.90188" lon="-0.30577">
        <ele>2628.8</ele>
        <time>2026-07-04T09:37:06.000Z</time>
      </trkpt>
      <trkpt lat="42.9019" lon="-0.30579">
        <ele>2628.9</ele>
        <time>2026-07-04T09:37:39.000Z</time>
      </trkpt>
      <trkpt lat="42.90193" lon="-0.30585">
        <ele>2632.9</ele>
        <time>2026-07-04T09:38:30.000Z</time>
      </trkpt>
      <trkpt lat="42.90194" lon="-0.30582">
        <ele>2632.9</ele>
        <time>2026-07-04T09:38:39.000Z</time>
      </trkpt>
      <trkpt lat="42.90203" lon="-0.30576">
        <ele>2638.3</ele>
        <time>2026-07-04T09:39:38.000Z</time>
      </trkpt>
      <trkpt lat="42.90212" lon="-0.30578">
        <ele>2644.3</ele>
        <time>2026-07-04T09:40:35.000Z</time>
      </trkpt>
      <trkpt lat="42.90221" lon="-0.30577">
        <ele>2648.1</ele>
        <time>2026-07-04T09:41:08.000Z</time>
      </trkpt>
      <trkpt lat="42.9023" lon="-0.30575">
        <ele>2648.8</ele>
        <time>2026-07-04T09:41:24.000Z</time>
      </trkpt>
      <trkpt lat="42.90237" lon="-0.30565">
        <ele>2649.7</ele>
        <time>2026-07-04T09:41:39.000Z</time>
      </trkpt>
      <trkpt lat="42.90239" lon="-0.30553">
        <ele>2651.6</ele>
        <time>2026-07-04T09:41:54.000Z</time>
      </trkpt>
      <trkpt lat="42.9024" lon="-0.3055">
        <ele>2653.2</ele>
        <time>2026-07-04T09:42:18.000Z</time>
      </trkpt>
      <trkpt lat="42.9024" lon="-0.30549">
        <ele>2653</ele>
        <time>2026-07-04T09:42:24.000Z</time>
      </trkpt>
      <trkpt lat="42.90242" lon="-0.3055">
        <ele>2651.2</ele>
        <time>2026-07-04T09:42:38.000Z</time>
      </trkpt>
      <trkpt lat="42.90241" lon="-0.3055">
        <ele>2649.7</ele>
        <time>2026-07-04T09:42:59.000Z</time>
      </trkpt>
      <trkpt lat="42.9024" lon="-0.30549">
        <ele>2649.7</ele>
        <time>2026-07-04T09:43:34.000Z</time>
      </trkpt>
      <trkpt lat="42.9024" lon="-0.30548">
        <ele>2649</ele>
        <time>2026-07-04T09:43:53.000Z</time>
      </trkpt>
      <trkpt lat="42.9024" lon="-0.30549">
        <ele>2648.4</ele>
        <time>2026-07-04T09:44:07.000Z</time>
      </trkpt>
      <trkpt lat="42.9024" lon="-0.30547">
        <ele>2649.3</ele>
        <time>2026-07-04T09:45:27.000Z</time>
      </trkpt>
      <trkpt lat="42.9024" lon="-0.30546">
        <ele>2649.8</ele>
        <time>2026-07-04T09:45:41.000Z</time>
      </trkpt>
      <trkpt lat="42.9024" lon="-0.30546">
        <ele>2648.2</ele>
        <time>2026-07-04T09:47:09.000Z</time>
      </trkpt>
      <trkpt lat="42.90239" lon="-0.30546">
        <ele>2648.4</ele>
        <time>2026-07-04T09:47:20.000Z</time>
      </trkpt>
      <trkpt lat="42.9024" lon="-0.30549">
        <ele>2650.8</ele>
        <time>2026-07-04T09:49:18.000Z</time>
      </trkpt>
      <trkpt lat="42.9024" lon="-0.3055">
        <ele>2650.7</ele>
        <time>2026-07-04T09:49:44.000Z</time>
      </trkpt>
      <trkpt lat="42.90242" lon="-0.30548">
        <ele>2651</ele>
        <time>2026-07-04T09:50:25.000Z</time>
      </trkpt>
      <trkpt lat="42.90245" lon="-0.30537">
        <ele>2649.8</ele>
        <time>2026-07-04T09:51:09.000Z</time>
      </trkpt>
      <trkpt lat="42.90245" lon="-0.30537">
        <ele>2649.6</ele>
        <time>2026-07-04T09:51:22.000Z</time>
      </trkpt>
      <trkpt lat="42.9024" lon="-0.30548">
        <ele>2649.8</ele>
        <time>2026-07-04T09:51:42.000Z</time>
      </trkpt>
      <trkpt lat="42.90237" lon="-0.30559">
        <ele>2651.4</ele>
        <time>2026-07-04T09:52:07.000Z</time>
      </trkpt>
      <trkpt lat="42.90237" lon="-0.30562">
        <ele>2652.1</ele>
        <time>2026-07-04T09:52:40.000Z</time>
      </trkpt>
      <trkpt lat="42.90236" lon="-0.30566">
        <ele>2651.1</ele>
        <time>2026-07-04T09:53:00.000Z</time>
      </trkpt>
      <trkpt lat="42.90235" lon="-0.30568">
        <ele>2651.1</ele>
        <time>2026-07-04T09:53:20.000Z</time>
      </trkpt>
      <trkpt lat="42.90226" lon="-0.30572">
        <ele>2649.6</ele>
        <time>2026-07-04T09:53:42.000Z</time>
      </trkpt>
      <trkpt lat="42.90217" lon="-0.30575">
        <ele>2649.3</ele>
        <time>2026-07-04T09:54:01.000Z</time>
      </trkpt>
      <trkpt lat="42.9021" lon="-0.30582">
        <ele>2642.5</ele>
        <time>2026-07-04T09:55:14.000Z</time>
      </trkpt>
      <trkpt lat="42.90214" lon="-0.30587">
        <ele>2638.4</ele>
        <time>2026-07-04T09:56:42.000Z</time>
      </trkpt>
      <trkpt lat="42.90213" lon="-0.30587">
        <ele>2640.2</ele>
        <time>2026-07-04T09:57:47.000Z</time>
      </trkpt>
      <trkpt lat="42.90207" lon="-0.30584">
        <ele>2638.7</ele>
        <time>2026-07-04T09:59:12.000Z</time>
      </trkpt>
      <trkpt lat="42.90206" lon="-0.30584">
        <ele>2639.9</ele>
        <time>2026-07-04T10:00:07.000Z</time>
      </trkpt>
      <trkpt lat="42.90197" lon="-0.30583">
        <ele>2630.1</ele>
        <time>2026-07-04T10:02:17.000Z</time>
      </trkpt>
      <trkpt lat="42.90195" lon="-0.30583">
        <ele>2630.2</ele>
        <time>2026-07-04T10:02:35.000Z</time>
      </trkpt>
      <trkpt lat="42.90194" lon="-0.30582">
        <ele>2630</ele>
        <time>2026-07-04T10:03:06.000Z</time>
      </trkpt>
      <trkpt lat="42.90195" lon="-0.30583">
        <ele>2630.2</ele>
        <time>2026-07-04T10:03:20.000Z</time>
      </trkpt>
      <trkpt lat="42.90195" lon="-0.3058">
        <ele>2631.5</ele>
        <time>2026-07-04T10:03:50.000Z</time>
      </trkpt>
      <trkpt lat="42.90187" lon="-0.30574">
        <ele>2629.7</ele>
        <time>2026-07-04T10:04:32.000Z</time>
      </trkpt>
      <trkpt lat="42.90184" lon="-0.30574">
        <ele>2627.9</ele>
        <time>2026-07-04T10:05:00.000Z</time>
      </trkpt>
      <trkpt lat="42.90183" lon="-0.30575">
        <ele>2626.3</ele>
        <time>2026-07-04T10:05:14.000Z</time>
      </trkpt>
      <trkpt lat="42.90177" lon="-0.30578">
        <ele>2620.3</ele>
        <time>2026-07-04T10:06:12.000Z</time>
      </trkpt>
      <trkpt lat="42.90177" lon="-0.30577">
        <ele>2620.3</ele>
        <time>2026-07-04T10:06:21.000Z</time>
      </trkpt>
      <trkpt lat="42.90168" lon="-0.30572">
        <ele>2605.9</ele>
        <time>2026-07-04T10:08:09.000Z</time>
      </trkpt>
      <trkpt lat="42.9016" lon="-0.30565">
        <ele>2601.6</ele>
        <time>2026-07-04T10:09:20.000Z</time>
      </trkpt>
      <trkpt lat="42.90159" lon="-0.30564">
        <ele>2598.9</ele>
        <time>2026-07-04T10:09:39.000Z</time>
      </trkpt>
      <trkpt lat="42.90159" lon="-0.30564">
        <ele>2596.6</ele>
        <time>2026-07-04T10:09:52.000Z</time>
      </trkpt>
      <trkpt lat="42.90158" lon="-0.30556">
        <ele>2592.1</ele>
        <time>2026-07-04T10:10:40.000Z</time>
      </trkpt>
      <trkpt lat="42.90158" lon="-0.30556">
        <ele>2592</ele>
        <time>2026-07-04T10:10:45.000Z</time>
      </trkpt>
      <trkpt lat="42.90162" lon="-0.30544">
        <ele>2591</ele>
        <time>2026-07-04T10:11:15.000Z</time>
      </trkpt>
      <trkpt lat="42.9016" lon="-0.30533">
        <ele>2584.4</ele>
        <time>2026-07-04T10:11:49.000Z</time>
      </trkpt>
      <trkpt lat="42.90153" lon="-0.30524">
        <ele>2579.4</ele>
        <time>2026-07-04T10:12:24.000Z</time>
      </trkpt>
      <trkpt lat="42.90153" lon="-0.30511">
        <ele>2572.1</ele>
        <time>2026-07-04T10:12:56.000Z</time>
      </trkpt>
      <trkpt lat="42.90154" lon="-0.30499">
        <ele>2567.8</ele>
        <time>2026-07-04T10:13:15.000Z</time>
      </trkpt>
      <trkpt lat="42.90154" lon="-0.30486">
        <ele>2563.5</ele>
        <time>2026-07-04T10:13:37.000Z</time>
      </trkpt>
      <trkpt lat="42.90149" lon="-0.30475">
        <ele>2559.6</ele>
        <time>2026-07-04T10:14:05.000Z</time>
      </trkpt>
      <trkpt lat="42.90151" lon="-0.30463">
        <ele>2555.6</ele>
        <time>2026-07-04T10:14:36.000Z</time>
      </trkpt>
      <trkpt lat="42.90154" lon="-0.30452">
        <ele>2551.6</ele>
        <time>2026-07-04T10:14:55.000Z</time>
      </trkpt>
      <trkpt lat="42.90153" lon="-0.30441">
        <ele>2545</ele>
        <time>2026-07-04T10:15:22.000Z</time>
      </trkpt>
      <trkpt lat="42.90153" lon="-0.30441">
        <ele>2545</ele>
        <time>2026-07-04T10:15:23.000Z</time>
      </trkpt>
      <trkpt lat="42.90155" lon="-0.3044">
        <ele>2540.5</ele>
        <time>2026-07-04T10:15:50.000Z</time>
      </trkpt>
      <trkpt lat="42.90152" lon="-0.30442">
        <ele>2540.1</ele>
        <time>2026-07-04T10:19:14.000Z</time>
      </trkpt>
      <trkpt lat="42.90161" lon="-0.30438">
        <ele>2540.3</ele>
        <time>2026-07-04T10:20:46.000Z</time>
      </trkpt>
      <trkpt lat="42.90169" lon="-0.30435">
        <ele>2538.4</ele>
        <time>2026-07-04T10:21:17.000Z</time>
      </trkpt>
      <trkpt lat="42.90171" lon="-0.30423">
        <ele>2528.3</ele>
        <time>2026-07-04T10:22:00.000Z</time>
      </trkpt>
      <trkpt lat="42.90167" lon="-0.30412">
        <ele>2520.4</ele>
        <time>2026-07-04T10:22:48.000Z</time>
      </trkpt>
      <trkpt lat="42.90165" lon="-0.30399">
        <ele>2508.7</ele>
        <time>2026-07-04T10:23:45.000Z</time>
      </trkpt>
      <trkpt lat="42.90158" lon="-0.30391">
        <ele>2506.9</ele>
        <time>2026-07-04T10:24:12.000Z</time>
      </trkpt>
      <trkpt lat="42.90151" lon="-0.30384">
        <ele>2500.1</ele>
        <time>2026-07-04T10:24:40.000Z</time>
      </trkpt>
      <trkpt lat="42.90144" lon="-0.30375">
        <ele>2496.9</ele>
        <time>2026-07-04T10:25:05.000Z</time>
      </trkpt>
      <trkpt lat="42.9014" lon="-0.30363">
        <ele>2492.2</ele>
        <time>2026-07-04T10:25:36.000Z</time>
      </trkpt>
      <trkpt lat="42.90133" lon="-0.30357">
        <ele>2489.1</ele>
        <time>2026-07-04T10:25:54.000Z</time>
      </trkpt>
      <trkpt lat="42.90124" lon="-0.30353">
        <ele>2483.4</ele>
        <time>2026-07-04T10:26:12.000Z</time>
      </trkpt>
      <trkpt lat="42.90116" lon="-0.30347">
        <ele>2480.2</ele>
        <time>2026-07-04T10:26:27.000Z</time>
      </trkpt>
      <trkpt lat="42.90107" lon="-0.30344">
        <ele>2477.7</ele>
        <time>2026-07-04T10:26:38.000Z</time>
      </trkpt>
      <trkpt lat="42.90101" lon="-0.30335">
        <ele>2475.4</ele>
        <time>2026-07-04T10:26:49.000Z</time>
      </trkpt>
      <trkpt lat="42.90094" lon="-0.30325">
        <ele>2473.6</ele>
        <time>2026-07-04T10:27:03.000Z</time>
      </trkpt>
      <trkpt lat="42.90099" lon="-0.30314">
        <ele>2468.4</ele>
        <time>2026-07-04T10:27:27.000Z</time>
      </trkpt>
      <trkpt lat="42.90096" lon="-0.3031">
        <ele>2467</ele>
        <time>2026-07-04T10:27:55.000Z</time>
      </trkpt>
      <trkpt lat="42.90097" lon="-0.30309">
        <ele>2466.6</ele>
        <time>2026-07-04T10:28:37.000Z</time>
      </trkpt>
      <trkpt lat="42.90098" lon="-0.30309">
        <ele>2465</ele>
        <time>2026-07-04T10:28:50.000Z</time>
      </trkpt>
      <trkpt lat="42.90097" lon="-0.30305">
        <ele>2464.9</ele>
        <time>2026-07-04T10:30:52.000Z</time>
      </trkpt>
      <trkpt lat="42.90094" lon="-0.30293">
        <ele>2460</ele>
        <time>2026-07-04T10:31:23.000Z</time>
      </trkpt>
      <trkpt lat="42.90099" lon="-0.30281">
        <ele>2456.7</ele>
        <time>2026-07-04T10:31:41.000Z</time>
      </trkpt>
      <trkpt lat="42.90099" lon="-0.30269">
        <ele>2452</ele>
        <time>2026-07-04T10:31:55.000Z</time>
      </trkpt>
      <trkpt lat="42.90102" lon="-0.30257">
        <ele>2446.5</ele>
        <time>2026-07-04T10:32:32.000Z</time>
      </trkpt>
      <trkpt lat="42.90106" lon="-0.30246">
        <ele>2446.1</ele>
        <time>2026-07-04T10:32:44.000Z</time>
      </trkpt>
      <trkpt lat="42.90109" lon="-0.30233">
        <ele>2444</ele>
        <time>2026-07-04T10:32:53.000Z</time>
      </trkpt>
      <trkpt lat="42.9011" lon="-0.30221">
        <ele>2441.8</ele>
        <time>2026-07-04T10:33:03.000Z</time>
      </trkpt>
      <trkpt lat="42.90114" lon="-0.30209">
        <ele>2440.6</ele>
        <time>2026-07-04T10:33:12.000Z</time>
      </trkpt>
      <trkpt lat="42.90117" lon="-0.30196">
        <ele>2438.4</ele>
        <time>2026-07-04T10:33:25.000Z</time>
      </trkpt>
      <trkpt lat="42.90122" lon="-0.30186">
        <ele>2435.6</ele>
        <time>2026-07-04T10:33:44.000Z</time>
      </trkpt>
      <trkpt lat="42.90131" lon="-0.30191">
        <ele>2432.3</ele>
        <time>2026-07-04T10:34:13.000Z</time>
      </trkpt>
      <trkpt lat="42.90135" lon="-0.30181">
        <ele>2423.8</ele>
        <time>2026-07-04T10:35:13.000Z</time>
      </trkpt>
      <trkpt lat="42.90139" lon="-0.3017">
        <ele>2421.2</ele>
        <time>2026-07-04T10:35:32.000Z</time>
      </trkpt>
      <trkpt lat="42.90137" lon="-0.30158">
        <ele>2416.1</ele>
        <time>2026-07-04T10:35:54.000Z</time>
      </trkpt>
      <trkpt lat="42.90127" lon="-0.30157">
        <ele>2415.2</ele>
        <time>2026-07-04T10:36:08.000Z</time>
      </trkpt>
      <trkpt lat="42.90119" lon="-0.30152">
        <ele>2414</ele>
        <time>2026-07-04T10:36:24.000Z</time>
      </trkpt>
      <trkpt lat="42.90109" lon="-0.30153">
        <ele>2411.5</ele>
        <time>2026-07-04T10:36:42.000Z</time>
      </trkpt>
      <trkpt lat="42.901" lon="-0.30155">
        <ele>2408.2</ele>
        <time>2026-07-04T10:37:01.000Z</time>
      </trkpt>
      <trkpt lat="42.90092" lon="-0.30162">
        <ele>2406.2</ele>
        <time>2026-07-04T10:37:13.000Z</time>
      </trkpt>
      <trkpt lat="42.90086" lon="-0.30171">
        <ele>2405.3</ele>
        <time>2026-07-04T10:37:22.000Z</time>
      </trkpt>
      <trkpt lat="42.9008" lon="-0.3018">
        <ele>2402.2</ele>
        <time>2026-07-04T10:37:32.000Z</time>
      </trkpt>
      <trkpt lat="42.90073" lon="-0.30188">
        <ele>2401.1</ele>
        <time>2026-07-04T10:37:42.000Z</time>
      </trkpt>
      <trkpt lat="42.90066" lon="-0.30196">
        <ele>2399.5</ele>
        <time>2026-07-04T10:37:55.000Z</time>
      </trkpt>
      <trkpt lat="42.90059" lon="-0.30205">
        <ele>2396.9</ele>
        <time>2026-07-04T10:38:08.000Z</time>
      </trkpt>
      <trkpt lat="42.90053" lon="-0.30214">
        <ele>2393.7</ele>
        <time>2026-07-04T10:38:18.000Z</time>
      </trkpt>
      <trkpt lat="42.90045" lon="-0.30223">
        <ele>2391.9</ele>
        <time>2026-07-04T10:38:34.000Z</time>
      </trkpt>
      <trkpt lat="42.90037" lon="-0.3023">
        <ele>2390.7</ele>
        <time>2026-07-04T10:38:54.000Z</time>
      </trkpt>
      <trkpt lat="42.90029" lon="-0.30236">
        <ele>2388.8</ele>
        <time>2026-07-04T10:39:13.000Z</time>
      </trkpt>
      <trkpt lat="42.90023" lon="-0.30246">
        <ele>2387</ele>
        <time>2026-07-04T10:39:29.000Z</time>
      </trkpt>
      <trkpt lat="42.90017" lon="-0.30256">
        <ele>2384.9</ele>
        <time>2026-07-04T10:39:47.000Z</time>
      </trkpt>
      <trkpt lat="42.9001" lon="-0.30262">
        <ele>2378.2</ele>
        <time>2026-07-04T10:40:12.000Z</time>
      </trkpt>
      <trkpt lat="42.90001" lon="-0.30268">
        <ele>2372.8</ele>
        <time>2026-07-04T10:40:50.000Z</time>
      </trkpt>
      <trkpt lat="42.89992" lon="-0.30271">
        <ele>2368.5</ele>
        <time>2026-07-04T10:41:33.000Z</time>
      </trkpt>
      <trkpt lat="42.8999" lon="-0.30283">
        <ele>2365.9</ele>
        <time>2026-07-04T10:41:45.000Z</time>
      </trkpt>
      <trkpt lat="42.89987" lon="-0.30296">
        <ele>2364.4</ele>
        <time>2026-07-04T10:41:57.000Z</time>
      </trkpt>
      <trkpt lat="42.8998" lon="-0.30302">
        <ele>2362.1</ele>
        <time>2026-07-04T10:42:23.000Z</time>
      </trkpt>
      <trkpt lat="42.89972" lon="-0.30309">
        <ele>2357.8</ele>
        <time>2026-07-04T10:42:50.000Z</time>
      </trkpt>
      <trkpt lat="42.89965" lon="-0.30318">
        <ele>2355</ele>
        <time>2026-07-04T10:43:08.000Z</time>
      </trkpt>
      <trkpt lat="42.89962" lon="-0.30317">
        <ele>2351.1</ele>
        <time>2026-07-04T10:43:42.000Z</time>
      </trkpt>
      <trkpt lat="42.89961" lon="-0.30316">
        <ele>2351.1</ele>
        <time>2026-07-04T10:43:46.000Z</time>
      </trkpt>
      <trkpt lat="42.89962" lon="-0.30316">
        <ele>2350.8</ele>
        <time>2026-07-04T10:44:01.000Z</time>
      </trkpt>
      <trkpt lat="42.8996" lon="-0.30316">
        <ele>2352.5</ele>
        <time>2026-07-04T10:46:42.000Z</time>
      </trkpt>
      <trkpt lat="42.89961" lon="-0.30315">
        <ele>2353.8</ele>
        <time>2026-07-04T10:46:52.000Z</time>
      </trkpt>
      <trkpt lat="42.89961" lon="-0.30316">
        <ele>2350.4</ele>
        <time>2026-07-04T11:09:54.000Z</time>
      </trkpt>
      <trkpt lat="42.89964" lon="-0.30316">
        <ele>2351.1</ele>
        <time>2026-07-04T11:10:15.000Z</time>
      </trkpt>
      <trkpt lat="42.89963" lon="-0.30315">
        <ele>2351.6</ele>
        <time>2026-07-04T11:10:18.000Z</time>
      </trkpt>
      <trkpt lat="42.89961" lon="-0.30315">
        <ele>2351.8</ele>
        <time>2026-07-04T11:10:37.000Z</time>
      </trkpt>
      <trkpt lat="42.89962" lon="-0.30316">
        <ele>2349.9</ele>
        <time>2026-07-04T11:10:51.000Z</time>
      </trkpt>
      <trkpt lat="42.89961" lon="-0.30329">
        <ele>2348.7</ele>
        <time>2026-07-04T11:11:19.000Z</time>
      </trkpt>
      <trkpt lat="42.89956" lon="-0.30341">
        <ele>2349.5</ele>
        <time>2026-07-04T11:11:33.000Z</time>
      </trkpt>
      <trkpt lat="42.89951" lon="-0.30352">
        <ele>2350.3</ele>
        <time>2026-07-04T11:11:45.000Z</time>
      </trkpt>
      <trkpt lat="42.89948" lon="-0.30364">
        <ele>2348.8</ele>
        <time>2026-07-04T11:12:13.000Z</time>
      </trkpt>
      <trkpt lat="42.89944" lon="-0.30376">
        <ele>2350.8</ele>
        <time>2026-07-04T11:12:31.000Z</time>
      </trkpt>
      <trkpt lat="42.89941" lon="-0.30388">
        <ele>2351.5</ele>
        <time>2026-07-04T11:12:47.000Z</time>
      </trkpt>
      <trkpt lat="42.89934" lon="-0.30395">
        <ele>2351.2</ele>
        <time>2026-07-04T11:13:01.000Z</time>
      </trkpt>
      <trkpt lat="42.89925" lon="-0.30398">
        <ele>2350.5</ele>
        <time>2026-07-04T11:13:20.000Z</time>
      </trkpt>
      <trkpt lat="42.89916" lon="-0.30396">
        <ele>2349.2</ele>
        <time>2026-07-04T11:13:37.000Z</time>
      </trkpt>
      <trkpt lat="42.89908" lon="-0.30388">
        <ele>2349.6</ele>
        <time>2026-07-04T11:13:49.000Z</time>
      </trkpt>
      <trkpt lat="42.89902" lon="-0.30379">
        <ele>2351.2</ele>
        <time>2026-07-04T11:14:04.000Z</time>
      </trkpt>
      <trkpt lat="42.89893" lon="-0.30377">
        <ele>2351.6</ele>
        <time>2026-07-04T11:14:18.000Z</time>
      </trkpt>
      <trkpt lat="42.89889" lon="-0.30377">
        <ele>2352.2</ele>
        <time>2026-07-04T11:14:36.000Z</time>
      </trkpt>
      <trkpt lat="42.89894" lon="-0.30378">
        <ele>2350.3</ele>
        <time>2026-07-04T11:15:35.000Z</time>
      </trkpt>
      <trkpt lat="42.89903" lon="-0.3038">
        <ele>2351.1</ele>
        <time>2026-07-04T11:15:48.000Z</time>
      </trkpt>
      <trkpt lat="42.8991" lon="-0.30389">
        <ele>2351.6</ele>
        <time>2026-07-04T11:16:00.000Z</time>
      </trkpt>
      <trkpt lat="42.89911" lon="-0.30402">
        <ele>2351.6</ele>
        <time>2026-07-04T11:16:13.000Z</time>
      </trkpt>
      <trkpt lat="42.89907" lon="-0.30414">
        <ele>2351.9</ele>
        <time>2026-07-04T11:16:25.000Z</time>
      </trkpt>
      <trkpt lat="42.89906" lon="-0.30427">
        <ele>2352</ele>
        <time>2026-07-04T11:16:36.000Z</time>
      </trkpt>
      <trkpt lat="42.89905" lon="-0.30439">
        <ele>2351.9</ele>
        <time>2026-07-04T11:16:49.000Z</time>
      </trkpt>
      <trkpt lat="42.89906" lon="-0.30453">
        <ele>2351.9</ele>
        <time>2026-07-04T11:17:01.000Z</time>
      </trkpt>
      <trkpt lat="42.89906" lon="-0.30466">
        <ele>2352.4</ele>
        <time>2026-07-04T11:17:13.000Z</time>
      </trkpt>
      <trkpt lat="42.89903" lon="-0.30478">
        <ele>2354</ele>
        <time>2026-07-04T11:17:38.000Z</time>
      </trkpt>
      <trkpt lat="42.89897" lon="-0.30488">
        <ele>2352.8</ele>
        <time>2026-07-04T11:17:56.000Z</time>
      </trkpt>
      <trkpt lat="42.89893" lon="-0.30499">
        <ele>2352</ele>
        <time>2026-07-04T11:18:06.000Z</time>
      </trkpt>
      <trkpt lat="42.89889" lon="-0.30511">
        <ele>2352.4</ele>
        <time>2026-07-04T11:18:17.000Z</time>
      </trkpt>
      <trkpt lat="42.89888" lon="-0.30524">
        <ele>2352.3</ele>
        <time>2026-07-04T11:18:27.000Z</time>
      </trkpt>
      <trkpt lat="42.89888" lon="-0.30537">
        <ele>2352.1</ele>
        <time>2026-07-04T11:18:46.000Z</time>
      </trkpt>
      <trkpt lat="42.89886" lon="-0.30549">
        <ele>2352.2</ele>
        <time>2026-07-04T11:18:56.000Z</time>
      </trkpt>
      <trkpt lat="42.89886" lon="-0.30562">
        <ele>2351.9</ele>
        <time>2026-07-04T11:19:06.000Z</time>
      </trkpt>
      <trkpt lat="42.89883" lon="-0.30575">
        <ele>2351.6</ele>
        <time>2026-07-04T11:19:15.000Z</time>
      </trkpt>
      <trkpt lat="42.89883" lon="-0.30588">
        <ele>2351</ele>
        <time>2026-07-04T11:19:23.000Z</time>
      </trkpt>
      <trkpt lat="42.89881" lon="-0.30601">
        <ele>2351.1</ele>
        <time>2026-07-04T11:19:34.000Z</time>
      </trkpt>
      <trkpt lat="42.89883" lon="-0.30613">
        <ele>2352.3</ele>
        <time>2026-07-04T11:19:48.000Z</time>
      </trkpt>
      <trkpt lat="42.89883" lon="-0.30626">
        <ele>2353</ele>
        <time>2026-07-04T11:20:00.000Z</time>
      </trkpt>
      <trkpt lat="42.89877" lon="-0.30636">
        <ele>2354.1</ele>
        <time>2026-07-04T11:20:16.000Z</time>
      </trkpt>
      <trkpt lat="42.89871" lon="-0.30645">
        <ele>2354.5</ele>
        <time>2026-07-04T11:20:32.000Z</time>
      </trkpt>
      <trkpt lat="42.89864" lon="-0.30653">
        <ele>2355.3</ele>
        <time>2026-07-04T11:20:47.000Z</time>
      </trkpt>
      <trkpt lat="42.89857" lon="-0.30662">
        <ele>2356.6</ele>
        <time>2026-07-04T11:21:02.000Z</time>
      </trkpt>
      <trkpt lat="42.8985" lon="-0.30669">
        <ele>2354.5</ele>
        <time>2026-07-04T11:21:23.000Z</time>
      </trkpt>
      <trkpt lat="42.89842" lon="-0.30675">
        <ele>2355.9</ele>
        <time>2026-07-04T11:21:37.000Z</time>
      </trkpt>
      <trkpt lat="42.89834" lon="-0.30682">
        <ele>2353.2</ele>
        <time>2026-07-04T11:21:56.000Z</time>
      </trkpt>
      <trkpt lat="42.89827" lon="-0.3069">
        <ele>2351.1</ele>
        <time>2026-07-04T11:22:06.000Z</time>
      </trkpt>
      <trkpt lat="42.89821" lon="-0.307">
        <ele>2351.3</ele>
        <time>2026-07-04T11:22:17.000Z</time>
      </trkpt>
      <trkpt lat="42.89824" lon="-0.30712">
        <ele>2352.1</ele>
        <time>2026-07-04T11:22:35.000Z</time>
      </trkpt>
      <trkpt lat="42.89825" lon="-0.30724">
        <ele>2354.1</ele>
        <time>2026-07-04T11:22:50.000Z</time>
      </trkpt>
      <trkpt lat="42.89823" lon="-0.30737">
        <ele>2356.1</ele>
        <time>2026-07-04T11:23:05.000Z</time>
      </trkpt>
      <trkpt lat="42.89815" lon="-0.30744">
        <ele>2352.8</ele>
        <time>2026-07-04T11:23:49.000Z</time>
      </trkpt>
      <trkpt lat="42.89807" lon="-0.3075">
        <ele>2351.9</ele>
        <time>2026-07-04T11:24:01.000Z</time>
      </trkpt>
      <trkpt lat="42.89798" lon="-0.30751">
        <ele>2351.6</ele>
        <time>2026-07-04T11:24:16.000Z</time>
      </trkpt>
      <trkpt lat="42.89789" lon="-0.30752">
        <ele>2352.4</ele>
        <time>2026-07-04T11:24:27.000Z</time>
      </trkpt>
      <trkpt lat="42.89779" lon="-0.30754">
        <ele>2352.8</ele>
        <time>2026-07-04T11:24:37.000Z</time>
      </trkpt>
      <trkpt lat="42.89769" lon="-0.30755">
        <ele>2352.8</ele>
        <time>2026-07-04T11:24:46.000Z</time>
      </trkpt>
      <trkpt lat="42.89759" lon="-0.30761">
        <ele>2353.1</ele>
        <time>2026-07-04T11:24:56.000Z</time>
      </trkpt>
      <trkpt lat="42.8975" lon="-0.30765">
        <ele>2353.1</ele>
        <time>2026-07-04T11:25:05.000Z</time>
      </trkpt>
      <trkpt lat="42.89742" lon="-0.30771">
        <ele>2353</ele>
        <time>2026-07-04T11:25:13.000Z</time>
      </trkpt>
      <trkpt lat="42.89734" lon="-0.30777">
        <ele>2352.8</ele>
        <time>2026-07-04T11:25:22.000Z</time>
      </trkpt>
      <trkpt lat="42.89725" lon="-0.30783">
        <ele>2352.8</ele>
        <time>2026-07-04T11:25:31.000Z</time>
      </trkpt>
      <trkpt lat="42.89717" lon="-0.30787">
        <ele>2352.7</ele>
        <time>2026-07-04T11:25:41.000Z</time>
      </trkpt>
      <trkpt lat="42.89707" lon="-0.30787">
        <ele>2352.5</ele>
        <time>2026-07-04T11:25:50.000Z</time>
      </trkpt>
      <trkpt lat="42.897" lon="-0.30779">
        <ele>2351.2</ele>
        <time>2026-07-04T11:26:02.000Z</time>
      </trkpt>
      <trkpt lat="42.89699" lon="-0.30767">
        <ele>2350.3</ele>
        <time>2026-07-04T11:26:27.000Z</time>
      </trkpt>
      <trkpt lat="42.89696" lon="-0.30762">
        <ele>2346.2</ele>
        <time>2026-07-04T11:27:29.000Z</time>
      </trkpt>
      <trkpt lat="42.89695" lon="-0.30751">
        <ele>2353.2</ele>
        <time>2026-07-04T11:28:04.000Z</time>
      </trkpt>
      <trkpt lat="42.89694" lon="-0.3075">
        <ele>2353.3</ele>
        <time>2026-07-04T11:28:21.000Z</time>
      </trkpt>
      <trkpt lat="42.89692" lon="-0.30749">
        <ele>2353.4</ele>
        <time>2026-07-04T11:28:34.000Z</time>
      </trkpt>
      <trkpt lat="42.89693" lon="-0.30749">
        <ele>2352.8</ele>
        <time>2026-07-04T11:29:12.000Z</time>
      </trkpt>
      <trkpt lat="42.89693" lon="-0.30747">
        <ele>2348.1</ele>
        <time>2026-07-04T11:29:38.000Z</time>
      </trkpt>
      <trkpt lat="42.89694" lon="-0.30747">
        <ele>2349.5</ele>
        <time>2026-07-04T11:29:48.000Z</time>
      </trkpt>
      <trkpt lat="42.89698" lon="-0.30744">
        <ele>2350</ele>
        <time>2026-07-04T11:30:01.000Z</time>
      </trkpt>
      <trkpt lat="42.89693" lon="-0.30747">
        <ele>2350.5</ele>
        <time>2026-07-04T11:31:32.000Z</time>
      </trkpt>
      <trkpt lat="42.89693" lon="-0.30747">
        <ele>2352.3</ele>
        <time>2026-07-04T11:31:43.000Z</time>
      </trkpt>
      <trkpt lat="42.89692" lon="-0.30748">
        <ele>2354.3</ele>
        <time>2026-07-04T11:31:52.000Z</time>
      </trkpt>
      <trkpt lat="42.89694" lon="-0.30748">
        <ele>2353.6</ele>
        <time>2026-07-04T11:32:04.000Z</time>
      </trkpt>
      <trkpt lat="42.89694" lon="-0.30742">
        <ele>2353.4</ele>
        <time>2026-07-04T11:32:47.000Z</time>
      </trkpt>
      <trkpt lat="42.89694" lon="-0.30741">
        <ele>2353.3</ele>
        <time>2026-07-04T11:32:58.000Z</time>
      </trkpt>
      <trkpt lat="42.89693" lon="-0.3074">
        <ele>2356.5</ele>
        <time>2026-07-04T11:33:24.000Z</time>
      </trkpt>
      <trkpt lat="42.89693" lon="-0.30741">
        <ele>2356.7</ele>
        <time>2026-07-04T11:33:31.000Z</time>
      </trkpt>
      <trkpt lat="42.89694" lon="-0.30743">
        <ele>2351</ele>
        <time>2026-07-04T11:40:01.000Z</time>
      </trkpt>
      <trkpt lat="42.89694" lon="-0.30743">
        <ele>2351.1</ele>
        <time>2026-07-04T11:40:04.000Z</time>
      </trkpt>
      <trkpt lat="42.89693" lon="-0.30744">
        <ele>2351.2</ele>
        <time>2026-07-04T11:41:29.000Z</time>
      </trkpt>
      <trkpt lat="42.89687" lon="-0.30754">
        <ele>2351.2</ele>
        <time>2026-07-04T11:41:45.000Z</time>
      </trkpt>
      <trkpt lat="42.89679" lon="-0.3076">
        <ele>2351.8</ele>
        <time>2026-07-04T11:41:54.000Z</time>
      </trkpt>
      <trkpt lat="42.8967" lon="-0.30762">
        <ele>2355.4</ele>
        <time>2026-07-04T11:42:10.000Z</time>
      </trkpt>
      <trkpt lat="42.89661" lon="-0.3076">
        <ele>2358.1</ele>
        <time>2026-07-04T11:42:27.000Z</time>
      </trkpt>
      <trkpt lat="42.89651" lon="-0.30762">
        <ele>2359.6</ele>
        <time>2026-07-04T11:42:41.000Z</time>
      </trkpt>
      <trkpt lat="42.89642" lon="-0.30765">
        <ele>2359.7</ele>
        <time>2026-07-04T11:42:56.000Z</time>
      </trkpt>
      <trkpt lat="42.89633" lon="-0.30765">
        <ele>2361.9</ele>
        <time>2026-07-04T11:43:12.000Z</time>
      </trkpt>
      <trkpt lat="42.89631" lon="-0.30752">
        <ele>2365.6</ele>
        <time>2026-07-04T11:43:29.000Z</time>
      </trkpt>
      <trkpt lat="42.89624" lon="-0.30743">
        <ele>2371.4</ele>
        <time>2026-07-04T11:43:56.000Z</time>
      </trkpt>
      <trkpt lat="42.89617" lon="-0.30735">
        <ele>2374.8</ele>
        <time>2026-07-04T11:44:18.000Z</time>
      </trkpt>
      <trkpt lat="42.8961" lon="-0.30727">
        <ele>2376</ele>
        <time>2026-07-04T11:44:31.000Z</time>
      </trkpt>
      <trkpt lat="42.89605" lon="-0.30717">
        <ele>2380.3</ele>
        <time>2026-07-04T11:44:56.000Z</time>
      </trkpt>
      <trkpt lat="42.89599" lon="-0.30708">
        <ele>2384.5</ele>
        <time>2026-07-04T11:45:20.000Z</time>
      </trkpt>
      <trkpt lat="42.89593" lon="-0.30698">
        <ele>2386.6</ele>
        <time>2026-07-04T11:45:45.000Z</time>
      </trkpt>
      <trkpt lat="42.89586" lon="-0.30691">
        <ele>2391.2</ele>
        <time>2026-07-04T11:46:02.000Z</time>
      </trkpt>
      <trkpt lat="42.89581" lon="-0.3068">
        <ele>2397.4</ele>
        <time>2026-07-04T11:46:28.000Z</time>
      </trkpt>
      <trkpt lat="42.89588" lon="-0.30673">
        <ele>2398.9</ele>
        <time>2026-07-04T11:47:02.000Z</time>
      </trkpt>
      <trkpt lat="42.89593" lon="-0.30662">
        <ele>2398.7</ele>
        <time>2026-07-04T11:47:34.000Z</time>
      </trkpt>
      <trkpt lat="42.89599" lon="-0.30653">
        <ele>2401.8</ele>
        <time>2026-07-04T11:47:58.000Z</time>
      </trkpt>
      <trkpt lat="42.89608" lon="-0.30651">
        <ele>2404.5</ele>
        <time>2026-07-04T11:48:18.000Z</time>
      </trkpt>
      <trkpt lat="42.89609" lon="-0.30651">
        <ele>2405.5</ele>
        <time>2026-07-04T11:48:34.000Z</time>
      </trkpt>
      <trkpt lat="42.89612" lon="-0.30652">
        <ele>2405.6</ele>
        <time>2026-07-04T11:48:51.000Z</time>
      </trkpt>
      <trkpt lat="42.89617" lon="-0.30642">
        <ele>2403.8</ele>
        <time>2026-07-04T11:49:11.000Z</time>
      </trkpt>
      <trkpt lat="42.89626" lon="-0.30642">
        <ele>2402.2</ele>
        <time>2026-07-04T11:49:23.000Z</time>
      </trkpt>
      <trkpt lat="42.89634" lon="-0.3065">
        <ele>2400.8</ele>
        <time>2026-07-04T11:49:34.000Z</time>
      </trkpt>
      <trkpt lat="42.89642" lon="-0.30652">
        <ele>2398.6</ele>
        <time>2026-07-04T11:50:17.000Z</time>
      </trkpt>
      <trkpt lat="42.89639" lon="-0.3065">
        <ele>2403.1</ele>
        <time>2026-07-04T11:50:56.000Z</time>
      </trkpt>
      <trkpt lat="42.89632" lon="-0.3064">
        <ele>2402.7</ele>
        <time>2026-07-04T11:51:08.000Z</time>
      </trkpt>
      <trkpt lat="42.8963" lon="-0.30628">
        <ele>2402.2</ele>
        <time>2026-07-04T11:51:17.000Z</time>
      </trkpt>
      <trkpt lat="42.89626" lon="-0.30616">
        <ele>2401.9</ele>
        <time>2026-07-04T11:51:25.000Z</time>
      </trkpt>
      <trkpt lat="42.89621" lon="-0.30607">
        <ele>2400.7</ele>
        <time>2026-07-04T11:51:49.000Z</time>
      </trkpt>
      <trkpt lat="42.8962" lon="-0.30607">
        <ele>2400.3</ele>
        <time>2026-07-04T11:52:01.000Z</time>
      </trkpt>
      <trkpt lat="42.8962" lon="-0.30607">
        <ele>2400</ele>
        <time>2026-07-04T11:52:08.000Z</time>
      </trkpt>
      <trkpt lat="42.89618" lon="-0.306">
        <ele>2395.1</ele>
        <time>2026-07-04T11:53:04.000Z</time>
      </trkpt>
      <trkpt lat="42.89612" lon="-0.30591">
        <ele>2395.3</ele>
        <time>2026-07-04T11:53:18.000Z</time>
      </trkpt>
      <trkpt lat="42.89604" lon="-0.30585">
        <ele>2393.7</ele>
        <time>2026-07-04T11:53:32.000Z</time>
      </trkpt>
      <trkpt lat="42.89596" lon="-0.3058">
        <ele>2393.6</ele>
        <time>2026-07-04T11:53:44.000Z</time>
      </trkpt>
      <trkpt lat="42.89588" lon="-0.30574">
        <ele>2393.7</ele>
        <time>2026-07-04T11:53:55.000Z</time>
      </trkpt>
      <trkpt lat="42.8958" lon="-0.30572">
        <ele>2392.4</ele>
        <time>2026-07-04T11:54:18.000Z</time>
      </trkpt>
      <trkpt lat="42.89583" lon="-0.3057">
        <ele>2392.5</ele>
        <time>2026-07-04T11:54:25.000Z</time>
      </trkpt>
      <trkpt lat="42.89591" lon="-0.30565">
        <ele>2392.3</ele>
        <time>2026-07-04T11:54:38.000Z</time>
      </trkpt>
      <trkpt lat="42.89599" lon="-0.30558">
        <ele>2387.5</ele>
        <time>2026-07-04T11:55:07.000Z</time>
      </trkpt>
      <trkpt lat="42.89593" lon="-0.30548">
        <ele>2380.5</ele>
        <time>2026-07-04T11:55:32.000Z</time>
      </trkpt>
      <trkpt lat="42.89584" lon="-0.30544">
        <ele>2378.6</ele>
        <time>2026-07-04T11:55:59.000Z</time>
      </trkpt>
      <trkpt lat="42.89584" lon="-0.30531">
        <ele>2372</ele>
        <time>2026-07-04T11:56:38.000Z</time>
      </trkpt>
      <trkpt lat="42.89586" lon="-0.30519">
        <ele>2364</ele>
        <time>2026-07-04T11:57:08.000Z</time>
      </trkpt>
      <trkpt lat="42.89594" lon="-0.30512">
        <ele>2359.7</ele>
        <time>2026-07-04T11:57:20.000Z</time>
      </trkpt>
      <trkpt lat="42.89604" lon="-0.30512">
        <ele>2356.1</ele>
        <time>2026-07-04T11:57:38.000Z</time>
      </trkpt>
      <trkpt lat="42.89612" lon="-0.30508">
        <ele>2352.7</ele>
        <time>2026-07-04T11:57:54.000Z</time>
      </trkpt>
      <trkpt lat="42.89613" lon="-0.30509">
        <ele>2355.2</ele>
        <time>2026-07-04T11:58:09.000Z</time>
      </trkpt>
      <trkpt lat="42.89614" lon="-0.30507">
        <ele>2355.5</ele>
        <time>2026-07-04T11:58:19.000Z</time>
      </trkpt>
      <trkpt lat="42.89623" lon="-0.30502">
        <ele>2355.4</ele>
        <time>2026-07-04T11:58:36.000Z</time>
      </trkpt>
      <trkpt lat="42.89627" lon="-0.3049">
        <ele>2354</ele>
        <time>2026-07-04T11:58:47.000Z</time>
      </trkpt>
      <trkpt lat="42.89631" lon="-0.30478">
        <ele>2353.8</ele>
        <time>2026-07-04T11:58:57.000Z</time>
      </trkpt>
      <trkpt lat="42.89634" lon="-0.30466">
        <ele>2354.1</ele>
        <time>2026-07-04T11:59:10.000Z</time>
      </trkpt>
      <trkpt lat="42.8964" lon="-0.30456">
        <ele>2353</ele>
        <time>2026-07-04T11:59:36.000Z</time>
      </trkpt>
      <trkpt lat="42.89649" lon="-0.30453">
        <ele>2350.8</ele>
        <time>2026-07-04T11:59:51.000Z</time>
      </trkpt>
      <trkpt lat="42.89658" lon="-0.30452">
        <ele>2350.9</ele>
        <time>2026-07-04T12:00:01.000Z</time>
      </trkpt>
      <trkpt lat="42.89668" lon="-0.3045">
        <ele>2351.1</ele>
        <time>2026-07-04T12:00:12.000Z</time>
      </trkpt>
      <trkpt lat="42.89677" lon="-0.30448">
        <ele>2351.3</ele>
        <time>2026-07-04T12:00:23.000Z</time>
      </trkpt>
      <trkpt lat="42.89685" lon="-0.30443">
        <ele>2352.8</ele>
        <time>2026-07-04T12:00:36.000Z</time>
      </trkpt>
      <trkpt lat="42.89691" lon="-0.30433">
        <ele>2355</ele>
        <time>2026-07-04T12:00:51.000Z</time>
      </trkpt>
      <trkpt lat="42.89688" lon="-0.30421">
        <ele>2356.4</ele>
        <time>2026-07-04T12:01:09.000Z</time>
      </trkpt>
      <trkpt lat="42.89693" lon="-0.30411">
        <ele>2359.5</ele>
        <time>2026-07-04T12:01:27.000Z</time>
      </trkpt>
      <trkpt lat="42.89702" lon="-0.30407">
        <ele>2360.7</ele>
        <time>2026-07-04T12:01:50.000Z</time>
      </trkpt>
      <trkpt lat="42.8971" lon="-0.3041">
        <ele>2359.8</ele>
        <time>2026-07-04T12:02:01.000Z</time>
      </trkpt>
      <trkpt lat="42.8972" lon="-0.30411">
        <ele>2356.7</ele>
        <time>2026-07-04T12:02:12.000Z</time>
      </trkpt>
      <trkpt lat="42.89728" lon="-0.30405">
        <ele>2356.3</ele>
        <time>2026-07-04T12:02:24.000Z</time>
      </trkpt>
      <trkpt lat="42.89737" lon="-0.30403">
        <ele>2357.3</ele>
        <time>2026-07-04T12:02:35.000Z</time>
      </trkpt>
      <trkpt lat="42.89736" lon="-0.30403">
        <ele>2358.3</ele>
        <time>2026-07-04T12:02:47.000Z</time>
      </trkpt>
      <trkpt lat="42.89741" lon="-0.304">
        <ele>2358.5</ele>
        <time>2026-07-04T12:02:55.000Z</time>
      </trkpt>
      <trkpt lat="42.89749" lon="-0.30393">
        <ele>2359.3</ele>
        <time>2026-07-04T12:03:05.000Z</time>
      </trkpt>
      <trkpt lat="42.89758" lon="-0.30388">
        <ele>2360.5</ele>
        <time>2026-07-04T12:03:16.000Z</time>
      </trkpt>
      <trkpt lat="42.89766" lon="-0.30382">
        <ele>2361.6</ele>
        <time>2026-07-04T12:03:26.000Z</time>
      </trkpt>
      <trkpt lat="42.89775" lon="-0.30379">
        <ele>2362.5</ele>
        <time>2026-07-04T12:03:38.000Z</time>
      </trkpt>
      <trkpt lat="42.89784" lon="-0.30375">
        <ele>2363.3</ele>
        <time>2026-07-04T12:03:50.000Z</time>
      </trkpt>
      <trkpt lat="42.89792" lon="-0.30369">
        <ele>2363.9</ele>
        <time>2026-07-04T12:04:00.000Z</time>
      </trkpt>
      <trkpt lat="42.89801" lon="-0.3037">
        <ele>2364.6</ele>
        <time>2026-07-04T12:04:14.000Z</time>
      </trkpt>
      <trkpt lat="42.89806" lon="-0.30359">
        <ele>2365.3</ele>
        <time>2026-07-04T12:04:42.000Z</time>
      </trkpt>
      <trkpt lat="42.89814" lon="-0.3035">
        <ele>2368.4</ele>
        <time>2026-07-04T12:04:57.000Z</time>
      </trkpt>
      <trkpt lat="42.89823" lon="-0.30346">
        <ele>2369.3</ele>
        <time>2026-07-04T12:05:09.000Z</time>
      </trkpt>
      <trkpt lat="42.89829" lon="-0.30336">
        <ele>2369.3</ele>
        <time>2026-07-04T12:05:22.000Z</time>
      </trkpt>
      <trkpt lat="42.89835" lon="-0.30325">
        <ele>2369</ele>
        <time>2026-07-04T12:05:34.000Z</time>
      </trkpt>
      <trkpt lat="42.89845" lon="-0.30321">
        <ele>2367.6</ele>
        <time>2026-07-04T12:05:46.000Z</time>
      </trkpt>
      <trkpt lat="42.89845" lon="-0.30318">
        <ele>2365.1</ele>
        <time>2026-07-04T12:06:03.000Z</time>
      </trkpt>
      <trkpt lat="42.89848" lon="-0.30317">
        <ele>2364.7</ele>
        <time>2026-07-04T12:06:15.000Z</time>
      </trkpt>
      <trkpt lat="42.89852" lon="-0.30306">
        <ele>2363.4</ele>
        <time>2026-07-04T12:06:29.000Z</time>
      </trkpt>
      <trkpt lat="42.8986" lon="-0.303">
        <ele>2362.8</ele>
        <time>2026-07-04T12:06:40.000Z</time>
      </trkpt>
      <trkpt lat="42.89867" lon="-0.30291">
        <ele>2361.7</ele>
        <time>2026-07-04T12:06:55.000Z</time>
      </trkpt>
      <trkpt lat="42.89876" lon="-0.3029">
        <ele>2360.5</ele>
        <time>2026-07-04T12:07:15.000Z</time>
      </trkpt>
      <trkpt lat="42.89885" lon="-0.30286">
        <ele>2359</ele>
        <time>2026-07-04T12:07:31.000Z</time>
      </trkpt>
      <trkpt lat="42.89893" lon="-0.3028">
        <ele>2356.4</ele>
        <time>2026-07-04T12:07:46.000Z</time>
      </trkpt>
      <trkpt lat="42.89902" lon="-0.30274">
        <ele>2356.6</ele>
        <time>2026-07-04T12:08:01.000Z</time>
      </trkpt>
      <trkpt lat="42.89909" lon="-0.30266">
        <ele>2359</ele>
        <time>2026-07-04T12:08:19.000Z</time>
      </trkpt>
      <trkpt lat="42.89916" lon="-0.30257">
        <ele>2358.9</ele>
        <time>2026-07-04T12:08:36.000Z</time>
      </trkpt>
      <trkpt lat="42.89923" lon="-0.30251">
        <ele>2357.5</ele>
        <time>2026-07-04T12:08:58.000Z</time>
      </trkpt>
      <trkpt lat="42.89932" lon="-0.30245">
        <ele>2357</ele>
        <time>2026-07-04T12:09:11.000Z</time>
      </trkpt>
      <trkpt lat="42.89939" lon="-0.30236">
        <ele>2357</ele>
        <time>2026-07-04T12:09:23.000Z</time>
      </trkpt>
      <trkpt lat="42.89947" lon="-0.3023">
        <ele>2357.1</ele>
        <time>2026-07-04T12:09:34.000Z</time>
      </trkpt>
      <trkpt lat="42.89953" lon="-0.30222">
        <ele>2357.1</ele>
        <time>2026-07-04T12:09:44.000Z</time>
      </trkpt>
      <trkpt lat="42.89961" lon="-0.30214">
        <ele>2356.8</ele>
        <time>2026-07-04T12:09:56.000Z</time>
      </trkpt>
      <trkpt lat="42.89963" lon="-0.30202">
        <ele>2356.5</ele>
        <time>2026-07-04T12:10:07.000Z</time>
      </trkpt>
      <trkpt lat="42.89969" lon="-0.30191">
        <ele>2356.5</ele>
        <time>2026-07-04T12:10:19.000Z</time>
      </trkpt>
      <trkpt lat="42.8997" lon="-0.30178">
        <ele>2355.6</ele>
        <time>2026-07-04T12:10:30.000Z</time>
      </trkpt>
      <trkpt lat="42.8997" lon="-0.30166">
        <ele>2355.5</ele>
        <time>2026-07-04T12:10:40.000Z</time>
      </trkpt>
      <trkpt lat="42.89972" lon="-0.30153">
        <ele>2354.2</ele>
        <time>2026-07-04T12:10:58.000Z</time>
      </trkpt>
      <trkpt lat="42.89977" lon="-0.30143">
        <ele>2351.2</ele>
        <time>2026-07-04T12:11:16.000Z</time>
      </trkpt>
      <trkpt lat="42.89978" lon="-0.3013">
        <ele>2352.2</ele>
        <time>2026-07-04T12:11:27.000Z</time>
      </trkpt>
      <trkpt lat="42.89979" lon="-0.30116">
        <ele>2352.6</ele>
        <time>2026-07-04T12:11:37.000Z</time>
      </trkpt>
      <trkpt lat="42.89979" lon="-0.30104">
        <ele>2352.5</ele>
        <time>2026-07-04T12:11:47.000Z</time>
      </trkpt>
      <trkpt lat="42.89977" lon="-0.30092">
        <ele>2352.4</ele>
        <time>2026-07-04T12:11:57.000Z</time>
      </trkpt>
      <trkpt lat="42.89974" lon="-0.30079">
        <ele>2351.8</ele>
        <time>2026-07-04T12:12:08.000Z</time>
      </trkpt>
      <trkpt lat="42.89973" lon="-0.30066">
        <ele>2351</ele>
        <time>2026-07-04T12:12:18.000Z</time>
      </trkpt>
      <trkpt lat="42.89969" lon="-0.30056">
        <ele>2348.1</ele>
        <time>2026-07-04T12:12:40.000Z</time>
      </trkpt>
      <trkpt lat="42.89967" lon="-0.30053">
        <ele>2348.1</ele>
        <time>2026-07-04T12:12:43.000Z</time>
      </trkpt>
      <trkpt lat="42.89963" lon="-0.30041">
        <ele>2347</ele>
        <time>2026-07-04T12:12:56.000Z</time>
      </trkpt>
      <trkpt lat="42.89959" lon="-0.3003">
        <ele>2345.2</ele>
        <time>2026-07-04T12:13:07.000Z</time>
      </trkpt>
      <trkpt lat="42.89957" lon="-0.30017">
        <ele>2339.9</ele>
        <time>2026-07-04T12:13:23.000Z</time>
      </trkpt>
      <trkpt lat="42.89958" lon="-0.30004">
        <ele>2337.7</ele>
        <time>2026-07-04T12:13:35.000Z</time>
      </trkpt>
      <trkpt lat="42.89956" lon="-0.29992">
        <ele>2337.7</ele>
        <time>2026-07-04T12:13:46.000Z</time>
      </trkpt>
      <trkpt lat="42.89949" lon="-0.29983">
        <ele>2337.6</ele>
        <time>2026-07-04T12:13:58.000Z</time>
      </trkpt>
      <trkpt lat="42.89955" lon="-0.29972">
        <ele>2337.4</ele>
        <time>2026-07-04T12:14:15.000Z</time>
      </trkpt>
      <trkpt lat="42.89962" lon="-0.29962">
        <ele>2337.4</ele>
        <time>2026-07-04T12:14:25.000Z</time>
      </trkpt>
      <trkpt lat="42.89969" lon="-0.29954">
        <ele>2337.6</ele>
        <time>2026-07-04T12:14:39.000Z</time>
      </trkpt>
      <trkpt lat="42.89978" lon="-0.29951">
        <ele>2335.2</ele>
        <time>2026-07-04T12:14:52.000Z</time>
      </trkpt>
      <trkpt lat="42.89983" lon="-0.2994">
        <ele>2334.6</ele>
        <time>2026-07-04T12:15:08.000Z</time>
      </trkpt>
      <trkpt lat="42.89986" lon="-0.29927">
        <ele>2333.7</ele>
        <time>2026-07-04T12:15:23.000Z</time>
      </trkpt>
      <trkpt lat="42.8999" lon="-0.29916">
        <ele>2332.9</ele>
        <time>2026-07-04T12:15:35.000Z</time>
      </trkpt>
      <trkpt lat="42.89997" lon="-0.29908">
        <ele>2332.9</ele>
        <time>2026-07-04T12:15:47.000Z</time>
      </trkpt>
      <trkpt lat="42.90003" lon="-0.29898">
        <ele>2334.1</ele>
        <time>2026-07-04T12:16:04.000Z</time>
      </trkpt>
      <trkpt lat="42.90004" lon="-0.29891">
        <ele>2333.2</ele>
        <time>2026-07-04T12:16:29.000Z</time>
      </trkpt>
      <trkpt lat="42.90005" lon="-0.29891">
        <ele>2333.3</ele>
        <time>2026-07-04T12:16:32.000Z</time>
      </trkpt>
      <trkpt lat="42.89998" lon="-0.29882">
        <ele>2332.9</ele>
        <time>2026-07-04T12:17:07.000Z</time>
      </trkpt>
      <trkpt lat="42.9" lon="-0.29869">
        <ele>2333.7</ele>
        <time>2026-07-04T12:17:25.000Z</time>
      </trkpt>
      <trkpt lat="42.90005" lon="-0.29857">
        <ele>2332.7</ele>
        <time>2026-07-04T12:17:37.000Z</time>
      </trkpt>
      <trkpt lat="42.9001" lon="-0.29846">
        <ele>2330.8</ele>
        <time>2026-07-04T12:17:47.000Z</time>
      </trkpt>
      <trkpt lat="42.90013" lon="-0.29834">
        <ele>2323.6</ele>
        <time>2026-07-04T12:17:58.000Z</time>
      </trkpt>
      <trkpt lat="42.90016" lon="-0.29822">
        <ele>2320.9</ele>
        <time>2026-07-04T12:18:07.000Z</time>
      </trkpt>
      <trkpt lat="42.90019" lon="-0.2981">
        <ele>2317.2</ele>
        <time>2026-07-04T12:18:18.000Z</time>
      </trkpt>
      <trkpt lat="42.9002" lon="-0.29797">
        <ele>2312.5</ele>
        <time>2026-07-04T12:18:30.000Z</time>
      </trkpt>
      <trkpt lat="42.90018" lon="-0.29785">
        <ele>2311.4</ele>
        <time>2026-07-04T12:18:41.000Z</time>
      </trkpt>
      <trkpt lat="42.90019" lon="-0.29772">
        <ele>2310.7</ele>
        <time>2026-07-04T12:18:53.000Z</time>
      </trkpt>
      <trkpt lat="42.90023" lon="-0.2976">
        <ele>2306.5</ele>
        <time>2026-07-04T12:19:08.000Z</time>
      </trkpt>
      <trkpt lat="42.90022" lon="-0.2976">
        <ele>2305.8</ele>
        <time>2026-07-04T12:19:25.000Z</time>
      </trkpt>
      <trkpt lat="42.90024" lon="-0.2976">
        <ele>2302.1</ele>
        <time>2026-07-04T12:20:30.000Z</time>
      </trkpt>
      <trkpt lat="42.90033" lon="-0.29763">
        <ele>2303.3</ele>
        <time>2026-07-04T12:20:54.000Z</time>
      </trkpt>
      <trkpt lat="42.90041" lon="-0.29758">
        <ele>2302.2</ele>
        <time>2026-07-04T12:21:12.000Z</time>
      </trkpt>
      <trkpt lat="42.90051" lon="-0.29758">
        <ele>2303.5</ele>
        <time>2026-07-04T12:21:26.000Z</time>
      </trkpt>
      <trkpt lat="42.90059" lon="-0.29752">
        <ele>2312.3</ele>
        <time>2026-07-04T12:21:46.000Z</time>
      </trkpt>
      <trkpt lat="42.90067" lon="-0.29748">
        <ele>2314.9</ele>
        <time>2026-07-04T12:22:11.000Z</time>
      </trkpt>
      <trkpt lat="42.90076" lon="-0.29742">
        <ele>2313.3</ele>
        <time>2026-07-04T12:22:29.000Z</time>
      </trkpt>
      <trkpt lat="42.90084" lon="-0.29746">
        <ele>2315.3</ele>
        <time>2026-07-04T12:22:59.000Z</time>
      </trkpt>
      <trkpt lat="42.90093" lon="-0.29742">
        <ele>2315.6</ele>
        <time>2026-07-04T12:23:22.000Z</time>
      </trkpt>
      <trkpt lat="42.90102" lon="-0.29738">
        <ele>2316</ele>
        <time>2026-07-04T12:23:40.000Z</time>
      </trkpt>
      <trkpt lat="42.9011" lon="-0.29733">
        <ele>2321.5</ele>
        <time>2026-07-04T12:24:05.000Z</time>
      </trkpt>
      <trkpt lat="42.90118" lon="-0.29724">
        <ele>2322.7</ele>
        <time>2026-07-04T12:24:24.000Z</time>
      </trkpt>
      <trkpt lat="42.90125" lon="-0.29716">
        <ele>2323</ele>
        <time>2026-07-04T12:24:35.000Z</time>
      </trkpt>
      <trkpt lat="42.9013" lon="-0.29705">
        <ele>2321.7</ele>
        <time>2026-07-04T12:24:45.000Z</time>
      </trkpt>
      <trkpt lat="42.90136" lon="-0.29695">
        <ele>2319.8</ele>
        <time>2026-07-04T12:24:55.000Z</time>
      </trkpt>
      <trkpt lat="42.90142" lon="-0.29685">
        <ele>2318.1</ele>
        <time>2026-07-04T12:25:07.000Z</time>
      </trkpt>
      <trkpt lat="42.90148" lon="-0.29674">
        <ele>2318.1</ele>
        <time>2026-07-04T12:25:19.000Z</time>
      </trkpt>
      <trkpt lat="42.90149" lon="-0.29661">
        <ele>2317.6</ele>
        <time>2026-07-04T12:25:30.000Z</time>
      </trkpt>
      <trkpt lat="42.90148" lon="-0.29649">
        <ele>2314</ele>
        <time>2026-07-04T12:25:41.000Z</time>
      </trkpt>
      <trkpt lat="42.90149" lon="-0.29636">
        <ele>2313.4</ele>
        <time>2026-07-04T12:25:50.000Z</time>
      </trkpt>
      <trkpt lat="42.90149" lon="-0.29623">
        <ele>2310.3</ele>
        <time>2026-07-04T12:25:59.000Z</time>
      </trkpt>
      <trkpt lat="42.90151" lon="-0.2961">
        <ele>2308.5</ele>
        <time>2026-07-04T12:26:09.000Z</time>
      </trkpt>
      <trkpt lat="42.90154" lon="-0.29601">
        <ele>2302.7</ele>
        <time>2026-07-04T12:26:34.000Z</time>
      </trkpt>
      <trkpt lat="42.90156" lon="-0.29599">
        <ele>2302.5</ele>
        <time>2026-07-04T12:26:44.000Z</time>
      </trkpt>
      <trkpt lat="42.90166" lon="-0.29597">
        <ele>2298.3</ele>
        <time>2026-07-04T12:27:03.000Z</time>
      </trkpt>
      <trkpt lat="42.90175" lon="-0.29596">
        <ele>2293.8</ele>
        <time>2026-07-04T12:27:29.000Z</time>
      </trkpt>
      <trkpt lat="42.90184" lon="-0.29597">
        <ele>2290.5</ele>
        <time>2026-07-04T12:27:48.000Z</time>
      </trkpt>
      <trkpt lat="42.90193" lon="-0.29596">
        <ele>2288.6</ele>
        <time>2026-07-04T12:28:05.000Z</time>
      </trkpt>
      <trkpt lat="42.90202" lon="-0.29593">
        <ele>2286.7</ele>
        <time>2026-07-04T12:28:22.000Z</time>
      </trkpt>
      <trkpt lat="42.9021" lon="-0.29587">
        <ele>2285.4</ele>
        <time>2026-07-04T12:28:34.000Z</time>
      </trkpt>
      <trkpt lat="42.90219" lon="-0.29582">
        <ele>2282.3</ele>
        <time>2026-07-04T12:28:47.000Z</time>
      </trkpt>
      <trkpt lat="42.90227" lon="-0.29577">
        <ele>2280.8</ele>
        <time>2026-07-04T12:28:58.000Z</time>
      </trkpt>
      <trkpt lat="42.90233" lon="-0.29566">
        <ele>2279</ele>
        <time>2026-07-04T12:29:08.000Z</time>
      </trkpt>
      <trkpt lat="42.90241" lon="-0.29559">
        <ele>2276.8</ele>
        <time>2026-07-04T12:29:21.000Z</time>
      </trkpt>
      <trkpt lat="42.9025" lon="-0.29555">
        <ele>2276.1</ele>
        <time>2026-07-04T12:29:34.000Z</time>
      </trkpt>
      <trkpt lat="42.9026" lon="-0.29553">
        <ele>2271.5</ele>
        <time>2026-07-04T12:29:47.000Z</time>
      </trkpt>
      <trkpt lat="42.90269" lon="-0.2955">
        <ele>2269.2</ele>
        <time>2026-07-04T12:29:57.000Z</time>
      </trkpt>
      <trkpt lat="42.90277" lon="-0.29544">
        <ele>2267.1</ele>
        <time>2026-07-04T12:30:06.000Z</time>
      </trkpt>
      <trkpt lat="42.90286" lon="-0.29539">
        <ele>2263.9</ele>
        <time>2026-07-04T12:30:15.000Z</time>
      </trkpt>
      <trkpt lat="42.90293" lon="-0.29529">
        <ele>2261.8</ele>
        <time>2026-07-04T12:30:24.000Z</time>
      </trkpt>
      <trkpt lat="42.90301" lon="-0.29522">
        <ele>2260.3</ele>
        <time>2026-07-04T12:30:34.000Z</time>
      </trkpt>
      <trkpt lat="42.90309" lon="-0.29515">
        <ele>2256.7</ele>
        <time>2026-07-04T12:30:46.000Z</time>
      </trkpt>
      <trkpt lat="42.90315" lon="-0.29505">
        <ele>2250.4</ele>
        <time>2026-07-04T12:30:55.000Z</time>
      </trkpt>
      <trkpt lat="42.90319" lon="-0.29493">
        <ele>2248</ele>
        <time>2026-07-04T12:31:04.000Z</time>
      </trkpt>
      <trkpt lat="42.90326" lon="-0.29486">
        <ele>2244.2</ele>
        <time>2026-07-04T12:31:18.000Z</time>
      </trkpt>
      <trkpt lat="42.90332" lon="-0.29475">
        <ele>2238.2</ele>
        <time>2026-07-04T12:31:29.000Z</time>
      </trkpt>
      <trkpt lat="42.90339" lon="-0.29466">
        <ele>2234.8</ele>
        <time>2026-07-04T12:31:39.000Z</time>
      </trkpt>
      <trkpt lat="42.90347" lon="-0.29461">
        <ele>2232.5</ele>
        <time>2026-07-04T12:31:53.000Z</time>
      </trkpt>
      <trkpt lat="42.90355" lon="-0.29467">
        <ele>2229</ele>
        <time>2026-07-04T12:32:05.000Z</time>
      </trkpt>
      <trkpt lat="42.90363" lon="-0.29461">
        <ele>2222.4</ele>
        <time>2026-07-04T12:32:24.000Z</time>
      </trkpt>
      <trkpt lat="42.9037" lon="-0.29452">
        <ele>2216</ele>
        <time>2026-07-04T12:32:45.000Z</time>
      </trkpt>
      <trkpt lat="42.90374" lon="-0.2944">
        <ele>2209.9</ele>
        <time>2026-07-04T12:33:02.000Z</time>
      </trkpt>
      <trkpt lat="42.90376" lon="-0.29428">
        <ele>2204.3</ele>
        <time>2026-07-04T12:33:23.000Z</time>
      </trkpt>
      <trkpt lat="42.90377" lon="-0.29415">
        <ele>2199.9</ele>
        <time>2026-07-04T12:33:38.000Z</time>
      </trkpt>
      <trkpt lat="42.90376" lon="-0.29402">
        <ele>2193.4</ele>
        <time>2026-07-04T12:33:55.000Z</time>
      </trkpt>
      <trkpt lat="42.90377" lon="-0.2939">
        <ele>2188</ele>
        <time>2026-07-04T12:34:08.000Z</time>
      </trkpt>
      <trkpt lat="42.90377" lon="-0.29376">
        <ele>2182.8</ele>
        <time>2026-07-04T12:34:24.000Z</time>
      </trkpt>
      <trkpt lat="42.90377" lon="-0.29364">
        <ele>2178.7</ele>
        <time>2026-07-04T12:34:37.000Z</time>
      </trkpt>
      <trkpt lat="42.90375" lon="-0.29351">
        <ele>2172.9</ele>
        <time>2026-07-04T12:34:51.000Z</time>
      </trkpt>
      <trkpt lat="42.90377" lon="-0.29338">
        <ele>2168.6</ele>
        <time>2026-07-04T12:35:02.000Z</time>
      </trkpt>
      <trkpt lat="42.90374" lon="-0.29326">
        <ele>2163.8</ele>
        <time>2026-07-04T12:35:13.000Z</time>
      </trkpt>
      <trkpt lat="42.90374" lon="-0.29313">
        <ele>2159.3</ele>
        <time>2026-07-04T12:35:31.000Z</time>
      </trkpt>
      <trkpt lat="42.90376" lon="-0.29301">
        <ele>2156.9</ele>
        <time>2026-07-04T12:35:41.000Z</time>
      </trkpt>
      <trkpt lat="42.9038" lon="-0.29288">
        <ele>2152.8</ele>
        <time>2026-07-04T12:35:51.000Z</time>
      </trkpt>
      <trkpt lat="42.90382" lon="-0.29276">
        <ele>2149.1</ele>
        <time>2026-07-04T12:35:59.000Z</time>
      </trkpt>
      <trkpt lat="42.90383" lon="-0.29264">
        <ele>2145.8</ele>
        <time>2026-07-04T12:36:07.000Z</time>
      </trkpt>
      <trkpt lat="42.90388" lon="-0.29252">
        <ele>2144.1</ele>
        <time>2026-07-04T12:36:15.000Z</time>
      </trkpt>
      <trkpt lat="42.9039" lon="-0.29239">
        <ele>2140.9</ele>
        <time>2026-07-04T12:36:24.000Z</time>
      </trkpt>
      <trkpt lat="42.90394" lon="-0.29226">
        <ele>2138.5</ele>
        <time>2026-07-04T12:36:32.000Z</time>
      </trkpt>
      <trkpt lat="42.90399" lon="-0.29216">
        <ele>2137</ele>
        <time>2026-07-04T12:36:39.000Z</time>
      </trkpt>
      <trkpt lat="42.90396" lon="-0.29204">
        <ele>2135.1</ele>
        <time>2026-07-04T12:36:49.000Z</time>
      </trkpt>
      <trkpt lat="42.90395" lon="-0.29191">
        <ele>2131.7</ele>
        <time>2026-07-04T12:37:01.000Z</time>
      </trkpt>
      <trkpt lat="42.904" lon="-0.2918">
        <ele>2126.5</ele>
        <time>2026-07-04T12:37:12.000Z</time>
      </trkpt>
      <trkpt lat="42.90406" lon="-0.2917">
        <ele>2119.6</ele>
        <time>2026-07-04T12:37:24.000Z</time>
      </trkpt>
      <trkpt lat="42.9041" lon="-0.29159">
        <ele>2115.2</ele>
        <time>2026-07-04T12:37:38.000Z</time>
      </trkpt>
      <trkpt lat="42.90415" lon="-0.29148">
        <ele>2111.1</ele>
        <time>2026-07-04T12:38:00.000Z</time>
      </trkpt>
      <trkpt lat="42.90419" lon="-0.29137">
        <ele>2104.8</ele>
        <time>2026-07-04T12:38:14.000Z</time>
      </trkpt>
      <trkpt lat="42.90423" lon="-0.29126">
        <ele>2098.6</ele>
        <time>2026-07-04T12:38:27.000Z</time>
      </trkpt>
      <trkpt lat="42.90427" lon="-0.29114">
        <ele>2095.5</ele>
        <time>2026-07-04T12:38:44.000Z</time>
      </trkpt>
      <trkpt lat="42.90435" lon="-0.29108">
        <ele>2091.9</ele>
        <time>2026-07-04T12:38:56.000Z</time>
      </trkpt>
      <trkpt lat="42.90444" lon="-0.29103">
        <ele>2089.6</ele>
        <time>2026-07-04T12:39:05.000Z</time>
      </trkpt>
      <trkpt lat="42.9045" lon="-0.29094">
        <ele>2083.4</ele>
        <time>2026-07-04T12:39:23.000Z</time>
      </trkpt>
      <trkpt lat="42.90458" lon="-0.29086">
        <ele>2081.6</ele>
        <time>2026-07-04T12:39:36.000Z</time>
      </trkpt>
      <trkpt lat="42.90465" lon="-0.29078">
        <ele>2078.6</ele>
        <time>2026-07-04T12:39:47.000Z</time>
      </trkpt>
      <trkpt lat="42.90466" lon="-0.29066">
        <ele>2074.4</ele>
        <time>2026-07-04T12:39:58.000Z</time>
      </trkpt>
      <trkpt lat="42.90475" lon="-0.29064">
        <ele>2071.5</ele>
        <time>2026-07-04T12:40:06.000Z</time>
      </trkpt>
      <trkpt lat="42.90481" lon="-0.29055">
        <ele>2064.5</ele>
        <time>2026-07-04T12:40:21.000Z</time>
      </trkpt>
      <trkpt lat="42.9049" lon="-0.29049">
        <ele>2057.8</ele>
        <time>2026-07-04T12:40:44.000Z</time>
      </trkpt>
      <trkpt lat="42.90498" lon="-0.29044">
        <ele>2052.6</ele>
        <time>2026-07-04T12:40:58.000Z</time>
      </trkpt>
      <trkpt lat="42.90505" lon="-0.29035">
        <ele>2051.6</ele>
        <time>2026-07-04T12:41:10.000Z</time>
      </trkpt>
      <trkpt lat="42.90509" lon="-0.29023">
        <ele>2046.9</ele>
        <time>2026-07-04T12:41:27.000Z</time>
      </trkpt>
      <trkpt lat="42.90508" lon="-0.29011">
        <ele>2040.6</ele>
        <time>2026-07-04T12:41:45.000Z</time>
      </trkpt>
      <trkpt lat="42.90508" lon="-0.28998">
        <ele>2035.5</ele>
        <time>2026-07-04T12:42:01.000Z</time>
      </trkpt>
      <trkpt lat="42.90503" lon="-0.28987">
        <ele>2025.5</ele>
        <time>2026-07-04T12:42:20.000Z</time>
      </trkpt>
      <trkpt lat="42.90504" lon="-0.28974">
        <ele>2021.1</ele>
        <time>2026-07-04T12:42:39.000Z</time>
      </trkpt>
      <trkpt lat="42.90506" lon="-0.28962">
        <ele>2014.5</ele>
        <time>2026-07-04T12:42:57.000Z</time>
      </trkpt>
      <trkpt lat="42.9051" lon="-0.28951">
        <ele>2009.8</ele>
        <time>2026-07-04T12:43:07.000Z</time>
      </trkpt>
      <trkpt lat="42.90504" lon="-0.28941">
        <ele>2003.1</ele>
        <time>2026-07-04T12:43:25.000Z</time>
      </trkpt>
      <trkpt lat="42.90505" lon="-0.28928">
        <ele>1999.2</ele>
        <time>2026-07-04T12:43:41.000Z</time>
      </trkpt>
      <trkpt lat="42.90496" lon="-0.28925">
        <ele>1996.4</ele>
        <time>2026-07-04T12:43:50.000Z</time>
      </trkpt>
      <trkpt lat="42.90499" lon="-0.28914">
        <ele>1992.9</ele>
        <time>2026-07-04T12:43:57.000Z</time>
      </trkpt>
      <trkpt lat="42.90505" lon="-0.28902">
        <ele>1990.2</ele>
        <time>2026-07-04T12:44:04.000Z</time>
      </trkpt>
      <trkpt lat="42.90509" lon="-0.28891">
        <ele>1986.4</ele>
        <time>2026-07-04T12:44:12.000Z</time>
      </trkpt>
      <trkpt lat="42.90517" lon="-0.28881">
        <ele>1978.1</ele>
        <time>2026-07-04T12:44:21.000Z</time>
      </trkpt>
      <trkpt lat="42.90521" lon="-0.2887">
        <ele>1974.1</ele>
        <time>2026-07-04T12:44:31.000Z</time>
      </trkpt>
      <trkpt lat="42.90528" lon="-0.28861">
        <ele>1971.5</ele>
        <time>2026-07-04T12:44:39.000Z</time>
      </trkpt>
      <trkpt lat="42.90522" lon="-0.28852">
        <ele>1965.9</ele>
        <time>2026-07-04T12:44:49.000Z</time>
      </trkpt>
      <trkpt lat="42.90512" lon="-0.28854">
        <ele>1964.5</ele>
        <time>2026-07-04T12:44:54.000Z</time>
      </trkpt>
      <trkpt lat="42.90516" lon="-0.2884">
        <ele>1958.9</ele>
        <time>2026-07-04T12:45:04.000Z</time>
      </trkpt>
      <trkpt lat="42.90507" lon="-0.28834">
        <ele>1951.1</ele>
        <time>2026-07-04T12:45:16.000Z</time>
      </trkpt>
      <trkpt lat="42.90508" lon="-0.2882">
        <ele>1947.5</ele>
        <time>2026-07-04T12:45:28.000Z</time>
      </trkpt>
      <trkpt lat="42.90513" lon="-0.2881">
        <ele>1943.2</ele>
        <time>2026-07-04T12:45:35.000Z</time>
      </trkpt>
      <trkpt lat="42.90503" lon="-0.2881">
        <ele>1938.9</ele>
        <time>2026-07-04T12:45:43.000Z</time>
      </trkpt>
      <trkpt lat="42.90493" lon="-0.28814">
        <ele>1936.1</ele>
        <time>2026-07-04T12:45:49.000Z</time>
      </trkpt>
      <trkpt lat="42.90493" lon="-0.28801">
        <ele>1930.6</ele>
        <time>2026-07-04T12:46:02.000Z</time>
      </trkpt>
      <trkpt lat="42.90497" lon="-0.28789">
        <ele>1927.3</ele>
        <time>2026-07-04T12:46:09.000Z</time>
      </trkpt>
      <trkpt lat="42.90488" lon="-0.28782">
        <ele>1919.8</ele>
        <time>2026-07-04T12:46:22.000Z</time>
      </trkpt>
      <trkpt lat="42.90479" lon="-0.28784">
        <ele>1916.5</ele>
        <time>2026-07-04T12:46:29.000Z</time>
      </trkpt>
      <trkpt lat="42.90482" lon="-0.28771">
        <ele>1912.7</ele>
        <time>2026-07-04T12:46:41.000Z</time>
      </trkpt>
      <trkpt lat="42.90487" lon="-0.28761">
        <ele>1910.8</ele>
        <time>2026-07-04T12:46:47.000Z</time>
      </trkpt>
      <trkpt lat="42.9049" lon="-0.28749">
        <ele>1908</ele>
        <time>2026-07-04T12:46:55.000Z</time>
      </trkpt>
      <trkpt lat="42.9048" lon="-0.28748">
        <ele>1904.5</ele>
        <time>2026-07-04T12:47:01.000Z</time>
      </trkpt>
      <trkpt lat="42.90471" lon="-0.28746">
        <ele>1902.1</ele>
        <time>2026-07-04T12:47:06.000Z</time>
      </trkpt>
      <trkpt lat="42.90462" lon="-0.28743">
        <ele>1898.9</ele>
        <time>2026-07-04T12:47:14.000Z</time>
      </trkpt>
      <trkpt lat="42.90461" lon="-0.28731">
        <ele>1893.8</ele>
        <time>2026-07-04T12:47:28.000Z</time>
      </trkpt>
      <trkpt lat="42.90459" lon="-0.28719">
        <ele>1886.9</ele>
        <time>2026-07-04T12:47:45.000Z</time>
      </trkpt>
      <trkpt lat="42.90451" lon="-0.28713">
        <ele>1884.3</ele>
        <time>2026-07-04T12:47:52.000Z</time>
      </trkpt>
      <trkpt lat="42.90451" lon="-0.28699">
        <ele>1880.7</ele>
        <time>2026-07-04T12:48:04.000Z</time>
      </trkpt>
      <trkpt lat="42.90442" lon="-0.28694">
        <ele>1879.1</ele>
        <time>2026-07-04T12:48:13.000Z</time>
      </trkpt>
      <trkpt lat="42.90441" lon="-0.28682">
        <ele>1876</ele>
        <time>2026-07-04T12:48:26.000Z</time>
      </trkpt>
      <trkpt lat="42.90447" lon="-0.28671">
        <ele>1870.7</ele>
        <time>2026-07-04T12:48:36.000Z</time>
      </trkpt>
      <trkpt lat="42.9044" lon="-0.28662">
        <ele>1866.4</ele>
        <time>2026-07-04T12:48:44.000Z</time>
      </trkpt>
      <trkpt lat="42.90443" lon="-0.28649">
        <ele>1862</ele>
        <time>2026-07-04T12:48:53.000Z</time>
      </trkpt>
      <trkpt lat="42.90446" lon="-0.28637">
        <ele>1857.9</ele>
        <time>2026-07-04T12:49:00.000Z</time>
      </trkpt>
      <trkpt lat="42.90452" lon="-0.28626">
        <ele>1856.1</ele>
        <time>2026-07-04T12:49:09.000Z</time>
      </trkpt>
      <trkpt lat="42.90446" lon="-0.28615">
        <ele>1855</ele>
        <time>2026-07-04T12:49:15.000Z</time>
      </trkpt>
      <trkpt lat="42.90445" lon="-0.28602">
        <ele>1851.6</ele>
        <time>2026-07-04T12:49:24.000Z</time>
      </trkpt>
      <trkpt lat="42.90449" lon="-0.28589">
        <ele>1851.8</ele>
        <time>2026-07-04T12:49:31.000Z</time>
      </trkpt>
      <trkpt lat="42.90455" lon="-0.28579">
        <ele>1851.1</ele>
        <time>2026-07-04T12:49:38.000Z</time>
      </trkpt>
      <trkpt lat="42.90463" lon="-0.2857">
        <ele>1850.5</ele>
        <time>2026-07-04T12:49:45.000Z</time>
      </trkpt>
      <trkpt lat="42.9047" lon="-0.28558">
        <ele>1848.2</ele>
        <time>2026-07-04T12:49:51.000Z</time>
      </trkpt>
      <trkpt lat="42.90472" lon="-0.28546">
        <ele>1845.7</ele>
        <time>2026-07-04T12:49:56.000Z</time>
      </trkpt>
      <trkpt lat="42.9048" lon="-0.28539">
        <ele>1844.3</ele>
        <time>2026-07-04T12:50:02.000Z</time>
      </trkpt>
      <trkpt lat="42.90481" lon="-0.28525">
        <ele>1843.6</ele>
        <time>2026-07-04T12:50:07.000Z</time>
      </trkpt>
      <trkpt lat="42.90487" lon="-0.28514">
        <ele>1843.2</ele>
        <time>2026-07-04T12:50:15.000Z</time>
      </trkpt>
      <trkpt lat="42.90495" lon="-0.28508">
        <ele>1843.1</ele>
        <time>2026-07-04T12:50:24.000Z</time>
      </trkpt>
      <trkpt lat="42.90505" lon="-0.28512">
        <ele>1841.5</ele>
        <time>2026-07-04T12:50:34.000Z</time>
      </trkpt>
      <trkpt lat="42.90515" lon="-0.2851">
        <ele>1838.2</ele>
        <time>2026-07-04T12:50:42.000Z</time>
      </trkpt>
      <trkpt lat="42.90523" lon="-0.28507">
        <ele>1833.5</ele>
        <time>2026-07-04T12:50:50.000Z</time>
      </trkpt>
      <trkpt lat="42.90533" lon="-0.28506">
        <ele>1826.9</ele>
        <time>2026-07-04T12:51:03.000Z</time>
      </trkpt>
      <trkpt lat="42.90542" lon="-0.28501">
        <ele>1824.1</ele>
        <time>2026-07-04T12:51:13.000Z</time>
      </trkpt>
      <trkpt lat="42.90546" lon="-0.2849">
        <ele>1823.5</ele>
        <time>2026-07-04T12:51:23.000Z</time>
      </trkpt>
      <trkpt lat="42.90551" lon="-0.28479">
        <ele>1821.6</ele>
        <time>2026-07-04T12:51:32.000Z</time>
      </trkpt>
      <trkpt lat="42.9056" lon="-0.28473">
        <ele>1820.8</ele>
        <time>2026-07-04T12:51:40.000Z</time>
      </trkpt>
      <trkpt lat="42.90565" lon="-0.28462">
        <ele>1821.4</ele>
        <time>2026-07-04T12:51:46.000Z</time>
      </trkpt>
      <trkpt lat="42.90571" lon="-0.28452">
        <ele>1820.8</ele>
        <time>2026-07-04T12:51:52.000Z</time>
      </trkpt>
      <trkpt lat="42.9058" lon="-0.28445">
        <ele>1819.2</ele>
        <time>2026-07-04T12:51:57.000Z</time>
      </trkpt>
      <trkpt lat="42.90589" lon="-0.28439">
        <ele>1816</ele>
        <time>2026-07-04T12:52:02.000Z</time>
      </trkpt>
      <trkpt lat="42.90599" lon="-0.28435">
        <ele>1814.7</ele>
        <time>2026-07-04T12:52:07.000Z</time>
      </trkpt>
      <trkpt lat="42.90606" lon="-0.28429">
        <ele>1813.1</ele>
        <time>2026-07-04T12:52:14.000Z</time>
      </trkpt>
      <trkpt lat="42.90611" lon="-0.28418">
        <ele>1813.8</ele>
        <time>2026-07-04T12:52:21.000Z</time>
      </trkpt>
      <trkpt lat="42.90616" lon="-0.28407">
        <ele>1809.3</ele>
        <time>2026-07-04T12:52:28.000Z</time>
      </trkpt>
      <trkpt lat="42.90619" lon="-0.28395">
        <ele>1798.7</ele>
        <time>2026-07-04T12:52:40.000Z</time>
      </trkpt>
      <trkpt lat="42.90614" lon="-0.28384">
        <ele>1789.7</ele>
        <time>2026-07-04T12:52:57.000Z</time>
      </trkpt>
      <trkpt lat="42.90616" lon="-0.28371">
        <ele>1784.9</ele>
        <time>2026-07-04T12:53:08.000Z</time>
      </trkpt>
      <trkpt lat="42.90622" lon="-0.28361">
        <ele>1780.3</ele>
        <time>2026-07-04T12:53:23.000Z</time>
      </trkpt>
      <trkpt lat="42.90628" lon="-0.28351">
        <ele>1778.6</ele>
        <time>2026-07-04T12:53:30.000Z</time>
      </trkpt>
      <trkpt lat="42.90632" lon="-0.28339">
        <ele>1776.5</ele>
        <time>2026-07-04T12:53:38.000Z</time>
      </trkpt>
      <trkpt lat="42.90636" lon="-0.28327">
        <ele>1771.4</ele>
        <time>2026-07-04T12:53:46.000Z</time>
      </trkpt>
      <trkpt lat="42.90644" lon="-0.28319">
        <ele>1769.7</ele>
        <time>2026-07-04T12:53:52.000Z</time>
      </trkpt>
      <trkpt lat="42.90651" lon="-0.2831">
        <ele>1764.8</ele>
        <time>2026-07-04T12:54:07.000Z</time>
      </trkpt>
      <trkpt lat="42.90653" lon="-0.28298">
        <ele>1756.9</ele>
        <time>2026-07-04T12:54:23.000Z</time>
      </trkpt>
      <trkpt lat="42.90655" lon="-0.28285">
        <ele>1751.6</ele>
        <time>2026-07-04T12:54:41.000Z</time>
      </trkpt>
      <trkpt lat="42.9066" lon="-0.28274">
        <ele>1749.4</ele>
        <time>2026-07-04T12:54:51.000Z</time>
      </trkpt>
      <trkpt lat="42.90663" lon="-0.28262">
        <ele>1747.3</ele>
        <time>2026-07-04T12:55:01.000Z</time>
      </trkpt>
      <trkpt lat="42.90665" lon="-0.2825">
        <ele>1745</ele>
        <time>2026-07-04T12:55:14.000Z</time>
      </trkpt>
      <trkpt lat="42.9067" lon="-0.28239">
        <ele>1744.2</ele>
        <time>2026-07-04T12:55:24.000Z</time>
      </trkpt>
      <trkpt lat="42.90678" lon="-0.28233">
        <ele>1743.2</ele>
        <time>2026-07-04T12:55:36.000Z</time>
      </trkpt>
      <trkpt lat="42.90685" lon="-0.28225">
        <ele>1742.2</ele>
        <time>2026-07-04T12:55:46.000Z</time>
      </trkpt>
      <trkpt lat="42.90687" lon="-0.28213">
        <ele>1740.1</ele>
        <time>2026-07-04T12:55:58.000Z</time>
      </trkpt>
      <trkpt lat="42.90688" lon="-0.28199">
        <ele>1738.8</ele>
        <time>2026-07-04T12:56:11.000Z</time>
      </trkpt>
      <trkpt lat="42.9069" lon="-0.28186">
        <ele>1734.5</ele>
        <time>2026-07-04T12:56:22.000Z</time>
      </trkpt>
      <trkpt lat="42.90684" lon="-0.28176">
        <ele>1727.9</ele>
        <time>2026-07-04T12:56:40.000Z</time>
      </trkpt>
      <trkpt lat="42.90687" lon="-0.28164">
        <ele>1725.4</ele>
        <time>2026-07-04T12:56:53.000Z</time>
      </trkpt>
      <trkpt lat="42.90679" lon="-0.28159">
        <ele>1720.5</ele>
        <time>2026-07-04T12:57:09.000Z</time>
      </trkpt>
      <trkpt lat="42.90671" lon="-0.28153">
        <ele>1713.6</ele>
        <time>2026-07-04T12:57:34.000Z</time>
      </trkpt>
      <trkpt lat="42.90671" lon="-0.2814">
        <ele>1708</ele>
        <time>2026-07-04T12:57:49.000Z</time>
      </trkpt>
      <trkpt lat="42.90669" lon="-0.28128">
        <ele>1701.3</ele>
        <time>2026-07-04T12:58:07.000Z</time>
      </trkpt>
      <trkpt lat="42.9067" lon="-0.28116">
        <ele>1697.7</ele>
        <time>2026-07-04T12:58:29.000Z</time>
      </trkpt>
      <trkpt lat="42.90669" lon="-0.28103">
        <ele>1694.4</ele>
        <time>2026-07-04T12:58:46.000Z</time>
      </trkpt>
      <trkpt lat="42.90672" lon="-0.28091">
        <ele>1690</ele>
        <time>2026-07-04T12:59:00.000Z</time>
      </trkpt>
      <trkpt lat="42.90675" lon="-0.2808">
        <ele>1689.7</ele>
        <time>2026-07-04T12:59:13.000Z</time>
      </trkpt>
      <trkpt lat="42.90678" lon="-0.28068">
        <ele>1685.4</ele>
        <time>2026-07-04T12:59:25.000Z</time>
      </trkpt>
      <trkpt lat="42.9068" lon="-0.28056">
        <ele>1684.3</ele>
        <time>2026-07-04T12:59:38.000Z</time>
      </trkpt>
      <trkpt lat="42.90675" lon="-0.28045">
        <ele>1678.8</ele>
        <time>2026-07-04T12:59:52.000Z</time>
      </trkpt>
      <trkpt lat="42.90673" lon="-0.28032">
        <ele>1676.5</ele>
        <time>2026-07-04T13:00:04.000Z</time>
      </trkpt>
      <trkpt lat="42.9067" lon="-0.2802">
        <ele>1675</ele>
        <time>2026-07-04T13:00:16.000Z</time>
      </trkpt>
      <trkpt lat="42.90668" lon="-0.28008">
        <ele>1673.5</ele>
        <time>2026-07-04T13:00:35.000Z</time>
      </trkpt>
      <trkpt lat="42.90669" lon="-0.27995">
        <ele>1672.8</ele>
        <time>2026-07-04T13:00:50.000Z</time>
      </trkpt>
      <trkpt lat="42.9067" lon="-0.27983">
        <ele>1671.9</ele>
        <time>2026-07-04T13:01:01.000Z</time>
      </trkpt>
      <trkpt lat="42.9067" lon="-0.27969">
        <ele>1669.4</ele>
        <time>2026-07-04T13:01:13.000Z</time>
      </trkpt>
      <trkpt lat="42.90667" lon="-0.27957">
        <ele>1663.8</ele>
        <time>2026-07-04T13:01:24.000Z</time>
      </trkpt>
      <trkpt lat="42.90665" lon="-0.27944">
        <ele>1662.3</ele>
        <time>2026-07-04T13:01:35.000Z</time>
      </trkpt>
      <trkpt lat="42.9066" lon="-0.27932">
        <ele>1661</ele>
        <time>2026-07-04T13:01:45.000Z</time>
      </trkpt>
      <trkpt lat="42.90658" lon="-0.27919">
        <ele>1656</ele>
        <time>2026-07-04T13:01:56.000Z</time>
      </trkpt>
      <trkpt lat="42.90659" lon="-0.27907">
        <ele>1653.4</ele>
        <time>2026-07-04T13:02:09.000Z</time>
      </trkpt>
      <trkpt lat="42.9066" lon="-0.27894">
        <ele>1650.5</ele>
        <time>2026-07-04T13:02:19.000Z</time>
      </trkpt>
      <trkpt lat="42.90659" lon="-0.27881">
        <ele>1645.3</ele>
        <time>2026-07-04T13:02:28.000Z</time>
      </trkpt>
      <trkpt lat="42.90657" lon="-0.27868">
        <ele>1643.9</ele>
        <time>2026-07-04T13:02:38.000Z</time>
      </trkpt>
      <trkpt lat="42.90653" lon="-0.27856">
        <ele>1640.5</ele>
        <time>2026-07-04T13:02:47.000Z</time>
      </trkpt>
      <trkpt lat="42.90652" lon="-0.27842">
        <ele>1636.6</ele>
        <time>2026-07-04T13:02:58.000Z</time>
      </trkpt>
      <trkpt lat="42.90651" lon="-0.27829">
        <ele>1636.3</ele>
        <time>2026-07-04T13:03:10.000Z</time>
      </trkpt>
      <trkpt lat="42.90649" lon="-0.27816">
        <ele>1634.5</ele>
        <time>2026-07-04T13:03:20.000Z</time>
      </trkpt>
      <trkpt lat="42.90646" lon="-0.27804">
        <ele>1632</ele>
        <time>2026-07-04T13:03:30.000Z</time>
      </trkpt>
      <trkpt lat="42.90645" lon="-0.27791">
        <ele>1629.2</ele>
        <time>2026-07-04T13:03:40.000Z</time>
      </trkpt>
      <trkpt lat="42.90646" lon="-0.27777">
        <ele>1627.4</ele>
        <time>2026-07-04T13:03:53.000Z</time>
      </trkpt>
      <trkpt lat="42.90644" lon="-0.27765">
        <ele>1626.7</ele>
        <time>2026-07-04T13:04:02.000Z</time>
      </trkpt>
      <trkpt lat="42.90642" lon="-0.27753">
        <ele>1626.1</ele>
        <time>2026-07-04T13:04:10.000Z</time>
      </trkpt>
      <trkpt lat="42.90634" lon="-0.27744">
        <ele>1622.9</ele>
        <time>2026-07-04T13:04:19.000Z</time>
      </trkpt>
      <trkpt lat="42.90634" lon="-0.27731">
        <ele>1620.1</ele>
        <time>2026-07-04T13:04:28.000Z</time>
      </trkpt>
      <trkpt lat="42.90638" lon="-0.27719">
        <ele>1618.2</ele>
        <time>2026-07-04T13:04:39.000Z</time>
      </trkpt>
      <trkpt lat="42.90639" lon="-0.27707">
        <ele>1614.6</ele>
        <time>2026-07-04T13:04:50.000Z</time>
      </trkpt>
      <trkpt lat="42.90641" lon="-0.27694">
        <ele>1611.5</ele>
        <time>2026-07-04T13:05:02.000Z</time>
      </trkpt>
      <trkpt lat="42.9064" lon="-0.2768">
        <ele>1611.1</ele>
        <time>2026-07-04T13:05:12.000Z</time>
      </trkpt>
      <trkpt lat="42.90639" lon="-0.27668">
        <ele>1612.4</ele>
        <time>2026-07-04T13:05:26.000Z</time>
      </trkpt>
      <trkpt lat="42.90639" lon="-0.27654">
        <ele>1612.9</ele>
        <time>2026-07-04T13:05:38.000Z</time>
      </trkpt>
      <trkpt lat="42.9064" lon="-0.27641">
        <ele>1610.5</ele>
        <time>2026-07-04T13:05:47.000Z</time>
      </trkpt>
      <trkpt lat="42.90644" lon="-0.2763">
        <ele>1606.5</ele>
        <time>2026-07-04T13:05:54.000Z</time>
      </trkpt>
      <trkpt lat="42.90649" lon="-0.27618">
        <ele>1602.9</ele>
        <time>2026-07-04T13:06:04.000Z</time>
      </trkpt>
      <trkpt lat="42.90651" lon="-0.27605">
        <ele>1602.4</ele>
        <time>2026-07-04T13:06:14.000Z</time>
      </trkpt>
      <trkpt lat="42.90651" lon="-0.27592">
        <ele>1601.5</ele>
        <time>2026-07-04T13:06:24.000Z</time>
      </trkpt>
      <trkpt lat="42.9065" lon="-0.2758">
        <ele>1600.3</ele>
        <time>2026-07-04T13:06:35.000Z</time>
      </trkpt>
      <trkpt lat="42.90655" lon="-0.27569">
        <ele>1599.6</ele>
        <time>2026-07-04T13:06:45.000Z</time>
      </trkpt>
      <trkpt lat="42.90662" lon="-0.2756">
        <ele>1596.5</ele>
        <time>2026-07-04T13:06:55.000Z</time>
      </trkpt>
      <trkpt lat="42.90667" lon="-0.27548">
        <ele>1596.2</ele>
        <time>2026-07-04T13:07:08.000Z</time>
      </trkpt>
      <trkpt lat="42.90667" lon="-0.27535">
        <ele>1595.7</ele>
        <time>2026-07-04T13:07:20.000Z</time>
      </trkpt>
      <trkpt lat="42.90669" lon="-0.27523">
        <ele>1594.3</ele>
        <time>2026-07-04T13:07:31.000Z</time>
      </trkpt>
      <trkpt lat="42.90675" lon="-0.27513">
        <ele>1594.6</ele>
        <time>2026-07-04T13:07:43.000Z</time>
      </trkpt>
      <trkpt lat="42.90679" lon="-0.27502">
        <ele>1594</ele>
        <time>2026-07-04T13:07:52.000Z</time>
      </trkpt>
      <trkpt lat="42.9068" lon="-0.27489">
        <ele>1587</ele>
        <time>2026-07-04T13:08:05.000Z</time>
      </trkpt>
      <trkpt lat="42.90681" lon="-0.27477">
        <ele>1587.2</ele>
        <time>2026-07-04T13:08:16.000Z</time>
      </trkpt>
      <trkpt lat="42.90681" lon="-0.27463">
        <ele>1583.4</ele>
        <time>2026-07-04T13:08:28.000Z</time>
      </trkpt>
      <trkpt lat="42.90684" lon="-0.2745">
        <ele>1582.8</ele>
        <time>2026-07-04T13:08:38.000Z</time>
      </trkpt>
      <trkpt lat="42.90688" lon="-0.27438">
        <ele>1583.7</ele>
        <time>2026-07-04T13:08:47.000Z</time>
      </trkpt>
      <trkpt lat="42.90692" lon="-0.27425">
        <ele>1582</ele>
        <time>2026-07-04T13:08:57.000Z</time>
      </trkpt>
      <trkpt lat="42.90696" lon="-0.27413">
        <ele>1579.4</ele>
        <time>2026-07-04T13:09:07.000Z</time>
      </trkpt>
      <trkpt lat="42.90697" lon="-0.27399">
        <ele>1576.1</ele>
        <time>2026-07-04T13:09:16.000Z</time>
      </trkpt>
      <trkpt lat="42.90697" lon="-0.27387">
        <ele>1572.5</ele>
        <time>2026-07-04T13:09:23.000Z</time>
      </trkpt>
      <trkpt lat="42.90696" lon="-0.27374">
        <ele>1567.7</ele>
        <time>2026-07-04T13:09:34.000Z</time>
      </trkpt>
      <trkpt lat="42.90692" lon="-0.27362">
        <ele>1565.1</ele>
        <time>2026-07-04T13:09:44.000Z</time>
      </trkpt>
      <trkpt lat="42.90691" lon="-0.27349">
        <ele>1563.9</ele>
        <time>2026-07-04T13:09:54.000Z</time>
      </trkpt>
      <trkpt lat="42.9069" lon="-0.27335">
        <ele>1559.3</ele>
        <time>2026-07-04T13:10:05.000Z</time>
      </trkpt>
      <trkpt lat="42.90687" lon="-0.27322">
        <ele>1558</ele>
        <time>2026-07-04T13:10:14.000Z</time>
      </trkpt>
      <trkpt lat="42.90684" lon="-0.27311">
        <ele>1555.4</ele>
        <time>2026-07-04T13:10:22.000Z</time>
      </trkpt>
      <trkpt lat="42.90682" lon="-0.27298">
        <ele>1553.3</ele>
        <time>2026-07-04T13:10:33.000Z</time>
      </trkpt>
      <trkpt lat="42.90682" lon="-0.27286">
        <ele>1552.6</ele>
        <time>2026-07-04T13:10:42.000Z</time>
      </trkpt>
      <trkpt lat="42.90683" lon="-0.27273">
        <ele>1551.5</ele>
        <time>2026-07-04T13:10:57.000Z</time>
      </trkpt>
      <trkpt lat="42.90682" lon="-0.2726">
        <ele>1547</ele>
        <time>2026-07-04T13:11:12.000Z</time>
      </trkpt>
      <trkpt lat="42.90683" lon="-0.27248">
        <ele>1545.8</ele>
        <time>2026-07-04T13:11:21.000Z</time>
      </trkpt>
      <trkpt lat="42.90682" lon="-0.27235">
        <ele>1544.9</ele>
        <time>2026-07-04T13:11:31.000Z</time>
      </trkpt>
      <trkpt lat="42.90679" lon="-0.27222">
        <ele>1543.3</ele>
        <time>2026-07-04T13:11:40.000Z</time>
      </trkpt>
      <trkpt lat="42.90676" lon="-0.2721">
        <ele>1540.9</ele>
        <time>2026-07-04T13:11:49.000Z</time>
      </trkpt>
      <trkpt lat="42.90672" lon="-0.27198">
        <ele>1538</ele>
        <time>2026-07-04T13:11:59.000Z</time>
      </trkpt>
      <trkpt lat="42.90668" lon="-0.27187">
        <ele>1534.5</ele>
        <time>2026-07-04T13:12:10.000Z</time>
      </trkpt>
      <trkpt lat="42.90668" lon="-0.27174">
        <ele>1529.8</ele>
        <time>2026-07-04T13:12:21.000Z</time>
      </trkpt>
      <trkpt lat="42.90671" lon="-0.27162">
        <ele>1528.1</ele>
        <time>2026-07-04T13:12:34.000Z</time>
      </trkpt>
      <trkpt lat="42.90671" lon="-0.27149">
        <ele>1521.9</ele>
        <time>2026-07-04T13:12:45.000Z</time>
      </trkpt>
      <trkpt lat="42.90668" lon="-0.27137">
        <ele>1520.8</ele>
        <time>2026-07-04T13:12:54.000Z</time>
      </trkpt>
      <trkpt lat="42.90669" lon="-0.27124">
        <ele>1522</ele>
        <time>2026-07-04T13:13:05.000Z</time>
      </trkpt>
      <trkpt lat="42.90669" lon="-0.27111">
        <ele>1524.2</ele>
        <time>2026-07-04T13:13:14.000Z</time>
      </trkpt>
      <trkpt lat="42.90669" lon="-0.27099">
        <ele>1527</ele>
        <time>2026-07-04T13:13:27.000Z</time>
      </trkpt>
      <trkpt lat="42.90666" lon="-0.27086">
        <ele>1529.3</ele>
        <time>2026-07-04T13:13:39.000Z</time>
      </trkpt>
      <trkpt lat="42.90668" lon="-0.27074">
        <ele>1526.9</ele>
        <time>2026-07-04T13:13:50.000Z</time>
      </trkpt>
      <trkpt lat="42.90669" lon="-0.27061">
        <ele>1521.7</ele>
        <time>2026-07-04T13:13:57.000Z</time>
      </trkpt>
      <trkpt lat="42.90673" lon="-0.27049">
        <ele>1519.5</ele>
        <time>2026-07-04T13:14:06.000Z</time>
      </trkpt>
      <trkpt lat="42.90676" lon="-0.27037">
        <ele>1520.3</ele>
        <time>2026-07-04T13:14:17.000Z</time>
      </trkpt>
      <trkpt lat="42.90681" lon="-0.27027">
        <ele>1514.8</ele>
        <time>2026-07-04T13:14:34.000Z</time>
      </trkpt>
      <trkpt lat="42.90687" lon="-0.27017">
        <ele>1513.7</ele>
        <time>2026-07-04T13:14:44.000Z</time>
      </trkpt>
      <trkpt lat="42.90692" lon="-0.27005">
        <ele>1515.8</ele>
        <time>2026-07-04T13:14:56.000Z</time>
      </trkpt>
      <trkpt lat="42.90698" lon="-0.26994">
        <ele>1517.2</ele>
        <time>2026-07-04T13:15:05.000Z</time>
      </trkpt>
      <trkpt lat="42.90704" lon="-0.26985">
        <ele>1517.3</ele>
        <time>2026-07-04T13:15:13.000Z</time>
      </trkpt>
      <trkpt lat="42.9071" lon="-0.26975">
        <ele>1516</ele>
        <time>2026-07-04T13:15:22.000Z</time>
      </trkpt>
      <trkpt lat="42.90717" lon="-0.26966">
        <ele>1517</ele>
        <time>2026-07-04T13:15:31.000Z</time>
      </trkpt>
      <trkpt lat="42.90725" lon="-0.26958">
        <ele>1515.7</ele>
        <time>2026-07-04T13:15:42.000Z</time>
      </trkpt>
      <trkpt lat="42.90731" lon="-0.26948">
        <ele>1509.1</ele>
        <time>2026-07-04T13:15:53.000Z</time>
      </trkpt>
      <trkpt lat="42.90738" lon="-0.2694">
        <ele>1505.2</ele>
        <time>2026-07-04T13:16:01.000Z</time>
      </trkpt>
      <trkpt lat="42.90744" lon="-0.2693">
        <ele>1503.1</ele>
        <time>2026-07-04T13:16:10.000Z</time>
      </trkpt>
      <trkpt lat="42.90751" lon="-0.2692">
        <ele>1499.2</ele>
        <time>2026-07-04T13:16:20.000Z</time>
      </trkpt>
      <trkpt lat="42.90757" lon="-0.2691">
        <ele>1496</ele>
        <time>2026-07-04T13:16:27.000Z</time>
      </trkpt>
      <trkpt lat="42.90758" lon="-0.26897">
        <ele>1494.5</ele>
        <time>2026-07-04T13:16:35.000Z</time>
      </trkpt>
      <trkpt lat="42.90763" lon="-0.26885">
        <ele>1492.1</ele>
        <time>2026-07-04T13:16:44.000Z</time>
      </trkpt>
      <trkpt lat="42.90766" lon="-0.26872">
        <ele>1489</ele>
        <time>2026-07-04T13:16:54.000Z</time>
      </trkpt>
      <trkpt lat="42.90769" lon="-0.2686">
        <ele>1486.5</ele>
        <time>2026-07-04T13:17:03.000Z</time>
      </trkpt>
      <trkpt lat="42.90772" lon="-0.26848">
        <ele>1484.1</ele>
        <time>2026-07-04T13:17:19.000Z</time>
      </trkpt>
      <trkpt lat="42.90773" lon="-0.26846">
        <ele>1479.6</ele>
        <time>2026-07-04T13:17:31.000Z</time>
      </trkpt>
      <trkpt lat="42.90774" lon="-0.26847">
        <ele>1473.4</ele>
        <time>2026-07-04T13:18:25.000Z</time>
      </trkpt>
      <trkpt lat="42.90784" lon="-0.26847">
        <ele>1474.4</ele>
        <time>2026-07-04T13:18:40.000Z</time>
      </trkpt>
      <trkpt lat="42.90793" lon="-0.26842">
        <ele>1476.3</ele>
        <time>2026-07-04T13:18:56.000Z</time>
      </trkpt>
      <trkpt lat="42.90802" lon="-0.26837">
        <ele>1476.6</ele>
        <time>2026-07-04T13:19:04.000Z</time>
      </trkpt>
      <trkpt lat="42.90808" lon="-0.26828">
        <ele>1475.7</ele>
        <time>2026-07-04T13:19:12.000Z</time>
      </trkpt>
      <trkpt lat="42.90815" lon="-0.26819">
        <ele>1475.6</ele>
        <time>2026-07-04T13:19:21.000Z</time>
      </trkpt>
      <trkpt lat="42.90822" lon="-0.26812">
        <ele>1476.5</ele>
        <time>2026-07-04T13:19:32.000Z</time>
      </trkpt>
      <trkpt lat="42.90831" lon="-0.26808">
        <ele>1476</ele>
        <time>2026-07-04T13:19:44.000Z</time>
      </trkpt>
      <trkpt lat="42.90839" lon="-0.268">
        <ele>1476.4</ele>
        <time>2026-07-04T13:19:56.000Z</time>
      </trkpt>
      <trkpt lat="42.90845" lon="-0.26791">
        <ele>1475.3</ele>
        <time>2026-07-04T13:20:05.000Z</time>
      </trkpt>
      <trkpt lat="42.90853" lon="-0.26784">
        <ele>1472.8</ele>
        <time>2026-07-04T13:20:12.000Z</time>
      </trkpt>
      <trkpt lat="42.90859" lon="-0.26776">
        <ele>1472.1</ele>
        <time>2026-07-04T13:20:19.000Z</time>
      </trkpt>
      <trkpt lat="42.90868" lon="-0.2677">
        <ele>1472.1</ele>
        <time>2026-07-04T13:20:29.000Z</time>
      </trkpt>
      <trkpt lat="42.90876" lon="-0.26764">
        <ele>1474.3</ele>
        <time>2026-07-04T13:20:40.000Z</time>
      </trkpt>
      <trkpt lat="42.90884" lon="-0.26759">
        <ele>1474.3</ele>
        <time>2026-07-04T13:20:49.000Z</time>
      </trkpt>
      <trkpt lat="42.90889" lon="-0.26748">
        <ele>1473.6</ele>
        <time>2026-07-04T13:21:00.000Z</time>
      </trkpt>
      <trkpt lat="42.90894" lon="-0.26736">
        <ele>1469.3</ele>
        <time>2026-07-04T13:21:09.000Z</time>
      </trkpt>
      <trkpt lat="42.90899" lon="-0.26726">
        <ele>1464.7</ele>
        <time>2026-07-04T13:21:20.000Z</time>
      </trkpt>
      <trkpt lat="42.90906" lon="-0.26717">
        <ele>1458.4</ele>
        <time>2026-07-04T13:21:30.000Z</time>
      </trkpt>
      <trkpt lat="42.90913" lon="-0.26708">
        <ele>1449.3</ele>
        <time>2026-07-04T13:21:46.000Z</time>
      </trkpt>
      <trkpt lat="42.90921" lon="-0.26702">
        <ele>1441.4</ele>
        <time>2026-07-04T13:22:00.000Z</time>
      </trkpt>
      <trkpt lat="42.90929" lon="-0.26695">
        <ele>1437.7</ele>
        <time>2026-07-04T13:22:14.000Z</time>
      </trkpt>
      <trkpt lat="42.90936" lon="-0.26687">
        <ele>1438.1</ele>
        <time>2026-07-04T13:22:28.000Z</time>
      </trkpt>
      <trkpt lat="42.90943" lon="-0.26677">
        <ele>1437</ele>
        <time>2026-07-04T13:22:40.000Z</time>
      </trkpt>
      <trkpt lat="42.90948" lon="-0.26666">
        <ele>1430.7</ele>
        <time>2026-07-04T13:22:55.000Z</time>
      </trkpt>
      <trkpt lat="42.90954" lon="-0.26656">
        <ele>1427.5</ele>
        <time>2026-07-04T13:23:10.000Z</time>
      </trkpt>
      <trkpt lat="42.90958" lon="-0.26645">
        <ele>1427.7</ele>
        <time>2026-07-04T13:23:21.000Z</time>
      </trkpt>
      <trkpt lat="42.90963" lon="-0.26633">
        <ele>1428.8</ele>
        <time>2026-07-04T13:23:33.000Z</time>
      </trkpt>
      <trkpt lat="42.90969" lon="-0.26624">
        <ele>1423.2</ele>
        <time>2026-07-04T13:23:44.000Z</time>
      </trkpt>
      <trkpt lat="42.90975" lon="-0.26615">
        <ele>1416.7</ele>
        <time>2026-07-04T13:24:02.000Z</time>
      </trkpt>
      <trkpt lat="42.90982" lon="-0.26607">
        <ele>1417.6</ele>
        <time>2026-07-04T13:24:14.000Z</time>
      </trkpt>
      <trkpt lat="42.90989" lon="-0.266">
        <ele>1415.5</ele>
        <time>2026-07-04T13:24:25.000Z</time>
      </trkpt>
      <trkpt lat="42.90999" lon="-0.26596">
        <ele>1416.8</ele>
        <time>2026-07-04T13:24:38.000Z</time>
      </trkpt>
      <trkpt lat="42.91008" lon="-0.26591">
        <ele>1415.8</ele>
        <time>2026-07-04T13:24:48.000Z</time>
      </trkpt>
      <trkpt lat="42.91016" lon="-0.26584">
        <ele>1414.1</ele>
        <time>2026-07-04T13:24:59.000Z</time>
      </trkpt>
      <trkpt lat="42.91023" lon="-0.26577">
        <ele>1413.5</ele>
        <time>2026-07-04T13:25:12.000Z</time>
      </trkpt>
      <trkpt lat="42.91032" lon="-0.26575">
        <ele>1408.4</ele>
        <time>2026-07-04T13:25:19.000Z</time>
      </trkpt>
      <trkpt lat="42.91042" lon="-0.26572">
        <ele>1405.3</ele>
        <time>2026-07-04T13:25:29.000Z</time>
      </trkpt>
      <trkpt lat="42.91051" lon="-0.26569">
        <ele>1404.8</ele>
        <time>2026-07-04T13:25:41.000Z</time>
      </trkpt>
      <trkpt lat="42.91061" lon="-0.26567">
        <ele>1406.7</ele>
        <time>2026-07-04T13:25:52.000Z</time>
      </trkpt>
      <trkpt lat="42.9107" lon="-0.26569">
        <ele>1406.1</ele>
        <time>2026-07-04T13:26:00.000Z</time>
      </trkpt>
      <trkpt lat="42.91079" lon="-0.26571">
        <ele>1403.2</ele>
        <time>2026-07-04T13:26:08.000Z</time>
      </trkpt>
      <trkpt lat="42.91088" lon="-0.26572">
        <ele>1395.8</ele>
        <time>2026-07-04T13:26:19.000Z</time>
      </trkpt>
      <trkpt lat="42.91098" lon="-0.26571">
        <ele>1395.2</ele>
        <time>2026-07-04T13:26:32.000Z</time>
      </trkpt>
      <trkpt lat="42.91107" lon="-0.26574">
        <ele>1395.2</ele>
        <time>2026-07-04T13:26:41.000Z</time>
      </trkpt>
      <trkpt lat="42.91113" lon="-0.26564">
        <ele>1395.1</ele>
        <time>2026-07-04T13:26:49.000Z</time>
      </trkpt>
      <trkpt lat="42.91123" lon="-0.2656">
        <ele>1397.1</ele>
        <time>2026-07-04T13:26:59.000Z</time>
      </trkpt>
      <trkpt lat="42.91132" lon="-0.26557">
        <ele>1398</ele>
        <time>2026-07-04T13:27:08.000Z</time>
      </trkpt>
      <trkpt lat="42.91141" lon="-0.26556">
        <ele>1398.5</ele>
        <time>2026-07-04T13:27:15.000Z</time>
      </trkpt>
      <trkpt lat="42.9115" lon="-0.26559">
        <ele>1398.7</ele>
        <time>2026-07-04T13:27:22.000Z</time>
      </trkpt>
      <trkpt lat="42.9116" lon="-0.26559">
        <ele>1397.6</ele>
        <time>2026-07-04T13:27:30.000Z</time>
      </trkpt>
      <trkpt lat="42.91168" lon="-0.26565">
        <ele>1397.5</ele>
        <time>2026-07-04T13:27:37.000Z</time>
      </trkpt>
      <trkpt lat="42.91178" lon="-0.26565">
        <ele>1391.8</ele>
        <time>2026-07-04T13:27:46.000Z</time>
      </trkpt>
      <trkpt lat="42.91183" lon="-0.26555">
        <ele>1378</ele>
        <time>2026-07-04T13:27:57.000Z</time>
      </trkpt>
      <trkpt lat="42.91175" lon="-0.26548">
        <ele>1370.1</ele>
        <time>2026-07-04T13:28:12.000Z</time>
      </trkpt>
      <trkpt lat="42.91168" lon="-0.2654">
        <ele>1367.8</ele>
        <time>2026-07-04T13:28:27.000Z</time>
      </trkpt>
      <trkpt lat="42.91159" lon="-0.26535">
        <ele>1368.1</ele>
        <time>2026-07-04T13:28:38.000Z</time>
      </trkpt>
      <trkpt lat="42.9115" lon="-0.26531">
        <ele>1364.3</ele>
        <time>2026-07-04T13:28:51.000Z</time>
      </trkpt>
      <trkpt lat="42.91143" lon="-0.26523">
        <ele>1363.7</ele>
        <time>2026-07-04T13:29:04.000Z</time>
      </trkpt>
      <trkpt lat="42.91136" lon="-0.26515">
        <ele>1361.8</ele>
        <time>2026-07-04T13:29:14.000Z</time>
      </trkpt>
      <trkpt lat="42.91129" lon="-0.26505">
        <ele>1357.5</ele>
        <time>2026-07-04T13:29:25.000Z</time>
      </trkpt>
      <trkpt lat="42.91122" lon="-0.26496">
        <ele>1351.5</ele>
        <time>2026-07-04T13:29:37.000Z</time>
      </trkpt>
      <trkpt lat="42.91115" lon="-0.26488">
        <ele>1344.8</ele>
        <time>2026-07-04T13:29:57.000Z</time>
      </trkpt>
      <trkpt lat="42.91113" lon="-0.26476">
        <ele>1345.3</ele>
        <time>2026-07-04T13:30:10.000Z</time>
      </trkpt>
      <trkpt lat="42.91112" lon="-0.26464">
        <ele>1348.1</ele>
        <time>2026-07-04T13:30:26.000Z</time>
      </trkpt>
      <trkpt lat="42.91116" lon="-0.26452">
        <ele>1342.8</ele>
        <time>2026-07-04T13:30:49.000Z</time>
      </trkpt>
      <trkpt lat="42.91123" lon="-0.26443">
        <ele>1345.2</ele>
        <time>2026-07-04T13:31:06.000Z</time>
      </trkpt>
      <trkpt lat="42.9113" lon="-0.26434">
        <ele>1347.8</ele>
        <time>2026-07-04T13:31:22.000Z</time>
      </trkpt>
      <trkpt lat="42.91139" lon="-0.26428">
        <ele>1345.2</ele>
        <time>2026-07-04T13:31:33.000Z</time>
      </trkpt>
      <trkpt lat="42.91146" lon="-0.2642">
        <ele>1342.3</ele>
        <time>2026-07-04T13:31:46.000Z</time>
      </trkpt>
      <trkpt lat="42.91147" lon="-0.26418">
        <ele>1342</ele>
        <time>2026-07-04T13:31:58.000Z</time>
      </trkpt>
      <trkpt lat="42.91148" lon="-0.26414">
        <ele>1336.9</ele>
        <time>2026-07-04T13:32:10.000Z</time>
      </trkpt>
      <trkpt lat="42.91148" lon="-0.26412">
        <ele>1334.2</ele>
        <time>2026-07-04T13:32:19.000Z</time>
      </trkpt>
      <trkpt lat="42.91148" lon="-0.26413">
        <ele>1333.6</ele>
        <time>2026-07-04T13:32:24.000Z</time>
      </trkpt>
      <trkpt lat="42.91148" lon="-0.2641">
        <ele>1332</ele>
        <time>2026-07-04T13:32:37.000Z</time>
      </trkpt>
      <trkpt lat="42.9115" lon="-0.26407">
        <ele>1327.8</ele>
        <time>2026-07-04T13:32:56.000Z</time>
      </trkpt>
      <trkpt lat="42.91156" lon="-0.26398">
        <ele>1328.1</ele>
        <time>2026-07-04T13:33:22.000Z</time>
      </trkpt>
      <trkpt lat="42.91165" lon="-0.26391">
        <ele>1327.8</ele>
        <time>2026-07-04T13:33:34.000Z</time>
      </trkpt>
      <trkpt lat="42.91173" lon="-0.26385">
        <ele>1326.8</ele>
        <time>2026-07-04T13:33:44.000Z</time>
      </trkpt>
      <trkpt lat="42.91182" lon="-0.2638">
        <ele>1328.1</ele>
        <time>2026-07-04T13:33:55.000Z</time>
      </trkpt>
      <trkpt lat="42.91191" lon="-0.26376">
        <ele>1329.6</ele>
        <time>2026-07-04T13:34:04.000Z</time>
      </trkpt>
      <trkpt lat="42.91199" lon="-0.26371">
        <ele>1331.7</ele>
        <time>2026-07-04T13:34:16.000Z</time>
      </trkpt>
      <trkpt lat="42.91205" lon="-0.26361">
        <ele>1329.2</ele>
        <time>2026-07-04T13:34:29.000Z</time>
      </trkpt>
      <trkpt lat="42.91208" lon="-0.26349">
        <ele>1329.8</ele>
        <time>2026-07-04T13:34:45.000Z</time>
      </trkpt>
      <trkpt lat="42.91215" lon="-0.26341">
        <ele>1326</ele>
        <time>2026-07-04T13:34:58.000Z</time>
      </trkpt>
      <trkpt lat="42.91222" lon="-0.26333">
        <ele>1321.3</ele>
        <time>2026-07-04T13:35:13.000Z</time>
      </trkpt>
      <trkpt lat="42.91227" lon="-0.26321">
        <ele>1320.3</ele>
        <time>2026-07-04T13:35:22.000Z</time>
      </trkpt>
      <trkpt lat="42.91233" lon="-0.26311">
        <ele>1319.5</ele>
        <time>2026-07-04T13:35:33.000Z</time>
      </trkpt>
      <trkpt lat="42.91237" lon="-0.26299">
        <ele>1319.9</ele>
        <time>2026-07-04T13:35:43.000Z</time>
      </trkpt>
      <trkpt lat="42.91239" lon="-0.26286">
        <ele>1316</ele>
        <time>2026-07-04T13:35:55.000Z</time>
      </trkpt>
      <trkpt lat="42.91244" lon="-0.26275">
        <ele>1315.2</ele>
        <time>2026-07-04T13:36:06.000Z</time>
      </trkpt>
      <trkpt lat="42.91249" lon="-0.26264">
        <ele>1313.3</ele>
        <time>2026-07-04T13:36:20.000Z</time>
      </trkpt>
      <trkpt lat="42.91253" lon="-0.26253">
        <ele>1313.8</ele>
        <time>2026-07-04T13:36:34.000Z</time>
      </trkpt>
      <trkpt lat="42.91256" lon="-0.2624">
        <ele>1310.3</ele>
        <time>2026-07-04T13:36:45.000Z</time>
      </trkpt>
      <trkpt lat="42.91257" lon="-0.26228">
        <ele>1304.6</ele>
        <time>2026-07-04T13:36:52.000Z</time>
      </trkpt>
      <trkpt lat="42.9126" lon="-0.26215">
        <ele>1301.5</ele>
        <time>2026-07-04T13:37:04.000Z</time>
      </trkpt>
      <trkpt lat="42.91261" lon="-0.26202">
        <ele>1300.2</ele>
        <time>2026-07-04T13:37:10.000Z</time>
      </trkpt>
      <trkpt lat="42.91264" lon="-0.26188">
        <ele>1295.4</ele>
        <time>2026-07-04T13:37:19.000Z</time>
      </trkpt>
      <trkpt lat="42.91265" lon="-0.26176">
        <ele>1294.2</ele>
        <time>2026-07-04T13:37:25.000Z</time>
      </trkpt>
      <trkpt lat="42.91265" lon="-0.26163">
        <ele>1295.3</ele>
        <time>2026-07-04T13:37:32.000Z</time>
      </trkpt>
      <trkpt lat="42.91264" lon="-0.2615">
        <ele>1295.1</ele>
        <time>2026-07-04T13:37:41.000Z</time>
      </trkpt>
      <trkpt lat="42.91259" lon="-0.2614">
        <ele>1288.4</ele>
        <time>2026-07-04T13:37:49.000Z</time>
      </trkpt>
      <trkpt lat="42.9125" lon="-0.26137">
        <ele>1279.4</ele>
        <time>2026-07-04T13:37:58.000Z</time>
      </trkpt>
      <trkpt lat="42.9124" lon="-0.26138">
        <ele>1275.2</ele>
        <time>2026-07-04T13:38:09.000Z</time>
      </trkpt>
      <trkpt lat="42.9123" lon="-0.26137">
        <ele>1272</ele>
        <time>2026-07-04T13:38:20.000Z</time>
      </trkpt>
      <trkpt lat="42.91221" lon="-0.2614">
        <ele>1268.6</ele>
        <time>2026-07-04T13:38:30.000Z</time>
      </trkpt>
      <trkpt lat="42.91212" lon="-0.26141">
        <ele>1265.7</ele>
        <time>2026-07-04T13:38:42.000Z</time>
      </trkpt>
      <trkpt lat="42.91203" lon="-0.26138">
        <ele>1264.8</ele>
        <time>2026-07-04T13:38:59.000Z</time>
      </trkpt>
      <trkpt lat="42.91194" lon="-0.26135">
        <ele>1265.7</ele>
        <time>2026-07-04T13:39:11.000Z</time>
      </trkpt>
      <trkpt lat="42.91185" lon="-0.26135">
        <ele>1263.2</ele>
        <time>2026-07-04T13:39:24.000Z</time>
      </trkpt>
      <trkpt lat="42.91178" lon="-0.26126">
        <ele>1257.1</ele>
        <time>2026-07-04T13:39:41.000Z</time>
      </trkpt>
      <trkpt lat="42.91179" lon="-0.26113">
        <ele>1258.8</ele>
        <time>2026-07-04T13:39:55.000Z</time>
      </trkpt>
      <trkpt lat="42.91186" lon="-0.26105">
        <ele>1259</ele>
        <time>2026-07-04T13:40:10.000Z</time>
      </trkpt>
      <trkpt lat="42.91194" lon="-0.26099">
        <ele>1261.6</ele>
        <time>2026-07-04T13:40:22.000Z</time>
      </trkpt>
      <trkpt lat="42.91199" lon="-0.26089">
        <ele>1263.2</ele>
        <time>2026-07-04T13:40:33.000Z</time>
      </trkpt>
      <trkpt lat="42.91207" lon="-0.26082">
        <ele>1263.9</ele>
        <time>2026-07-04T13:40:45.000Z</time>
      </trkpt>
      <trkpt lat="42.91213" lon="-0.26072">
        <ele>1263.1</ele>
        <time>2026-07-04T13:40:55.000Z</time>
      </trkpt>
      <trkpt lat="42.9122" lon="-0.26063">
        <ele>1263</ele>
        <time>2026-07-04T13:41:04.000Z</time>
      </trkpt>
      <trkpt lat="42.91228" lon="-0.26053">
        <ele>1259.5</ele>
        <time>2026-07-04T13:41:13.000Z</time>
      </trkpt>
      <trkpt lat="42.91233" lon="-0.26041">
        <ele>1256.4</ele>
        <time>2026-07-04T13:41:21.000Z</time>
      </trkpt>
      <trkpt lat="42.91238" lon="-0.2603">
        <ele>1253.6</ele>
        <time>2026-07-04T13:41:30.000Z</time>
      </trkpt>
      <trkpt lat="42.91244" lon="-0.26019">
        <ele>1252.1</ele>
        <time>2026-07-04T13:41:40.000Z</time>
      </trkpt>
      <trkpt lat="42.91252" lon="-0.26013">
        <ele>1246.7</ele>
        <time>2026-07-04T13:41:49.000Z</time>
      </trkpt>
      <trkpt lat="42.9126" lon="-0.26005">
        <ele>1241.2</ele>
        <time>2026-07-04T13:41:59.000Z</time>
      </trkpt>
      <trkpt lat="42.91263" lon="-0.25993">
        <ele>1234.9</ele>
        <time>2026-07-04T13:42:19.000Z</time>
      </trkpt>
      <trkpt lat="42.91265" lon="-0.2598">
        <ele>1233.3</ele>
        <time>2026-07-04T13:42:26.000Z</time>
      </trkpt>
      <trkpt lat="42.91266" lon="-0.25967">
        <ele>1230.7</ele>
        <time>2026-07-04T13:42:36.000Z</time>
      </trkpt>
      <trkpt lat="42.91269" lon="-0.25955">
        <ele>1227.1</ele>
        <time>2026-07-04T13:42:47.000Z</time>
      </trkpt>
      <trkpt lat="42.9127" lon="-0.25943">
        <ele>1222.1</ele>
        <time>2026-07-04T13:42:56.000Z</time>
      </trkpt>
      <trkpt lat="42.91276" lon="-0.25933">
        <ele>1218.4</ele>
        <time>2026-07-04T13:43:11.000Z</time>
      </trkpt>
      <trkpt lat="42.91283" lon="-0.25923">
        <ele>1217</ele>
        <time>2026-07-04T13:43:22.000Z</time>
      </trkpt>
      <trkpt lat="42.91289" lon="-0.25913">
        <ele>1214.1</ele>
        <time>2026-07-04T13:43:36.000Z</time>
      </trkpt>
      <trkpt lat="42.91298" lon="-0.2591">
        <ele>1213.9</ele>
        <time>2026-07-04T13:43:45.000Z</time>
      </trkpt>
      <trkpt lat="42.91307" lon="-0.25916">
        <ele>1214</ele>
        <time>2026-07-04T13:43:55.000Z</time>
      </trkpt>
      <trkpt lat="42.91316" lon="-0.25916">
        <ele>1214.2</ele>
        <time>2026-07-04T13:44:04.000Z</time>
      </trkpt>
      <trkpt lat="42.91326" lon="-0.25913">
        <ele>1214.3</ele>
        <time>2026-07-04T13:44:13.000Z</time>
      </trkpt>
      <trkpt lat="42.91335" lon="-0.25911">
        <ele>1215.3</ele>
        <time>2026-07-04T13:44:22.000Z</time>
      </trkpt>
      <trkpt lat="42.91344" lon="-0.2591">
        <ele>1216.7</ele>
        <time>2026-07-04T13:44:31.000Z</time>
      </trkpt>
      <trkpt lat="42.9135" lon="-0.25913">
        <ele>1215.4</ele>
        <time>2026-07-04T13:45:08.000Z</time>
      </trkpt>
      <trkpt lat="42.9135" lon="-0.25912">
        <ele>1214.7</ele>
        <time>2026-07-04T13:45:25.000Z</time>
      </trkpt>
      <trkpt lat="42.9135" lon="-0.25911">
        <ele>1212.5</ele>
        <time>2026-07-04T13:45:36.000Z</time>
      </trkpt>
      <trkpt lat="42.91349" lon="-0.25912">
        <ele>1218.2</ele>
        <time>2026-07-04T13:48:21.000Z</time>
      </trkpt>
      <trkpt lat="42.91348" lon="-0.25913">
        <ele>1218.6</ele>
        <time>2026-07-04T13:48:34.000Z</time>
      </trkpt>
      <trkpt lat="42.91348" lon="-0.25914">
        <ele>1218.6</ele>
        <time>2026-07-04T13:48:35.100Z</time>
      </trkpt>
      <trkpt lat="42.91348" lon="-0.25914">
        <ele>1218.6</ele>
        <time>2026-07-04T13:48:35.100Z</time>
      </trkpt>
    </trkseg>
  </trk>
</gpx>